Provisional Data: Snake Creek near Lawsville Center, PA


Please select a monitoring station.
Please select start date.
Please select start date.

Toggle Unit: C/F Toggle Unit: C/F
Sample Time Temperature (C) Temperature (F) Specific Conductivity (mS/cm) pH   Turbidity (NTU+) DO (mg/L)
3/7/2021 12:00:00 AM -0.02 31.964 0.117 7.07 4.16 14.21
3/7/2021 12:15:00 AM -0.02 31.964 0.118 7.07 4.11 14.22
3/7/2021 12:30:00 AM -0.02 31.964 0.118 7.07 4.1 14.23
3/7/2021 12:45:00 AM -0.01 31.982 0.114 7.07 4.09 14.23
3/7/2021 1:00:00 AM -0.01 31.982 0.117 7.07 4.07 14.23
3/7/2021 1:15:00 AM -0.01 31.982 0.118 7.07 4.06 14.24
3/7/2021 1:30:00 AM -0.01 31.982 0.117 7.07 4.08 14.24
3/7/2021 1:45:00 AM -0.01 31.982 0.12 7.07 4.25 14.24
3/7/2021 2:00:00 AM -0.01 31.982 0.12 7.07 4.03 14.24
3/7/2021 2:15:00 AM -0.01 31.982 0.122 7.07 4.04 14.25
3/7/2021 2:30:00 AM -0.01 31.982 0.12 7.07 3.84 14.25
3/7/2021 2:45:00 AM -0.01 31.982 0.117 7.07 3.93 14.24
3/7/2021 3:00:00 AM -0.01 31.982 0.116 7.07 3.88 14.25
3/7/2021 3:15:00 AM -0.01 31.982 0.119 7.07 4.23 14.25
3/7/2021 3:30:00 AM -0.01 31.982 0.118 7.07 3.87 14.25
3/7/2021 3:45:00 AM -0.01 31.982 0.116 7.07 4.03 14.25
3/7/2021 4:00:00 AM -0.01 31.982 0.123 7.07 4.15 14.26
3/7/2021 4:15:00 AM -0.02 31.964 0.117 7.07 3.87 14.25
3/7/2021 4:30:00 AM -0.03 31.946 0.118 7.07 3.97 14.26
3/7/2021 4:45:00 AM -0.02 31.964 0.115 7.07 4.08 14.26
3/7/2021 5:00:00 AM -0.02 31.964 0.111 7.06 3.76 14.26
3/7/2021 5:15:00 AM -0.02 31.964 0.114 7.06 4.21 14.26
3/7/2021 5:30:00 AM -0.03 31.946 0.114 7.06 5.17 14.26
3/7/2021 5:45:00 AM -0.02 31.964 0.112 7.06 4.12 14.26
3/7/2021 6:00:00 AM -0.02 31.964 0.116 7.06 4.15 14.27
3/7/2021 6:15:00 AM -0.02 31.964 0.11 7.06 4.13 14.26
3/7/2021 6:30:00 AM -0.02 31.964 0.116 7.06 4.11 14.27
3/7/2021 6:45:00 AM -0.02 31.964 0.112 7.06 4 14.29
3/7/2021 7:00:00 AM -0.03 31.946 0.112 7.06 4.06 14.33
3/7/2021 7:15:00 AM -0.02 31.964 0.112 7.07 4.09 14.39
3/7/2021 7:30:00 AM -0.01 31.982 0.108 7.08 3.9 14.45
3/7/2021 7:45:00 AM -0.01 31.982 0.113 7.09 3.89 14.51
3/7/2021 8:00:00 AM 0 32 0.112 7.1 4 14.56
3/7/2021 8:15:00 AM 0.02 32.036 0.113 7.12 3.92 14.62
3/7/2021 8:30:00 AM 0.03 32.054 0.111 7.12 3.95 14.66
3/7/2021 8:45:00 AM 0.06 32.108 0.11 7.13 3.91 14.7
3/7/2021 9:00:00 AM 0.09 32.162 0.11 7.14 4.17 14.74
3/7/2021 9:15:00 AM 0.1 32.18 0.108 7.15 3.65 14.77
3/7/2021 9:30:00 AM 0.11 32.198 0.111 7.16 3.86 14.79
3/7/2021 9:45:00 AM 0.16 32.288 0.109 7.18 3.72 14.82
3/7/2021 10:00:00 AM 0.19 32.342 0.108 7.19 3.96 14.83
3/7/2021 10:15:00 AM 0.22 32.396 0.107 7.2 3.82 14.83
3/7/2021 10:30:00 AM 0.18 32.324 0.109 7.21 3.69 14.84
3/7/2021 10:45:00 AM 0.15 32.27 0.106 7.22 3.86 14.86
3/7/2021 11:00:00 AM 0.15 32.27 0.107 7.23 3.82 14.86
3/7/2021 11:15:00 AM 0.12 32.216 0.107 7.24 3.95 14.85
3/7/2021 11:30:00 AM 0.13 32.234 0.107 7.24 4.07 14.85
3/7/2021 11:45:00 AM 0.19 32.342 0.105 7.25 4.33 14.83
3/7/2021 12:00:00 PM 0.16 32.288 0.103 7.26 4.34 14.82
3/7/2021 12:15:00 PM 0.33 32.594 0.105 7.27 4.6 14.81
3/7/2021 12:30:00 PM 0.6 33.08 0.105 7.28 4.52 14.79
3/7/2021 12:45:00 PM 0.81 33.458 0.105 7.29 4.84 14.76
3/7/2021 1:00:00 PM 1.07 33.926 0.104 7.3 4.92 14.71
3/7/2021 1:15:00 PM 1.29 34.322 0.102 7.3 4.77 14.65
3/7/2021 1:30:00 PM 1.46 34.628 0.102 7.3 4.89 14.61
3/7/2021 1:45:00 PM 1.6 34.88 0.102 7.3 5.03 14.57
3/7/2021 2:00:00 PM 1.72 35.096 0.1 7.3 5.31 14.53
3/7/2021 2:15:00 PM 1.82 35.276 0.102 7.3 5.49 14.49
3/7/2021 2:30:00 PM 1.92 35.456 0.1 7.31 5.99 14.46
3/7/2021 2:45:00 PM 1.99 35.582 0.1 7.31 6.24 14.43
3/7/2021 3:00:00 PM 2.02 35.636 0.099 7.3 7.01 14.4
3/7/2021 3:15:00 PM 2.01 35.618 0.102 7.31 7.38 14.39
3/7/2021 3:30:00 PM 1.98 35.564 0.101 7.3 7.44 14.38
3/7/2021 3:45:00 PM 1.95 35.51 0.099 7.3 7.98 14.37
3/7/2021 4:00:00 PM 1.89 35.402 0.099 7.3 8.83 14.35
3/7/2021 4:15:00 PM 1.8 35.24 0.103 7.3 7.9 14.35
3/7/2021 4:30:00 PM 1.7 35.06 0.104 7.29 7.71 14.35
3/7/2021 4:45:00 PM 1.59 34.862 0.103 7.28 7.4 14.35
3/7/2021 5:00:00 PM 1.46 34.628 0.104 7.27 6.63 14.33
3/7/2021 5:15:00 PM 1.34 34.412 0.105 7.26 6.66 14.32
3/7/2021 5:30:00 PM 1.24 34.232 0.101 7.25 6.26 14.3
3/7/2021 5:45:00 PM 1.13 34.034 0.106 7.23 6.17 14.27
3/7/2021 6:00:00 PM 1.02 33.836 0.103 7.21 6.13 14.23
3/7/2021 6:15:00 PM 0.93 33.674 0.103 7.19 5.88 14.17
3/7/2021 6:30:00 PM 0.84 33.512 0.109 7.17 6.02 14.13
3/7/2021 6:45:00 PM 0.76 33.368 0.107 7.15 5.65 14.1
3/7/2021 7:00:00 PM 0.69 33.242 0.108 7.14 5.3 14.08
3/7/2021 7:15:00 PM 0.63 33.134 0.107 7.13 5.23 14.07
3/7/2021 7:30:00 PM 0.57 33.026 0.107 7.12 5.1 14.07
3/7/2021 7:45:00 PM 0.52 32.936 0.109 7.11 5.09 14.07
3/7/2021 8:00:00 PM 0.46 32.828 0.108 7.11 5.13 14.08
3/7/2021 8:15:00 PM 0.41 32.738 0.104 7.1 7.33 14.09
3/7/2021 8:30:00 PM 0.36 32.648 0.108 7.09 5.03 14.11
3/7/2021 8:45:00 PM 0.31 32.558 0.104 7.09 5.31 14.12
3/7/2021 9:00:00 PM 0.27 32.486 0.105 7.08 5.26 14.14
3/7/2021 9:15:00 PM 0.22 32.396 0.108 7.08 5.07 14.15
3/7/2021 9:30:00 PM 0.17 32.306 0.108 7.08 4.96 14.17
3/7/2021 9:45:00 PM 0.12 32.216 0.1 7.08 5.38 14.19
3/7/2021 10:00:00 PM 0.07 32.126 0.105 7.07 4.75 14.21
3/7/2021 10:15:00 PM 0.03 32.054 0.103 7.07 4.93 14.22
3/7/2021 10:30:00 PM -0.01 31.982 0.106 7.07 4.67 14.24
3/7/2021 10:45:00 PM -0.04 31.928 0.107 7.07 4.54 14.25
3/7/2021 11:00:00 PM -0.04 31.928 0.106 7.07 4.94 14.27
3/7/2021 11:15:00 PM -0.04 31.928 0.111 7.06 4.28 14.28
3/7/2021 11:30:00 PM -0.04 31.928 0.11 7.07 4.47 14.29
3/7/2021 11:45:00 PM -0.04 31.928 0.11 7.06 4.48 14.3
3/8/2021 12:00:00 AM -0.04 31.928 0.107 7.06 4.61 14.31
3/8/2021 12:15:00 AM -0.04 31.928 0.11 7.06 4.39 14.31
3/8/2021 12:30:00 AM -0.04 31.928 0.109 7.06 4.49 14.32
3/8/2021 12:45:00 AM -0.04 31.928 0.109 7.06 4.46 14.32
3/8/2021 1:00:00 AM -0.04 31.928 0.11 7.05 4.3 14.32
3/8/2021 1:15:00 AM -0.04 31.928 0.109 7.05 4.26 14.32
3/8/2021 1:30:00 AM -0.04 31.928 0.109 7.05 4.2 14.32
3/8/2021 1:45:00 AM -0.04 31.928 0.11 7.04 4.6 14.31
3/8/2021 2:00:00 AM -0.04 31.928 0.112 7.04 4.53 14.3
3/8/2021 2:15:00 AM -0.04 31.928 0.11 7.03 4.27 14.3
3/8/2021 2:30:00 AM -0.04 31.928 0.112 7.03 4.17 14.29
3/8/2021 2:45:00 AM -0.04 31.928 0.112 7.03 4.18 14.29
3/8/2021 3:00:00 AM -0.04 31.928 0.111 7.02 4.13 14.28
3/8/2021 3:15:00 AM -0.04 31.928 0.114 7.02 4.09 14.27
3/8/2021 3:30:00 AM -0.04 31.928 0.113 7.02 3.97 14.26
3/8/2021 3:45:00 AM -0.04 31.928 0.112 7.01 4.12 14.26
3/8/2021 4:00:00 AM -0.04 31.928 0.112 7.01 4.13 14.25
3/8/2021 4:15:00 AM -0.04 31.928 0.113 7.01 3.93 14.25
3/8/2021 4:30:00 AM -0.04 31.928 0.112 7 4.08 14.24
3/8/2021 4:45:00 AM -0.04 31.928 0.112 7 4.15 14.23
3/8/2021 5:00:00 AM -0.03 31.946 0.116 6.99 4.02 14.22
3/8/2021 5:15:00 AM -0.03 31.946 0.114 6.99 5.11 14.21
3/8/2021 5:30:00 AM -0.03 31.946 0.113 6.99 4.04 14.21
3/8/2021 5:45:00 AM -0.03 31.946 0.114 6.98 3.82 14.2
3/8/2021 6:00:00 AM -0.03 31.946 0.113 6.98 3.86 14.19
3/8/2021 6:15:00 AM -0.03 31.946 0.114 6.98 3.79 14.18
3/8/2021 6:30:00 AM -0.03 31.946 0.115 6.98 3.67 14.18
3/8/2021 6:45:00 AM -0.03 31.946 0.115 6.98 3.66 14.19
3/8/2021 7:00:00 AM -0.02 31.964 0.116 6.98 3.68 14.21
3/8/2021 7:15:00 AM -0.02 31.964 0.117 6.98 3.74 14.27
3/8/2021 7:30:00 AM -0.02 31.964 0.117 6.99 3.74 14.32
3/8/2021 7:45:00 AM -0.01 31.982 0.118 7 3.61 14.39
3/8/2021 8:00:00 AM 0 32 0.116 7 3.76 14.44
3/8/2021 8:15:00 AM 0.02 32.036 0.118 7.01 3.6 14.51
3/8/2021 8:30:00 AM 0.03 32.054 0.118 7.02 3.73 14.55
3/8/2021 8:45:00 AM 0.05 32.09 0.118 7.02 3.72 14.6
3/8/2021 9:00:00 AM 0.07 32.126 0.119 7.02 3.67 14.63
3/8/2021 9:15:00 AM 0.1 32.18 0.115 7.02 3.71 14.64
3/8/2021 9:30:00 AM 0.13 32.234 0.115 7.04 3.73 14.69
3/8/2021 9:45:00 AM 0.17 32.306 0.114 7.06 3.71 14.75
3/8/2021 10:00:00 AM 0.21 32.378 0.113 7.07 3.88 14.77
3/8/2021 10:15:00 AM 0.24 32.432 0.113 7.09 3.78 14.81
3/8/2021 10:30:00 AM 0.26 32.468 0.114 7.11 3.75 14.84
3/8/2021 10:45:00 AM 0.26 32.468 0.115 7.13 3.84 14.86
3/8/2021 11:00:00 AM 0.22 32.396 0.114 7.18 3.65 14.88
3/8/2021 11:15:00 AM 0.17 32.306 0.115 7.22 3.74 14.88
3/8/2021 11:30:00 AM 0.16 32.288 0.114 7.25 3.95 14.87
3/8/2021 11:45:00 AM 0.17 32.306 0.113 7.23 4.17 14.84
3/8/2021 12:00:00 PM 0.17 32.306 0.114 7.25 4.54 14.82
3/8/2021 12:15:00 PM 0.19 32.342 0.11 7.28 5.08 14.81
3/8/2021 12:30:00 PM 0.25 32.45 0.112 7.3 5.61 14.8
3/8/2021 12:45:00 PM 0.34 32.612 0.111 7.31 6 14.79
3/8/2021 1:00:00 PM 0.43 32.774 0.108 7.31 6.29 14.77
3/8/2021 1:15:00 PM 0.58 33.044 0.105 7.32 6.58 14.75
3/8/2021 1:30:00 PM 0.66 33.188 0.106 7.32 6.89 14.74
3/8/2021 1:45:00 PM 0.84 33.512 0.103 7.31 7.17 14.73
3/8/2021 2:00:00 PM 1.04 33.872 0.104 7.32 6.77 14.69
3/8/2021 2:15:00 PM 1.17 34.106 0.103 7.32 7.04 14.66
3/8/2021 2:30:00 PM 1.23 34.214 0.104 7.32 7.38 14.63
3/8/2021 2:45:00 PM 1.21 34.178 0.105 7.32 7.78 14.61
3/8/2021 3:00:00 PM 1.07 33.926 0.102 7.31 7.84 14.61
3/8/2021 3:15:00 PM 1.06 33.908 0.101 7.31 8.3 14.59
3/8/2021 3:30:00 PM 1.06 33.908 0.101 7.31 8.28 14.58
3/8/2021 3:45:00 PM 1.05 33.89 0.103 7.31 8.22 14.58
3/8/2021 4:00:00 PM 1.07 33.926 0.104 7.31 7.59 14.58
3/8/2021 4:15:00 PM 1.1 33.98 0.103 7.31 7.58 14.58
3/8/2021 4:30:00 PM 1.12 34.016 0.103 7.31 7.77 14.56
3/8/2021 4:45:00 PM 1.11 33.998 0.105 7.3 7.75 14.54
3/8/2021 5:00:00 PM 1.08 33.944 0.108 7.29 8.02 14.52
3/8/2021 5:15:00 PM 1.04 33.872 0.107 7.28 8.95 14.5
3/8/2021 5:30:00 PM 1 33.8 0.108 7.27 8.17 14.47
3/8/2021 5:45:00 PM 0.94 33.692 0.111 7.25 8.99 14.42
3/8/2021 6:00:00 PM 0.88 33.584 0.109 7.23 8.31 14.36
3/8/2021 6:15:00 PM 0.82 33.476 0.107 7.21 7.7 14.29
3/8/2021 6:30:00 PM 0.78 33.404 0.11 7.18 7.51 14.23
3/8/2021 6:45:00 PM 0.74 33.332 0.109 7.16 7.25 14.18
3/8/2021 7:00:00 PM 0.7 33.26 0.11 7.15 6.81 14.14
3/8/2021 7:15:00 PM 0.66 33.188 0.115 7.13 6.53 14.12
3/8/2021 7:30:00 PM 0.62 33.116 0.112 7.12 6.65 14.11
3/8/2021 7:45:00 PM 0.59 33.062 0.106 7.11 6.27 14.1
3/8/2021 8:00:00 PM 0.56 33.008 0.11 7.11 6.16 14.09
3/8/2021 8:15:00 PM 0.53 32.954 0.11 7.1 5.88 14.09
3/8/2021 8:30:00 PM 0.51 32.918 0.109 7.1 5.97 14.09
3/8/2021 8:45:00 PM 0.49 32.882 0.112 7.09 5.62 14.09
3/8/2021 9:00:00 PM 0.48 32.864 0.11 7.09 5.64 14.09
3/8/2021 9:15:00 PM 0.47 32.846 0.113 7.09 5.57 14.09
3/8/2021 9:30:00 PM 0.46 32.828 0.112 7.09 5.48 14.09
3/8/2021 9:45:00 PM 0.46 32.828 0.11 7.08 5.24 14.1
3/8/2021 10:00:00 PM 0.46 32.828 0.105 7.08 5.11 14.1
3/8/2021 10:15:00 PM 0.47 32.846 0.104 7.08 5.17 14.1
3/8/2021 10:30:00 PM 0.47 32.846 0.105 7.08 4.99 14.1
3/8/2021 10:45:00 PM 0.47 32.846 0.103 7.08 4.82 14.09
3/8/2021 11:00:00 PM 0.47 32.846 0.105 7.08 4.92 14.09
3/8/2021 11:15:00 PM 0.48 32.864 0.107 7.08 4.85 14.09
3/8/2021 11:30:00 PM 0.48 32.864 0.105 7.08 4.83 14.09
3/8/2021 11:45:00 PM 0.49 32.882 0.105 7.08 4.83 14.09
3/9/2021 12:00:00 AM 0.49 32.882 0.104 7.08 4.69 14.08
3/9/2021 12:15:00 AM 0.5 32.9 0.103 7.08 4.53 14.08
3/9/2021 12:30:00 AM 0.51 32.918 0.103 7.08 4.65 14.07
3/9/2021 12:45:00 AM 0.51 32.918 0.105 7.08 4.38 14.07
3/9/2021 1:00:00 AM 0.52 32.936 0.105 7.08 4.57 14.06
3/9/2021 1:15:00 AM 0.53 32.954 0.105 7.08 4.38 14.06
3/9/2021 1:30:00 AM 0.54 32.972 0.106 7.08 4.33 14.05
3/9/2021 1:45:00 AM 0.54 32.972 0.105 7.08 4.21 14.05
3/9/2021 2:00:00 AM 0.52 32.936 0.105 7.08 4.25 14.05
3/9/2021 2:15:00 AM 0.5 32.9 0.106 7.07 4.23 14.05
3/9/2021 2:30:00 AM 0.47 32.846 0.105 7.08 3.99 14.05
3/9/2021 2:45:00 AM 0.45 32.81 0.106 7.08 4.37 14.05
3/9/2021 3:00:00 AM 0.43 32.774 0.107 7.08 4.18 14.05
3/9/2021 3:15:00 AM 0.4 32.72 0.106 7.08 4.15 14.06
3/9/2021 3:30:00 AM 0.38 32.684 0.105 7.08 4.18 14.06
3/9/2021 3:45:00 AM 0.37 32.666 0.107 7.08 4.18 14.06
3/9/2021 4:00:00 AM 0.37 32.666 0.105 7.08 4.21 14.07
3/9/2021 4:15:00 AM 0.37 32.666 0.105 7.08 4.17 14.06
3/9/2021 4:30:00 AM 0.38 32.684 0.107 7.08 4.2 14.07
3/9/2021 4:45:00 AM 0.38 32.684 0.105 7.08 4.01 14.07
3/9/2021 5:00:00 AM 0.36 32.648 0.106 7.08 4 14.07
3/9/2021 5:15:00 AM 0.35 32.63 0.111 7.08 4.07 14.07
3/9/2021 5:30:00 AM 0.33 32.594 0.111 7.08 4.12 14.08
3/9/2021 5:45:00 AM 0.31 32.558 0.111 7.07 4 14.09
3/9/2021 6:00:00 AM 0.29 32.522 0.113 7.07 3.93 14.09
3/9/2021 6:15:00 AM 0.27 32.486 0.117 7.08 4.07 14.1
3/9/2021 6:30:00 AM 0.25 32.45 0.114 7.08 3.93 14.11
3/9/2021 6:45:00 AM 0.23 32.414 0.112 7.08 3.94 14.14
3/9/2021 7:00:00 AM 0.22 32.396 0.113 7.09 3.96 14.2
3/9/2021 7:15:00 AM 0.21 32.378 0.113 7.1 3.93 14.28
3/9/2021 7:30:00 AM 0.21 32.378 0.113 7.12 4.01 14.37
3/9/2021 7:45:00 AM 0.22 32.396 0.114 7.13 3.87 14.46
3/9/2021 8:00:00 AM 0.24 32.432 0.115 7.15 4.18 14.53
3/9/2021 8:15:00 AM 0.26 32.468 0.115 7.16 3.83 14.6
3/9/2021 8:30:00 AM 0.29 32.522 0.117 7.18 3.74 14.66
3/9/2021 8:45:00 AM 0.35 32.63 0.113 7.19 3.87 14.7
3/9/2021 9:00:00 AM 0.42 32.756 0.113 7.21 3.81 14.74
3/9/2021 9:15:00 AM 0.52 32.936 0.112 7.22 3.83 14.77
3/9/2021 9:30:00 AM 0.64 33.152 0.115 7.24 3.69 14.79
3/9/2021 9:45:00 AM 0.76 33.368 0.109 7.25 3.76 14.79
3/9/2021 10:00:00 AM 0.89 33.602 0.111 7.27 3.7 14.78
3/9/2021 10:15:00 AM 1.05 33.89 0.112 7.28 3.74 14.78
3/9/2021 10:30:00 AM 1.22 34.196 0.104 7.29 3.79 14.75
3/9/2021 10:45:00 AM 1.36 34.448 0.109 7.3 3.78 14.73
3/9/2021 11:00:00 AM 1.49 34.682 0.104 7.3 3.76 14.68
3/9/2021 11:15:00 AM 1.67 35.006 0.106 7.31 3.74 14.65
3/9/2021 11:30:00 AM 1.93 35.474 0.104 7.32 3.89 14.59
3/9/2021 11:45:00 AM 2.18 35.924 0.105 7.34 3.85 14.54
3/9/2021 12:00:00 PM 2.42 36.356 0.103 7.35 4.01 14.48
3/9/2021 12:15:00 PM 2.66 36.788 0.107 7.35 4.22 14.43
3/9/2021 12:30:00 PM 2.97 37.346 0.103 7.36 4.66 14.34
3/9/2021 12:45:00 PM 3.23 37.814 0.105 7.37 5.04 14.27
3/9/2021 1:00:00 PM 3.49 38.282 0.104 7.38 5.54 14.19
3/9/2021 1:15:00 PM 3.75 38.75 0.101 7.4 6.8 14.11
3/9/2021 1:30:00 PM 3.97 39.146 0.105 7.41 8.66 14.04
3/9/2021 1:45:00 PM 4.16 39.488 0.103 7.42 10.64 13.98
3/9/2021 2:00:00 PM 4.3 39.74 0.104 7.43 14.57 13.92
3/9/2021 2:15:00 PM 4.42 39.956 0.101 7.43 17.16 13.86
3/9/2021 2:30:00 PM 4.52 40.136 0.103 7.44 34.47 13.8
3/9/2021 2:45:00 PM 4.59 40.262 0.105 7.45 28.7 13.74
3/9/2021 3:00:00 PM 4.63 40.334 0.105 7.45 29.53 13.69
3/9/2021 3:15:00 PM 4.64 40.352 0.104 7.44 36.54 13.64
3/9/2021 3:30:00 PM 4.61 40.298 0.105 7.44 38.45 13.58
3/9/2021 3:45:00 PM 4.55 40.19 0.105 7.43 41.69 13.53
3/9/2021 4:00:00 PM 4.49 40.082 0.108 7.42 51.39 13.48
3/9/2021 4:15:00 PM 4.39 39.902 0.106 7.39 71.59 13.43
3/9/2021 4:30:00 PM 4.26 39.668 0.101 7.37 53.13 13.39
3/9/2021 4:45:00 PM 4.14 39.452 0.104 7.34 51.08 13.36
3/9/2021 5:00:00 PM 3.98 39.164 0.101 7.32 56.58 13.33
3/9/2021 5:15:00 PM 3.82 38.876 0.103 7.29 41.31 13.3
3/9/2021 5:30:00 PM 3.69 38.642 0.099 7.27 37.34 13.27
3/9/2021 5:45:00 PM 3.55 38.39 0.105 7.25 36.18 13.25
3/9/2021 6:00:00 PM 3.39 38.102 0.104 7.23 53.86 13.25
3/9/2021 6:15:00 PM 3.24 37.832 0.103 7.21 37.49 13.25
3/9/2021 6:30:00 PM 3.1 37.58 0.101 7.19 34.11 13.26
3/9/2021 6:45:00 PM 2.97 37.346 0.099 7.18 19.89 13.28
3/9/2021 7:00:00 PM 2.84 37.112 0.097 7.16 44.56 13.31
3/9/2021 7:15:00 PM 2.71 36.878 0.097 7.15 33.78 13.34
3/9/2021 7:30:00 PM 2.59 36.662 0.1 7.14 19.94 13.38
3/9/2021 7:45:00 PM 2.46 36.428 0.101 7.14 31.74 13.43
3/9/2021 8:00:00 PM 2.35 36.23 0.103 7.12 21.94 13.46
3/9/2021 8:15:00 PM 2.24 36.032 0.1 7.12 26.77 13.5
3/9/2021 8:30:00 PM 2.15 35.87 0.102 7.12 20.28 13.54
3/9/2021 8:45:00 PM 2.06 35.708 0.108 7.12 24.31 13.57
3/9/2021 9:00:00 PM 1.98 35.564 0.099 7.11 19.21 13.6
3/9/2021 9:15:00 PM 1.9 35.42 0.108 7.11 38.4 13.63
3/9/2021 9:30:00 PM 1.82 35.276 0.111 7.1 15.24 13.65
3/9/2021 9:45:00 PM 1.75 35.15 0.104 7.1 15.19 13.68
3/9/2021 10:00:00 PM 1.69 35.042 0.102 7.09 16.58 13.71
3/9/2021 10:15:00 PM 1.62 34.916 0.106 7.09 15.79 13.73
3/9/2021 10:30:00 PM 1.56 34.808 0.104 7.08 15.09 13.75
3/9/2021 10:45:00 PM 1.51 34.718 0.11 7.08 12.33 13.77
3/9/2021 11:00:00 PM 1.45 34.61 0.111 7.08 15.31 13.79
3/9/2021 11:15:00 PM 1.39 34.502 0.106 7.08 13.78 13.81
3/9/2021 11:30:00 PM 1.34 34.412 0.102 7.08 14.28 13.83
3/9/2021 11:45:00 PM 1.28 34.304 0.105 7.08 14.91 13.85
3/10/2021 12:00:00 AM 1.23 34.214 0.105 7.07 13.47 13.87
3/10/2021 12:15:00 AM 1.18 34.124 0.103 7.07 12.87 13.89
3/10/2021 12:30:00 AM 1.14 34.052 0.105 7.07 13.54 13.91
3/10/2021 12:45:00 AM 1.09 33.962 0.105 7.07 12.63 13.93
3/10/2021 1:00:00 AM 1.04 33.872 0.103 7.07 12.55 13.94
3/10/2021 1:15:00 AM 1 33.8 0.104 7.07 12.78 13.96
3/10/2021 1:30:00 AM 0.95 33.71 0.105 7.07 12.09 13.98
3/10/2021 1:45:00 AM 0.91 33.638 0.106 7.07 11.29 13.99
3/10/2021 2:00:00 AM 0.87 33.566 0.105 7.06 11.09 14
3/10/2021 2:15:00 AM 0.83 33.494 0.105 7.06 11.39 14.02
3/10/2021 2:30:00 AM 0.79 33.422 0.102 7.06 12.06 14.03
3/10/2021 2:45:00 AM 0.75 33.35 0.104 7.06 10.24 14.05
3/10/2021 3:00:00 AM 0.72 33.296 0.107 7.06 10.09 14.06
3/10/2021 3:15:00 AM 0.68 33.224 0.108 7.05 10.24 14.08
3/10/2021 3:30:00 AM 0.64 33.152 0.112 7.04 9.94 14.09
3/10/2021 3:45:00 AM 0.61 33.098 0.109 7.04 9.1 14.1
3/10/2021 4:00:00 AM 0.57 33.026 0.108 7.05 9.45 14.12
3/10/2021 4:15:00 AM 0.54 32.972 0.103 7.04 9.56 14.13
3/10/2021 4:30:00 AM 0.51 32.918 0.106 7.04 8.9 14.14
3/10/2021 4:45:00 AM 0.48 32.864 0.108 7.04 8.66 14.16
3/10/2021 5:00:00 AM 0.45 32.81 0.103 7.04 9.06 14.17
3/10/2021 5:15:00 AM 0.42 32.756 0.103 7.04 8.69 14.18
3/10/2021 5:30:00 AM 0.4 32.72 0.105 7.04 8.46 14.18
3/10/2021 5:45:00 AM 0.37 32.666 0.109 7.04 8.11 14.2
3/10/2021 6:00:00 AM 0.35 32.63 0.104 7.04 7.96 14.21
3/10/2021 6:15:00 AM 0.32 32.576 0.103 7.04 7.47 14.22
3/10/2021 6:30:00 AM 0.3 32.54 0.107 7.04 7.12 14.23
3/10/2021 6:45:00 AM 0.29 32.522 0.107 7.05 6.92 14.27
3/10/2021 7:00:00 AM 0.28 32.504 0.107 7.06 7.28 14.33
3/10/2021 7:15:00 AM 0.27 32.486 0.111 7.08 6.79 14.41
3/10/2021 7:30:00 AM 0.27 32.486 0.107 7.1 7.37 14.48
3/10/2021 7:45:00 AM 0.29 32.522 0.105 7.11 6.53 14.55
3/10/2021 8:00:00 AM 0.3 32.54 0.106 7.13 6.57 14.61
3/10/2021 8:15:00 AM 0.32 32.576 0.109 7.15 6.42 14.66
3/10/2021 8:30:00 AM 0.35 32.63 0.11 7.16 6.2 14.7
3/10/2021 8:45:00 AM 0.41 32.738 0.108 7.18 6.48 14.73
3/10/2021 9:00:00 AM 0.49 32.882 0.104 7.19 6.42 14.76
3/10/2021 9:15:00 AM 0.59 33.062 0.108 7.21 6.33 14.78
3/10/2021 9:30:00 AM 0.69 33.242 0.108 7.23 6.04 14.79
3/10/2021 9:45:00 AM 0.82 33.476 0.109 7.24 5.93 14.79
3/10/2021 10:00:00 AM 0.96 33.728 0.103 7.25 5.72 14.78
3/10/2021 10:15:00 AM 1.11 33.998 0.11 7.27 5.97 14.76
3/10/2021 10:30:00 AM 1.29 34.322 0.11 7.28 6.18 14.73
3/10/2021 10:45:00 AM 1.48 34.664 0.106 7.29 5.97 14.69
3/10/2021 11:00:00 AM 1.7 35.06 0.104 7.31 5.79 14.65
3/10/2021 11:15:00 AM -99999.99 -179968 -99999.99 -99999.99 -99999.99 -99999.99
3/10/2021 11:30:00 AM 6.24 43.232 0.005 6.27 6.61 12.39
3/10/2021 11:45:00 AM 2.61 36.698 0.099 7.45 8.21 14.11
3/10/2021 12:00:00 PM 2.73 36.914 0.099 7.38 6.71 14.1
3/10/2021 12:15:00 PM 2.97 37.346 0.099 7.38 6.74 14.04
3/10/2021 12:30:00 PM 3.23 37.814 0.099 7.37 8.01 13.96
3/10/2021 12:45:00 PM 3.49 38.282 0.099 7.37 7.66 13.89
3/10/2021 1:00:00 PM 3.73 38.714 0.099 7.39 8.61 13.81
3/10/2021 1:15:00 PM 3.96 39.128 0.099 7.39 10.15 13.72
3/10/2021 1:30:00 PM 4.18 39.524 0.099 7.4 11.73 13.64
3/10/2021 1:45:00 PM 4.38 39.884 0.099 7.41 13.2 13.57
3/10/2021 2:00:00 PM 4.57 40.226 0.099 7.41 15.13 13.49
3/10/2021 2:15:00 PM 4.73 40.514 0.099 7.42 18.46 13.41
3/10/2021 2:30:00 PM 4.87 40.766 0.098 7.43 24.8 13.34
3/10/2021 2:45:00 PM 4.96 40.928 0.098 7.43 23.54 13.27
3/10/2021 3:00:00 PM 5.01 41.018 0.098 7.42 31.74 13.2
3/10/2021 3:15:00 PM 5.03 41.054 0.097 7.41 30.93 13.12
3/10/2021 3:30:00 PM 5 41 0.097 7.4 31.07 13.05
3/10/2021 3:45:00 PM 4.93 40.874 0.096 7.38 35.63 12.98
3/10/2021 4:00:00 PM 4.83 40.694 0.095 7.36 42.78 12.93
3/10/2021 4:15:00 PM 4.71 40.478 0.094 7.34 44.35 12.88
3/10/2021 4:30:00 PM 4.51 40.118 0.093 7.31 44.12 12.85
3/10/2021 4:45:00 PM 4.28 39.704 0.091 7.28 48.54 12.83
3/10/2021 5:00:00 PM 3.97 39.146 0.09 7.25 47.53 12.84
3/10/2021 5:15:00 PM 3.63 38.534 0.088 7.21 63.84 12.89
3/10/2021 5:30:00 PM 3.3 37.94 0.088 7.18 51.72 12.94
3/10/2021 5:45:00 PM 3.01 37.418 0.087 7.16 73.95 13.02
3/10/2021 6:00:00 PM 2.78 37.004 0.087 7.13 106.95 13.08
3/10/2021 6:15:00 PM 2.54 36.572 0.087 7.11 81.12 13.15
3/10/2021 6:30:00 PM 2.37 36.266 0.086 7.11 74.34 13.21
3/10/2021 6:45:00 PM 2.21 35.978 0.086 7.1 72.5 13.27
3/10/2021 7:00:00 PM 2.09 35.762 0.086 7.09 65.25 13.31
3/10/2021 7:15:00 PM 1.99 35.582 0.085 7.08 87.84 13.35
3/10/2021 7:30:00 PM 1.92 35.456 0.085 7.07 85.66 13.37
3/10/2021 7:45:00 PM 1.85 35.33 0.084 7.07 122.15 13.4
3/10/2021 8:00:00 PM 1.8 35.24 0.083 7.08 51.56 13.42
3/10/2021 8:15:00 PM 1.76 35.168 0.083 7.07 77.66 13.44
3/10/2021 8:30:00 PM 1.72 35.096 0.082 7.07 65.57 13.45
3/10/2021 8:45:00 PM 1.7 35.06 0.082 7.07 61.06 13.45
3/10/2021 9:00:00 PM 1.67 35.006 0.081 7.06 60.23 13.46
3/10/2021 9:15:00 PM 1.65 34.97 0.081 7.06 56.98 13.47
3/10/2021 9:30:00 PM 1.62 34.916 0.081 7.06 57.07 13.47
3/10/2021 9:45:00 PM 1.6 34.88 0.081 7.06 44.16 13.47
3/10/2021 10:00:00 PM 1.59 34.862 0.081 7.06 41.18 13.48
3/10/2021 10:15:00 PM 1.57 34.826 0.081 7.05 33.78 13.48
3/10/2021 10:30:00 PM 1.55 34.79 0.081 7.06 34.99 13.49
3/10/2021 10:45:00 PM 1.54 34.772 0.081 7.05 33.14 13.49
3/10/2021 11:00:00 PM 1.53 34.754 0.081 7.06 34.76 13.49
3/10/2021 11:15:00 PM 1.52 34.736 0.08 7.05 32.53 13.49
3/10/2021 11:30:00 PM 1.51 34.718 0.08 7.05 32.69 13.48
3/10/2021 11:45:00 PM 1.5 34.7 0.08 7.05 39.09 13.48
3/11/2021 12:00:00 AM 1.49 34.682 0.08 7.05 37.28 13.48
3/11/2021 12:15:00 AM 1.48 34.664 0.08 7.05 26.79 13.48
3/11/2021 12:30:00 AM 1.48 34.664 0.08 7.05 24.01 13.48
3/11/2021 12:45:00 AM 1.48 34.664 0.081 7.05 26.38 13.48
3/11/2021 1:00:00 AM 1.48 34.664 0.081 7.05 31.01 13.48
3/11/2021 1:15:00 AM 1.48 34.664 0.081 7.05 30.52 13.48
3/11/2021 1:30:00 AM 1.48 34.664 0.081 7.05 28.97 13.47
3/11/2021 1:45:00 AM 1.48 34.664 0.081 7.05 26.03 13.47
3/11/2021 2:00:00 AM 1.49 34.682 0.082 7.04 20.02 13.46
3/11/2021 2:15:00 AM 1.49 34.682 0.082 7.04 25.27 13.45
3/11/2021 2:30:00 AM 1.49 34.682 0.082 7.05 25 13.46
3/11/2021 2:45:00 AM 1.5 34.7 0.083 7.05 26.63 13.45
3/11/2021 3:00:00 AM 1.5 34.7 0.083 7.05 24.4 13.44
3/11/2021 3:15:00 AM 1.5 34.7 0.083 7.05 24.97 13.43
3/11/2021 3:30:00 AM 1.51 34.718 0.083 7.05 22.42 13.43
3/11/2021 3:45:00 AM 1.52 34.736 0.083 7.05 21.38 13.43
3/11/2021 4:00:00 AM 1.54 34.772 0.084 7.05 22.39 13.42
3/11/2021 4:15:00 AM 1.55 34.79 0.084 7.05 22.83 13.42
3/11/2021 4:30:00 AM 1.56 34.808 0.084 7.05 21.83 13.41
3/11/2021 4:45:00 AM 1.57 34.826 0.084 7.05 22.78 13.41
3/11/2021 5:00:00 AM 1.58 34.844 0.085 7.05 22.43 13.39
3/11/2021 5:15:00 AM 1.59 34.862 0.085 7.05 20.83 13.4
3/11/2021 5:30:00 AM 1.61 34.898 0.085 7.06 19.63 13.39
3/11/2021 5:45:00 AM 1.62 34.916 0.085 7.05 21.07 13.38
3/11/2021 6:00:00 AM 1.63 34.934 0.086 7.05 19.09 13.38
3/11/2021 6:15:00 AM 1.64 34.952 0.086 7.05 21.12 13.38
3/11/2021 6:30:00 AM 1.65 34.97 0.086 7.05 21.67 13.36
3/11/2021 6:45:00 AM 1.67 35.006 0.086 7.05 19.63 13.37
3/11/2021 7:00:00 AM 1.68 35.024 0.086 7.06 18.21 13.38
3/11/2021 7:15:00 AM 1.7 35.06 0.086 7.06 17.24 13.39
3/11/2021 7:30:00 AM 1.72 35.096 0.086 7.06 18.79 13.41
3/11/2021 7:45:00 AM 1.77 35.186 0.086 7.07 17.54 13.44
3/11/2021 8:00:00 AM 1.81 35.258 0.086 7.08 17.03 13.48
3/11/2021 8:15:00 AM 1.85 35.33 0.086 7.1 17.47 13.52
3/11/2021 8:30:00 AM 1.91 35.438 0.086 7.11 16.35 13.55
3/11/2021 8:45:00 AM 1.98 35.564 0.086 7.13 17.6 13.57
3/11/2021 9:00:00 AM 2.06 35.708 0.086 7.14 18.2 13.58
3/11/2021 9:15:00 AM 2.12 35.816 0.086 7.15 17.24 13.58
3/11/2021 9:30:00 AM 2.23 36.014 0.086 7.16 19.29 13.57
3/11/2021 9:45:00 AM 2.31 36.158 0.086 7.17 17.91 13.55
3/11/2021 10:00:00 AM 2.43 36.374 0.086 7.18 17.97 13.53
3/11/2021 10:15:00 AM 2.55 36.59 0.086 7.18 28.9 13.47
3/11/2021 10:30:00 AM 2.7 36.86 0.086 7.18 29.42 13.42
3/11/2021 10:45:00 AM 2.87 37.166 0.086 7.19 26.15 13.41
3/11/2021 11:00:00 AM 3.08 37.544 0.086 7.21 20.12 13.38
3/11/2021 11:15:00 AM 3.3 37.94 0.086 7.22 22.86 13.34
3/11/2021 11:30:00 AM 3.51 38.318 0.085 7.23 25.6 13.29
3/11/2021 11:45:00 AM 3.75 38.75 0.086 7.25 26.69 13.25
3/11/2021 12:00:00 PM 3.98 39.164 0.086 7.26 37.76 13.16
3/11/2021 12:15:00 PM 4.19 39.542 0.086 7.26 27.53 13.09
3/11/2021 12:30:00 PM 4.4 39.92 0.084 7.27 33.92 13
3/11/2021 12:45:00 PM 4.55 40.19 0.084 7.27 33.56 12.92
3/11/2021 1:00:00 PM 4.65 40.37 0.083 7.26 93.24 12.84
3/11/2021 1:15:00 PM 4.74 40.532 0.082 7.25 41.27 12.75
3/11/2021 1:30:00 PM 4.68 40.424 0.081 7.23 95.88 12.65
3/11/2021 1:45:00 PM 4.44 39.992 0.08 7.18 97.76 12.62
3/11/2021 2:00:00 PM 4.23 39.614 0.078 7.16 83.21 12.61
3/11/2021 2:15:00 PM 4 39.2 0.076 7.13 101.53 12.65
3/11/2021 2:30:00 PM 3.74 38.732 0.075 7.11 116.47 12.72
3/11/2021 2:45:00 PM 3.5 38.3 0.073 7.09 256.8 12.79
3/11/2021 3:00:00 PM 3.29 37.922 0.072 7.07 165.84 12.85
3/11/2021 3:15:00 PM 3.17 37.706 0.07 7.06 178.32 12.88
3/11/2021 3:30:00 PM 3.1 37.58 0.069 7.05 198.44 12.92
3/11/2021 3:45:00 PM 3.06 37.508 0.068 7.04 170.52 12.93
3/11/2021 4:00:00 PM 3.02 37.436 0.066 7.03 159.59 12.96
3/11/2021 4:15:00 PM 3 37.4 0.065 7.02 144.14 12.96
3/11/2021 4:30:00 PM 2.97 37.346 0.064 7.01 146.53 12.96
3/11/2021 4:45:00 PM 2.97 37.346 0.063 7.01 181.72 12.96
3/11/2021 5:00:00 PM 2.98 37.364 0.063 7.01 120.92 12.96
3/11/2021 5:15:00 PM 2.97 37.346 0.062 7 130.02 12.96
3/11/2021 5:30:00 PM 2.98 37.364 0.062 7 113.85 12.95
3/11/2021 5:45:00 PM 2.99 37.382 0.061 7 108.49 12.95
3/11/2021 6:00:00 PM 3 37.4 0.061 7 169.85 12.94
3/11/2021 6:15:00 PM 3.01 37.418 0.061 7 113.64 12.93
3/11/2021 6:30:00 PM 3.01 37.418 0.061 6.99 134.49 12.93
3/11/2021 6:45:00 PM 3.03 37.454 0.06 6.99 143.88 12.92
3/11/2021 7:00:00 PM 3.04 37.472 0.06 6.99 93.01 12.91
3/11/2021 7:15:00 PM 3.05 37.49 0.06 6.98 102.91 12.91
3/11/2021 7:30:00 PM 3.05 37.49 0.06 6.98 87.81 12.9
3/11/2021 7:45:00 PM 3.04 37.472 0.06 6.98 97.05 12.9
3/11/2021 8:00:00 PM 3.02 37.436 0.059 6.97 97.88 12.89
3/11/2021 8:15:00 PM 2.99 37.382 0.059 6.97 125.28 12.9
3/11/2021 8:30:00 PM 2.98 37.364 0.059 6.97 85.72 12.9
3/11/2021 8:45:00 PM 2.97 37.346 0.059 6.97 104.31 12.91
3/11/2021 9:00:00 PM 2.95 37.31 0.06 6.97 83.61 12.92
3/11/2021 9:15:00 PM 2.93 37.274 0.06 6.96 103.43 12.93
3/11/2021 9:30:00 PM 2.9 37.22 0.06 6.96 77.4 12.93
3/11/2021 9:45:00 PM 2.86 37.148 0.06 6.96 75.2 12.94
3/11/2021 10:00:00 PM 2.84 37.112 0.06 6.96 74.81 12.95
3/11/2021 10:15:00 PM 2.83 37.094 0.06 6.96 103.34 12.96
3/11/2021 10:30:00 PM 2.82 37.076 0.06 6.96 79.66 12.97
3/11/2021 10:45:00 PM 2.81 37.058 0.061 6.96 80.29 12.97
3/11/2021 11:00:00 PM 2.81 37.058 0.061 6.96 64.94 12.97
3/11/2021 11:15:00 PM 2.8 37.04 0.061 6.95 71.51 12.96
3/11/2021 11:30:00 PM 2.8 37.04 0.061 6.96 67.88 12.96
3/11/2021 11:45:00 PM 2.8 37.04 0.061 6.95 66.41 12.96
3/12/2021 12:00:00 AM 2.8 37.04 0.061 6.95 62.03 12.95
3/12/2021 12:15:00 AM 2.8 37.04 0.061 6.95 73.76 12.96
3/12/2021 12:30:00 AM 2.8 37.04 0.062 6.95 60.69 12.95
3/12/2021 12:45:00 AM 2.8 37.04 0.062 6.95 68.53 12.95
3/12/2021 1:00:00 AM 2.79 37.022 0.062 6.95 52.59 12.95
3/12/2021 1:15:00 AM 2.79 37.022 0.062 6.95 51.19 12.96
3/12/2021 1:30:00 AM 2.78 37.004 0.062 6.95 47.34 12.95
3/12/2021 1:45:00 AM 2.78 37.004 0.062 6.95 54.14 12.96
3/12/2021 2:00:00 AM 2.79 37.022 0.062 6.95 53.3 12.96
3/12/2021 2:15:00 AM 2.81 37.058 0.063 6.95 66.28 12.96
3/12/2021 2:30:00 AM 2.82 37.076 0.063 6.95 44.24 12.96
3/12/2021 2:45:00 AM 2.84 37.112 0.063 6.95 50.19 12.95
3/12/2021 3:00:00 AM 2.85 37.13 0.063 6.96 51.93 12.95
3/12/2021 3:15:00 AM 2.86 37.148 0.063 6.96 47.13 12.95
3/12/2021 3:30:00 AM 2.87 37.166 0.063 6.96 43.65 12.95
3/12/2021 3:45:00 AM 2.88 37.184 0.063 6.95 80.23 12.94
3/12/2021 4:00:00 AM 2.89 37.202 0.063 6.96 48.14 12.94
3/12/2021 4:15:00 AM 2.89 37.202 0.063 6.96 40.64 12.94
3/12/2021 4:30:00 AM 2.9 37.22 0.063 6.96 44.7 12.94
3/12/2021 4:45:00 AM 2.9 37.22 0.063 6.96 55.33 12.94
3/12/2021 5:00:00 AM 2.9 37.22 0.063 6.95 40.15 12.95
3/12/2021 5:15:00 AM 2.89 37.202 0.063 6.96 42.03 12.95
3/12/2021 5:30:00 AM 2.88 37.184 0.063 6.95 41.67 12.95
3/12/2021 5:45:00 AM 2.85 37.13 0.063 6.95 42.31 12.95
3/12/2021 6:00:00 AM 2.83 37.094 0.063 6.95 36.94 12.96
3/12/2021 6:15:00 AM 2.79 37.022 0.063 6.95 44.71 12.98
3/12/2021 6:30:00 AM 2.75 36.95 0.063 6.94 40.54 12.99
3/12/2021 6:45:00 AM 2.71 36.878 0.063 6.94 47.74 13.01
3/12/2021 7:00:00 AM 2.67 36.806 0.063 6.94 40.83 13.02
3/12/2021 7:15:00 AM 2.63 36.734 0.063 6.94 42.62 13.05
3/12/2021 7:30:00 AM 2.6 36.68 0.063 6.94 40.85 13.07
3/12/2021 7:45:00 AM 2.56 36.608 0.063 6.94 38.02 13.08
3/12/2021 8:00:00 AM 2.54 36.572 0.063 6.94 39.59 13.1
3/12/2021 8:15:00 AM 2.54 36.572 0.063 6.94 36.6 13.11
3/12/2021 8:30:00 AM 2.55 36.59 0.062 6.95 41.31 13.13
3/12/2021 8:45:00 AM 2.57 36.626 0.063 6.95 27.99 13.13
3/12/2021 9:00:00 AM 2.62 36.716 0.062 6.96 37.21 13.13
3/12/2021 9:15:00 AM 2.68 36.824 0.062 6.97 33.06 13.14
3/12/2021 9:30:00 AM 2.76 36.968 0.063 6.98 26.49 13.11
3/12/2021 9:45:00 AM 2.86 37.148 0.063 6.99 39.32 13.1
3/12/2021 10:00:00 AM 2.98 37.364 0.063 6.99 31.84 13.06
3/12/2021 10:15:00 AM 3.11 37.598 0.062 7 27.86 13.03
3/12/2021 10:30:00 AM 3.26 37.868 0.063 7.01 51.33 13
3/12/2021 10:45:00 AM 3.41 38.138 0.063 7.02 27.16 12.95
3/12/2021 11:00:00 AM 3.58 38.444 0.062 7.02 34.52 12.9
3/12/2021 11:15:00 AM 3.75 38.75 0.062 7.02 31.65 12.85
3/12/2021 11:30:00 AM 3.92 39.056 0.062 7.03 31.66 12.82
3/12/2021 11:45:00 AM 4.11 39.398 0.063 7.04 33.35 12.75
3/12/2021 12:00:00 PM 4.29 39.722 0.062 7.04 27.31 12.7
3/12/2021 12:15:00 PM 4.46 40.028 0.063 7.04 36.86 12.65
3/12/2021 12:30:00 PM 4.63 40.334 0.063 7.04 32.17 12.59
3/12/2021 12:45:00 PM 4.79 40.622 0.062 7.04 34.9 12.55
3/12/2021 1:00:00 PM 4.94 40.892 0.062 7.05 37.37 12.49
3/12/2021 1:15:00 PM 5.09 41.162 0.063 7.05 33.55 12.43
3/12/2021 1:30:00 PM 5.22 41.396 0.062 7.05 34.3 12.38
3/12/2021 1:45:00 PM 5.34 41.612 0.062 7.05 38.44 12.33
3/12/2021 2:00:00 PM 5.43 41.774 0.062 7.04 38.56 12.28
3/12/2021 2:15:00 PM 5.52 41.936 0.062 7.04 44.14 12.25
3/12/2021 2:30:00 PM 5.58 42.044 0.062 7.04 40.29 12.21
3/12/2021 2:45:00 PM 5.63 42.134 0.061 7.03 41.3 12.17
3/12/2021 3:00:00 PM 5.66 42.188 0.061 7.03 44.68 12.14
3/12/2021 3:15:00 PM 5.68 42.224 0.061 7.02 42.69 12.13
3/12/2021 3:30:00 PM 5.68 42.224 0.061 7.01 58.15 12.1
3/12/2021 3:45:00 PM 5.66 42.188 0.06 7.01 49.74 12.09
3/12/2021 4:00:00 PM 5.63 42.134 0.06 7 47.37 12.08
3/12/2021 4:15:00 PM 5.59 42.062 0.06 6.99 49.89 12.07
3/12/2021 4:30:00 PM 5.53 41.954 0.06 6.99 39.38 12.08
3/12/2021 4:45:00 PM 5.45 41.81 0.06 6.98 60.72 12.09
3/12/2021 5:00:00 PM 5.36 41.648 0.059 6.97 43.68 12.1
3/12/2021 5:15:00 PM 5.26 41.468 0.059 6.97 52.21 12.12
3/12/2021 5:30:00 PM 5.16 41.288 0.059 6.96 51.92 12.14
3/12/2021 5:45:00 PM 5.04 41.072 0.059 6.96 45.88 12.17
3/12/2021 6:00:00 PM 4.92 40.856 0.059 6.95 48 12.2
3/12/2021 6:15:00 PM 4.81 40.658 0.059 6.95 46.39 12.23
3/12/2021 6:30:00 PM 4.7 40.46 0.059 6.94 47.25 12.26
3/12/2021 6:45:00 PM 4.58 40.244 0.059 6.94 47.17 12.28
3/12/2021 7:00:00 PM 4.47 40.046 0.059 6.93 49.24 12.32
3/12/2021 7:15:00 PM 4.37 39.866 0.059 6.93 36.93 12.36
3/12/2021 7:30:00 PM 4.27 39.686 0.059 6.94 35.19 12.4
3/12/2021 7:45:00 PM 4.18 39.524 0.059 6.93 41.75 12.44
3/12/2021 8:00:00 PM 4.09 39.362 0.059 6.93 41.97 12.46
3/12/2021 8:15:00 PM 4.01 39.218 0.059 6.93 77.28 12.5
3/12/2021 8:30:00 PM 3.94 39.092 0.06 6.93 30.65 12.52
3/12/2021 8:45:00 PM 3.89 39.002 0.06 6.93 38.63 12.55
3/12/2021 9:00:00 PM 3.82 38.876 0.06 6.93 28.48 12.57
3/12/2021 9:15:00 PM 3.77 38.786 0.06 6.93 38.25 12.6
3/12/2021 9:30:00 PM 3.72 38.696 0.06 6.93 30.67 12.61
3/12/2021 9:45:00 PM 3.66 38.588 0.06 6.93 31.15 12.64
3/12/2021 10:00:00 PM 3.6 38.48 0.061 6.93 35.9 12.65
3/12/2021 10:15:00 PM 3.54 38.372 0.061 6.93 27.89 12.68
3/12/2021 10:30:00 PM 3.48 38.264 0.061 6.93 32.95 12.69
3/12/2021 10:45:00 PM 3.42 38.156 0.061 6.93 28.38 12.72
3/12/2021 11:00:00 PM 3.35 38.03 0.061 6.93 26.95 12.74
3/12/2021 11:15:00 PM 3.28 37.904 0.061 6.93 30.26 12.76
3/12/2021 11:30:00 PM 3.2 37.76 0.062 6.93 26.63 12.79
3/12/2021 11:45:00 PM 3.13 37.634 0.062 6.93 35.15 12.81
3/13/2021 12:00:00 AM 3.06 37.508 0.062 6.93 28.1 12.84
3/13/2021 12:15:00 AM 2.97 37.346 0.062 6.93 25.35 12.87
3/13/2021 12:30:00 AM 2.89 37.202 0.062 6.93 26.78 12.9
3/13/2021 12:45:00 AM 2.82 37.076 0.062 6.93 23.59 12.93
3/13/2021 1:00:00 AM 2.74 36.932 0.062 6.93 25.16 12.97
3/13/2021 1:15:00 AM 2.66 36.788 0.062 6.93 22.21 13
3/13/2021 1:30:00 AM 2.58 36.644 0.062 6.93 27.86 13.03
3/13/2021 1:45:00 AM 2.5 36.5 0.063 6.93 28.61 13.07
3/13/2021 2:00:00 AM 2.42 36.356 0.063 6.93 21.44 13.09
3/13/2021 2:15:00 AM 2.34 36.212 0.063 6.93 27.94 13.13
3/13/2021 2:30:00 AM 2.26 36.068 0.063 6.93 23.48 13.16
3/13/2021 2:45:00 AM 2.18 35.924 0.063 6.93 31.89 13.19
3/13/2021 3:00:00 AM 2.1 35.78 0.064 6.93 22.8 13.23
3/13/2021 3:15:00 AM 2.04 35.672 0.064 6.93 16.59 13.25
3/13/2021 3:30:00 AM 1.96 35.528 0.064 6.93 20.73 13.28
3/13/2021 3:45:00 AM 1.89 35.402 0.064 6.93 22.88 13.3
3/13/2021 4:00:00 AM 1.82 35.276 0.064 6.93 20.73 13.32
3/13/2021 4:15:00 AM 1.76 35.168 0.064 6.93 17.27 13.36
3/13/2021 4:30:00 AM 1.7 35.06 0.064 6.93 20.37 13.37
3/13/2021 4:45:00 AM 1.64 34.952 0.064 6.93 22.77 13.39
3/13/2021 5:00:00 AM 1.59 34.862 0.064 6.93 21 13.41
3/13/2021 5:15:00 AM 1.54 34.772 0.065 6.93 17.08 13.44
3/13/2021 5:30:00 AM 1.5 34.7 0.065 6.93 19.22 13.45
3/13/2021 5:45:00 AM 1.46 34.628 0.065 6.93 23.12 13.47
3/13/2021 6:00:00 AM 1.41 34.538 0.065 6.93 19.36 13.49
3/13/2021 6:15:00 AM 1.37 34.466 0.065 6.93 20.17 13.51
3/13/2021 6:30:00 AM 1.33 34.394 0.065 6.93 20.01 13.53
3/13/2021 6:45:00 AM 1.3 34.34 0.065 6.93 19.37 13.55
3/13/2021 7:00:00 AM 1.27 34.286 0.065 6.94 19.6 13.57
3/13/2021 7:15:00 AM 1.25 34.25 0.065 6.94 20.83 13.58
3/13/2021 7:30:00 AM 1.22 34.196 0.065 6.94 19.68 13.61
3/13/2021 7:45:00 AM 1.19 34.142 0.065 6.94 19.94 13.62
3/13/2021 8:00:00 AM 1.18 34.124 0.065 6.94 18.03 13.64
3/13/2021 8:15:00 AM 1.17 34.106 0.065 6.95 17.78 13.66
3/13/2021 8:30:00 AM 1.17 34.106 0.065 6.96 17.8 13.68
3/13/2021 8:45:00 AM 1.19 34.142 0.065 6.96 17.72 13.7
3/13/2021 9:00:00 AM 1.21 34.178 0.065 6.97 17.37 13.69
3/13/2021 9:15:00 AM 1.26 34.268 0.066 6.97 17.96 13.72
3/13/2021 9:30:00 AM 1.32 34.376 0.065 6.98 17.48 13.7
3/13/2021 9:45:00 AM 1.4 34.52 0.065 6.99 16.66 13.68
3/13/2021 10:00:00 AM 1.51 34.718 0.066 6.99 16.19 13.66
3/13/2021 10:15:00 AM 1.64 34.952 0.066 7 16.91 13.65
3/13/2021 10:30:00 AM 1.79 35.222 0.066 7 17.52 13.6
3/13/2021 10:45:00 AM 1.92 35.456 0.066 7.01 17.54 13.55
3/13/2021 11:00:00 AM 2.06 35.708 0.066 7.02 15.69 13.52
3/13/2021 11:15:00 AM 2.24 36.032 0.066 7.02 16.71 13.47
3/13/2021 11:30:00 AM 2.43 36.374 0.066 7.03 16.03 13.41
3/13/2021 11:45:00 AM 2.62 36.716 0.066 7.04 16.85 13.35
3/13/2021 12:00:00 PM 2.77 36.986 0.066 7.03 15.56 13.3
3/13/2021 12:15:00 PM 2.97 37.346 0.066 7.05 16.83 13.24
3/13/2021 12:30:00 PM 3.13 37.634 0.065 7.04 15.59 13.17
3/13/2021 12:45:00 PM 3.32 37.976 0.066 7.05 17.8 13.13
3/13/2021 1:00:00 PM 3.5 38.3 0.066 7.06 16.24 13.08
3/13/2021 1:15:00 PM 3.59 38.462 0.066 7.05 14.83 13.01
3/13/2021 1:30:00 PM 3.77 38.786 0.066 7.05 17.95 12.97
3/13/2021 1:45:00 PM 3.88 38.984 0.066 7.05 18.21 12.92
3/13/2021 2:00:00 PM 3.98 39.164 0.066 7.06 17.39 12.85
3/13/2021 2:15:00 PM 4.09 39.362 0.066 7.06 16.8 12.83
3/13/2021 2:30:00 PM 4.17 39.506 0.066 7.06 16.34 12.8
3/13/2021 2:45:00 PM 4.24 39.632 0.066 7.06 17.59 12.77
3/13/2021 3:00:00 PM 4.29 39.722 0.066 7.06 19.42 12.73
3/13/2021 3:15:00 PM 4.32 39.776 0.066 7.06 18.39 12.72
3/13/2021 3:30:00 PM 4.34 39.812 0.066 7.06 17.83 12.7
3/13/2021 3:45:00 PM 4.34 39.812 0.066 7.06 17.07 12.67
3/13/2021 4:00:00 PM 4.33 39.794 0.066 7.05 16.38 12.65
3/13/2021 4:15:00 PM 4.31 39.758 0.066 7.05 17.17 12.64
3/13/2021 4:30:00 PM 4.28 39.704 0.066 7.03 16.57 12.6
3/13/2021 4:45:00 PM 4.23 39.614 0.066 7.04 16.28 12.59
3/13/2021 5:00:00 PM 4.15 39.47 0.066 7.03 17.46 12.63
3/13/2021 5:15:00 PM 4.07 39.326 0.066 7.02 17.89 12.64
3/13/2021 5:30:00 PM 4.02 39.236 0.066 7.01 17.06 12.58
3/13/2021 5:45:00 PM 3.9 39.02 0.066 7.02 16.05 12.63
3/13/2021 6:00:00 PM 3.82 38.876 0.066 7 16.43 12.62
3/13/2021 6:15:00 PM 3.75 38.75 0.066 6.99 17 12.6
3/13/2021 6:30:00 PM 3.68 38.624 0.067 6.98 15.98 12.57
3/13/2021 6:45:00 PM 3.57 38.426 0.066 6.98 17.21 12.63
3/13/2021 7:00:00 PM 3.51 38.318 0.067 6.96 15.5 12.62
3/13/2021 7:15:00 PM 3.41 38.138 0.066 6.96 17.68 12.62
3/13/2021 7:30:00 PM 3.29 37.922 0.067 6.96 16.31 12.71
3/13/2021 7:45:00 PM 3.22 37.796 0.067 6.95 16.98 12.7
3/13/2021 8:00:00 PM 3.14 37.652 0.067 6.95 16.12 12.76
3/13/2021 8:15:00 PM 3.04 37.472 0.067 6.95 16.93 12.79
3/13/2021 8:30:00 PM 2.96 37.328 0.067 6.95 16.9 12.81
3/13/2021 8:45:00 PM 2.88 37.184 0.067 6.95 17.37 12.86
3/13/2021 9:00:00 PM 2.83 37.094 0.067 6.95 16.21 12.85
3/13/2021 9:15:00 PM 2.74 36.932 0.067 6.95 15.34 12.9
3/13/2021 9:30:00 PM 2.66 36.788 0.068 6.95 15.92 12.93
3/13/2021 9:45:00 PM 2.6 36.68 0.067 6.95 15 12.97
3/13/2021 10:00:00 PM 2.56 36.608 0.068 6.94 15.75 12.93
3/13/2021 10:15:00 PM 2.5 36.5 0.068 6.94 14.96 12.93
3/13/2021 10:30:00 PM 2.41 36.338 0.068 6.94 15.19 13.02
3/13/2021 10:45:00 PM 2.37 36.266 0.068 6.94 14.81 13
3/13/2021 11:00:00 PM 2.29 36.122 0.068 6.95 16.43 13.05
3/13/2021 11:15:00 PM 2.23 36.014 0.068 6.95 15.85 13.08
3/13/2021 11:30:00 PM 2.2 35.96 0.068 6.95 15.51 13.1
3/13/2021 11:45:00 PM 2.15 35.87 0.068 6.95 14.51 13.12
3/14/2021 12:00:00 AM 2.12 35.816 0.068 6.95 14.69 13.09
3/14/2021 12:15:00 AM 2.08 35.744 0.068 6.94 14.51 13.13
3/14/2021 12:30:00 AM 2.04 35.672 0.068 6.95 12.91 13.15
3/14/2021 12:45:00 AM 2.01 35.618 0.068 6.95 15.49 13.13
3/14/2021 1:00:00 AM 1.97 35.546 0.069 6.94 13.89 13.15
3/14/2021 1:15:00 AM 1.94 35.492 0.069 6.94 13.95 13.16
3/14/2021 1:30:00 AM 1.92 35.456 0.069 6.95 12.97 13.15
3/14/2021 1:45:00 AM 1.89 35.402 0.069 6.95 12.44 13.19
3/14/2021 3:00:00 AM 1.87 35.366 0.069 6.96 14.44 13.21
3/14/2021 3:15:00 AM 1.87 35.366 0.069 6.97 13.35 13.21
3/14/2021 3:30:00 AM 1.88 35.384 0.069 6.96 12.79 13.2
3/14/2021 3:45:00 AM 1.88 35.384 0.069 6.97 13.25 13.2
3/14/2021 4:00:00 AM 1.88 35.384 0.069 6.97 13.36 13.19
3/14/2021 5:15:00 AM 1.88 35.384 0.069 6.97 13.04 13.19
3/14/2021 5:30:00 AM 1.87 35.366 0.069 6.97 12.17 13.18
3/14/2021 5:45:00 AM 1.86 35.348 0.069 6.97 12.95 13.18
3/14/2021 6:00:00 AM 1.86 35.348 0.069 6.96 12.14 13.18
3/14/2021 6:15:00 AM 1.87 35.366 0.069 6.97 13.03 13.18
3/14/2021 6:30:00 AM 1.88 35.384 0.069 6.97 12.87 13.18
3/14/2021 6:45:00 AM 1.89 35.402 0.07 6.97 13.63 13.17
3/14/2021 7:00:00 AM 1.89 35.402 0.069 6.97 11.87 13.18
3/14/2021 7:15:00 AM 1.89 35.402 0.07 6.97 13.6 13.17
3/14/2021 7:30:00 AM 1.89 35.402 0.07 6.97 12.78 13.17
3/14/2021 7:45:00 AM 1.89 35.402 0.07 6.97 12.37 13.18
3/14/2021 8:00:00 AM 1.89 35.402 0.07 6.98 12.18 13.2
3/14/2021 8:15:00 AM 1.9 35.42 0.07 6.98 11.71 13.22
3/14/2021 8:30:00 AM 1.91 35.438 0.07 6.98 11.88 13.24
3/14/2021 8:45:00 AM 1.92 35.456 0.07 6.99 12.22 13.26
3/14/2021 9:00:00 AM 1.93 35.474 0.07 7 11.69 13.28
3/14/2021 9:15:00 AM 1.95 35.51 0.07 7.01 10.94 13.3
3/14/2021 9:30:00 AM 2 35.6 0.07 7.02 10.88 13.32
3/14/2021 9:45:00 AM 2.06 35.708 0.07 7.03 11.16 13.33
3/14/2021 10:00:00 AM 2.14 35.852 0.07 7.04 10.9 13.33
3/14/2021 10:15:00 AM 2.23 36.014 0.07 7.05 11.63 13.32
3/14/2021 10:30:00 AM 2.32 36.176 0.07 7.06 10.79 13.31
3/14/2021 10:45:00 AM 2.42 36.356 0.07 7.07 10.98 13.29
3/14/2021 11:00:00 AM 0 32 0 0 0 0
3/14/2021 11:15:00 AM 2.6 36.68 0.07 7.08 11.4 13.24
3/14/2021 11:30:00 AM 2.72 36.896 0.071 7.09 11.15 13.2
3/14/2021 11:45:00 AM 2.87 37.166 0.07 7.09 10.89 13.16
3/14/2021 12:00:00 PM 2.96 37.328 0.07 7.09 10.78 13.12
3/14/2021 12:15:00 PM 3.06 37.508 0.07 7.1 11.41 13.08
3/14/2021 12:30:00 PM 3.21 37.778 0.071 7.1 11.64 13.06
3/14/2021 12:45:00 PM 3.33 37.994 0.07 7.11 11.23 13.02
3/14/2021 1:00:00 PM 3.49 38.282 0.07 7.11 11.68 12.97
3/14/2021 1:15:00 PM 3.57 38.426 0.07 7.11 11.39 12.95
3/14/2021 1:30:00 PM 3.64 38.552 0.07 7.11 12.01 12.91
3/14/2021 1:45:00 PM 3.64 38.552 0.07 7.1 11.42 12.88
3/14/2021 2:00:00 PM 3.76 38.768 0.07 7.11 10.6 12.87
3/14/2021 2:15:00 PM 3.85 38.93 0.07 7.11 12.78 12.85
3/14/2021 2:30:00 PM 3.95 39.11 0.07 7.11 12.86 12.83
3/14/2021 2:45:00 PM 3.88 38.984 0.071 7.11 11.65 12.81
3/14/2021 3:00:00 PM 3.91 39.038 0.07 7.11 11.67 12.81
3/14/2021 3:15:00 PM 3.97 39.146 0.071 7.12 11.94 12.8
3/14/2021 3:30:00 PM 3.95 39.11 0.071 7.11 12 12.78
3/14/2021 3:45:00 PM 4.02 39.236 0.07 7.11 12.09 12.78
3/14/2021 4:00:00 PM 4.02 39.236 0.07 7.11 11.29 12.77
3/14/2021 4:15:00 PM 3.98 39.164 0.07 7.11 12.17 12.77
3/14/2021 4:30:00 PM 3.94 39.092 0.07 7.1 12.67 12.77
3/14/2021 4:45:00 PM 3.92 39.056 0.071 7.11 11.84 12.78
3/14/2021 5:00:00 PM 3.9 39.02 0.071 7.11 11.26 12.78
3/14/2021 5:15:00 PM 3.82 38.876 0.071 7.1 11.34 12.78
3/14/2021 5:30:00 PM 3.78 38.804 0.071 7.1 11.8 12.8
3/14/2021 5:45:00 PM 3.7 38.66 0.071 7.1 11.8 12.8
3/14/2021 6:00:00 PM 3.61 38.498 0.071 7.09 12.66 12.81
3/14/2021 6:15:00 PM 3.51 38.318 0.071 7.09 11.25 12.83
3/14/2021 6:30:00 PM 3.39 38.102 0.071 7.08 11.53 12.84
3/14/2021 6:45:00 PM 3.25 37.85 0.071 7.07 12.61 12.85
3/14/2021 7:00:00 PM 3.12 37.616 0.072 7.05 12.29 12.86
3/14/2021 7:15:00 PM 3 37.4 0.072 7.04 11.94 12.86
3/14/2021 7:30:00 PM 2.87 37.166 0.072 7.03 11.9 12.88
3/14/2021 7:45:00 PM 2.73 36.914 0.072 7.01 12.26 12.91
3/14/2021 8:00:00 PM 2.65 36.77 0.072 7.01 10.53 12.92
3/14/2021 8:15:00 PM 2.54 36.572 0.072 7 10.6 12.96
3/14/2021 8:30:00 PM 2.44 36.392 0.072 6.99 10.49 12.96
3/14/2021 8:45:00 PM 2.3 36.14 0.072 6.98 11.38 13.05
3/14/2021 9:00:00 PM 2.21 35.978 0.073 6.99 10.32 13.07
3/14/2021 9:15:00 PM 2.1 35.78 0.073 6.98 11.26 13.11
3/14/2021 9:30:00 PM 2.01 35.618 0.073 6.98 11.08 13.16
3/14/2021 9:45:00 PM 1.92 35.456 0.073 6.98 10.43 13.19
3/14/2021 10:00:00 PM 1.83 35.294 0.073 6.98 10.63 13.22
3/14/2021 10:15:00 PM 1.74 35.132 0.073 6.98 10.62 13.26
3/14/2021 10:30:00 PM 1.65 34.97 0.073 6.98 10.01 13.29
3/14/2021 10:45:00 PM 1.54 34.772 0.073 6.97 9.76 13.34
3/14/2021 11:00:00 PM 1.49 34.682 0.073 6.98 9.89 13.36
3/14/2021 11:15:00 PM 1.39 34.502 0.074 6.97 10.87 13.4
3/14/2021 11:30:00 PM 1.31 34.358 0.074 6.97 9.71 13.44
3/14/2021 11:45:00 PM 1.25 34.25 0.074 6.98 9.21 13.47
3/15/2021 12:00:00 AM 1.2 34.16 0.074 6.98 9.37 13.49
3/15/2021 12:15:00 AM 1.1 33.98 0.074 6.98 9.65 13.53
3/15/2021 12:30:00 AM 1.03 33.854 0.074 6.97 9.75 13.56
3/15/2021 12:45:00 AM 1 33.8 0.074 6.98 9.46 13.57
3/15/2021 1:00:00 AM 0.94 33.692 0.074 6.98 9.41 13.6
3/15/2021 1:15:00 AM 0.88 33.584 0.074 6.98 9.71 13.63
3/15/2021 1:30:00 AM 0.84 33.512 0.075 6.98 9.45 13.65
3/15/2021 1:45:00 AM 0.79 33.422 0.075 6.98 10.03 13.67
3/15/2021 2:00:00 AM 0.75 33.35 0.075 6.98 9.55 13.69
3/15/2021 2:15:00 AM 0.71 33.278 0.075 6.97 8.47 13.61
3/15/2021 2:30:00 AM 0.63 33.134 0.075 6.98 9.04 13.73
3/15/2021 2:45:00 AM 0.55 32.99 0.075 6.98 8.7 13.76
3/15/2021 3:00:00 AM 0.5 32.9 0.075 6.98 8.94 13.77
3/15/2021 3:15:00 AM 0.45 32.81 0.075 6.98 8.9 13.79
3/15/2021 3:30:00 AM 0.39 32.702 0.075 6.98 8.8 13.82
3/15/2021 3:45:00 AM 0.33 32.594 0.075 6.98 9.29 13.85
3/15/2021 4:00:00 AM 0.26 32.468 0.075 6.98 9.74 13.88
3/15/2021 4:15:00 AM 0.2 32.36 0.075 6.98 9.71 13.9
3/15/2021 4:30:00 AM 0.14 32.252 0.075 6.97 9.94 13.93
3/15/2021 4:45:00 AM 0.07 32.126 0.076 6.98 9.43 13.96
3/15/2021 5:00:00 AM 0.02 32.036 0.075 6.98 8.67 13.98
3/15/2021 5:15:00 AM -0.02 31.964 0.076 6.98 9.21 14
3/15/2021 5:30:00 AM -0.06 31.892 0.076 6.98 8.8 14.02
3/15/2021 5:45:00 AM -0.09 31.838 0.076 6.98 9.06 14.04
3/15/2021 6:00:00 AM -0.08 31.856 0.076 6.98 9.48 14.06
3/15/2021 6:15:00 AM -0.08 31.856 0.076 6.98 9.09 14.08
3/15/2021 6:30:00 AM -0.08 31.856 0.077 6.98 9.4 14.09
3/15/2021 6:45:00 AM -0.08 31.856 0.077 6.98 9.15 14.1
3/15/2021 7:00:00 AM -0.08 31.856 0.077 6.98 9.03 14.1
3/15/2021 7:15:00 AM -0.08 31.856 0.077 6.98 9.06 14.11
3/15/2021 7:30:00 AM -0.08 31.856 0.077 6.98 8.83 14.13
3/15/2021 7:45:00 AM -0.08 31.856 0.077 6.98 8.75 14.15
3/15/2021 8:00:00 AM -0.08 31.856 0.077 6.99 8.44 14.17
3/15/2021 8:15:00 AM -0.08 31.856 0.077 7 8.34 14.19
3/15/2021 8:30:00 AM -0.07 31.874 0.078 7 8.78 14.22
3/15/2021 8:45:00 AM -0.07 31.874 0.078 7.01 8.4 14.24
3/15/2021 9:00:00 AM -0.07 31.874 0.078 7.01 8.21 14.26
3/15/2021 9:15:00 AM -0.07 31.874 0.078 7.02 8.14 14.29
3/15/2021 9:30:00 AM -0.06 31.892 0.078 7.02 8.24 14.29
3/15/2021 9:45:00 AM -0.06 31.892 0.078 7.03 8.47 14.3
3/15/2021 10:00:00 AM -0.05 31.91 0.078 7.04 7.87 14.32
3/15/2021 10:15:00 AM -0.04 31.928 0.078 7.04 7.9 14.32
3/15/2021 10:30:00 AM -0.03 31.946 0.078 7.04 7.99 14.32
3/15/2021 10:45:00 AM -0.02 31.964 0.078 7.05 7.63 14.32
3/15/2021 11:00:00 AM 0 32 0.078 7.05 7.5 14.32
3/15/2021 11:15:00 AM 0.02 32.036 0.078 7.06 8.32 14.32
3/15/2021 11:30:00 AM 0.03 32.054 0.078 7.06 7.99 14.31
3/15/2021 11:45:00 AM 0.05 32.09 0.077 7.06 8.77 14.3
3/15/2021 12:00:00 PM 0.07 32.126 0.077 7.06 9.07 14.27
3/15/2021 12:15:00 PM 0.2 32.36 0.076 7.08 9.18 14.23
3/15/2021 12:30:00 PM 0.5 32.9 0.076 7.09 8.94 14.16
3/15/2021 12:45:00 PM 0.76 33.368 0.075 7.11 8.74 14.1
3/15/2021 1:00:00 PM 0.99 33.782 0.075 7.1 8.73 14.06
3/15/2021 1:15:00 PM 1.21 34.178 0.075 7.12 9.35 14.02
3/15/2021 1:30:00 PM 1.36 34.448 0.075 7.11 9.54 13.97
3/15/2021 1:45:00 PM 1.51 34.718 0.074 7.11 9 13.94
3/15/2021 2:00:00 PM 1.65 34.97 0.074 7.11 9.24 13.9
3/15/2021 2:15:00 PM 1.74 35.132 0.074 7.12 9.19 13.86
3/15/2021 2:30:00 PM 1.84 35.312 0.074 7.12 9.42 13.82
3/15/2021 2:45:00 PM 2.04 35.672 0.074 7.12 10.13 13.75
3/15/2021 3:00:00 PM 2.23 36.014 0.074 7.13 9.79 13.69
3/15/2021 3:15:00 PM 2.38 36.284 0.074 7.13 9.83 13.62
3/15/2021 3:30:00 PM 2.5 36.5 0.074 7.13 10.54 13.57
3/15/2021 3:45:00 PM 2.58 36.644 0.074 7.13 10.12 13.53
3/15/2021 4:00:00 PM 2.64 36.752 0.075 7.13 10.37 13.49
3/15/2021 4:15:00 PM 2.66 36.788 0.074 7.13 11.1 13.47
3/15/2021 4:30:00 PM 2.66 36.788 0.074 7.13 11.4 13.45
3/15/2021 4:45:00 PM 2.65 36.77 0.074 7.12 11.05 13.44
3/15/2021 5:00:00 PM 2.6 36.68 0.075 7.12 11.07 13.43
3/15/2021 5:15:00 PM 2.54 36.572 0.075 7.12 9.88 13.42
3/15/2021 5:30:00 PM 2.47 36.446 0.075 7.12 10.35 13.41
3/15/2021 5:45:00 PM 2.4 36.32 0.075 7.11 9.78 13.41
3/15/2021 6:00:00 PM 2.33 36.194 0.075 7.11 10.71 13.4
3/15/2021 6:15:00 PM 2.24 36.032 0.075 7.1 9.59 13.4
3/15/2021 6:30:00 PM 2.13 35.834 0.075 7.09 9 13.4
3/15/2021 6:45:00 PM 2.03 35.654 0.075 7.09 9.2 13.41
3/15/2021 7:00:00 PM 1.93 35.474 0.075 7.07 9.83 13.4
3/15/2021 7:15:00 PM 1.84 35.312 0.075 7.06 9.48 13.39
3/15/2021 7:30:00 PM 1.75 35.15 0.075 7.05 9.73 13.38
3/15/2021 7:45:00 PM 1.65 34.97 0.075 7.04 9.18 13.39
3/15/2021 8:00:00 PM 1.56 34.808 0.075 7.02 8.64 13.4
3/15/2021 8:15:00 PM 1.49 34.682 0.075 7.02 8.9 13.41
3/15/2021 8:30:00 PM 1.41 34.538 0.076 7.01 9.4 13.43
3/15/2021 8:45:00 PM 1.33 34.394 0.076 7 8.58 13.46
3/15/2021 9:00:00 PM 1.26 34.268 0.076 7 8.08 13.49
3/15/2021 9:15:00 PM 1.19 34.142 0.076 7 8.66 13.51
3/15/2021 9:30:00 PM 1.14 34.052 0.076 7 8.57 13.53
3/15/2021 9:45:00 PM 1.07 33.926 0.076 6.99 8.82 13.56
3/15/2021 10:00:00 PM 1.01 33.818 0.076 6.99 8.08 13.59
3/15/2021 10:15:00 PM 0.94 33.692 0.076 6.99 8 13.61
3/15/2021 10:30:00 PM 0.88 33.584 0.076 6.99 8.36 13.64
3/15/2021 10:45:00 PM 0.83 33.494 0.076 6.99 8.64 13.66
3/15/2021 11:00:00 PM 0.78 33.404 0.076 6.99 8.22 13.68
3/15/2021 11:15:00 PM 0.73 33.314 0.076 6.99 7.76 13.7
3/15/2021 11:30:00 PM 0.68 33.224 0.076 6.99 7.74 13.72
3/15/2021 11:45:00 PM 0.64 33.152 0.076 6.98 7.95 13.73
3/16/2021 12:00:00 AM 0.6 33.08 0.076 6.99 7.71 13.75
3/16/2021 12:15:00 AM 0.55 32.99 0.076 6.99 8.31 13.77
3/16/2021 12:30:00 AM 0.51 32.918 0.076 6.99 7.45 13.78
3/16/2021 12:45:00 AM 0.46 32.828 0.076 6.98 7.69 13.8
3/16/2021 1:00:00 AM 0.42 32.756 0.077 6.98 7.45 13.81
3/16/2021 1:15:00 AM 0.38 32.684 0.076 6.98 7.26 13.83
3/16/2021 1:30:00 AM 0.34 32.612 0.076 6.99 7.74 13.84
3/16/2021 1:45:00 AM 0.3 32.54 0.077 6.99 7.5 13.85
3/16/2021 2:00:00 AM 0.26 32.468 0.077 6.99 6.99 13.87
3/16/2021 2:15:00 AM 0.23 32.414 0.077 6.99 7.74 13.88
3/16/2021 2:30:00 AM 0.2 32.36 0.077 6.99 7.1 13.89
3/16/2021 2:45:00 AM 0.16 32.288 0.077 6.98 7.75 13.91
3/16/2021 3:00:00 AM 0.14 32.252 0.077 6.99 7.52 13.92
3/16/2021 3:15:00 AM 0.13 32.234 0.077 6.99 7.52 13.93
3/16/2021 3:30:00 AM 0.11 32.198 0.077 6.99 7.29 13.93
3/16/2021 3:45:00 AM 0.1 32.18 0.077 6.99 6.96 13.94
3/16/2021 4:00:00 AM 0.09 32.162 0.077 6.99 7.21 13.94
3/16/2021 4:15:00 AM 0.08 32.144 0.077 6.99 7.24 13.95
3/16/2021 4:30:00 AM 0.07 32.126 0.078 6.99 7.87 13.96
3/16/2021 4:45:00 AM 0.07 32.126 0.077 6.99 7.29 13.95
3/16/2021 5:00:00 AM 0.06 32.108 0.078 6.99 7.26 13.95
3/16/2021 5:15:00 AM 0.05 32.09 0.077 6.99 6.78 13.96
3/16/2021 5:30:00 AM 0.04 32.072 0.078 6.99 6.95 13.96
3/16/2021 5:45:00 AM 0.04 32.072 0.077 6.99 7.03 13.96
3/16/2021 6:00:00 AM 0.03 32.054 0.077 6.99 7.18 13.96
3/16/2021 6:15:00 AM 0.03 32.054 0.077 6.99 6.93 13.96
3/16/2021 6:30:00 AM 0.03 32.054 0.077 6.99 7.31 13.96
3/16/2021 6:45:00 AM 0.03 32.054 0.077 6.99 6.84 13.95
3/16/2021 7:00:00 AM 0.03 32.054 0.078 6.99 6.59 13.94
3/16/2021 7:15:00 AM 0.04 32.072 0.077 6.99 7.09 13.96
3/16/2021 7:30:00 AM 0.04 32.072 0.077 6.99 6.54 13.96
3/16/2021 7:45:00 AM 0.05 32.09 0.078 6.99 6.65 13.95
3/16/2021 8:00:00 AM 0.06 32.108 0.077 7 6.02 13.96
3/16/2021 8:15:00 AM 0.08 32.144 0.077 7.01 6.57 14.01
3/16/2021 8:30:00 AM 0.1 32.18 0.077 7.01 6.42 14.02
3/16/2021 8:45:00 AM 0.11 32.198 0.078 7.02 6.64 14.05
3/16/2021 9:00:00 AM 0.14 32.252 0.077 7.03 6.49 14.08
3/16/2021 9:15:00 AM 0.16 32.288 0.077 7.04 6.23 14.09
3/16/2021 9:30:00 AM 0.19 32.342 0.077 7.05 6.35 14.11
3/16/2021 9:45:00 AM 0.22 32.396 0.077 7.05 6.29 14.11
3/16/2021 10:00:00 AM 0.26 32.468 0.077 7.06 5.94 14.14
3/16/2021 10:15:00 AM 0.3 32.54 0.077 7.07 6.55 14.15
3/16/2021 10:30:00 AM 0.35 32.63 0.077 7.08 6.31 14.14
3/16/2021 10:45:00 AM 0.39 32.702 0.076 7.08 5.74 14.13
3/16/2021 11:00:00 AM 0.44 32.792 0.076 7.09 5.93 14.14
3/16/2021 11:15:00 AM 0.5 32.9 0.076 7.1 6.32 14.13
3/16/2021 11:30:00 AM 0.54 32.972 0.076 7.1 5.83 14.11
3/16/2021 11:45:00 AM 0.59 33.062 0.077 7.1 6.25 14.09
3/16/2021 12:00:00 PM 0.63 33.134 0.077 7.1 5.93 14.08
3/16/2021 12:15:00 PM 0.67 33.206 0.076 7.11 5.82 14.08
3/16/2021 12:30:00 PM 0.71 33.278 0.076 7.11 6.04 14.06
3/16/2021 12:45:00 PM 0.73 33.314 0.076 7.11 6.05 14.02
3/16/2021 1:00:00 PM 0.77 33.386 0.076 7.11 5.95 14.02
3/16/2021 1:15:00 PM 0.86 33.548 0.076 7.12 5.94 14.02
3/16/2021 1:30:00 PM 0.93 33.674 0.076 7.12 6.5 14.01
3/16/2021 1:45:00 PM 0.98 33.764 0.076 7.12 6.03 13.98
3/16/2021 2:00:00 PM 1.04 33.872 0.076 7.13 5.9 13.96
3/16/2021 2:15:00 PM 1.08 33.944 0.076 7.13 6.04 13.93
3/16/2021 2:30:00 PM 1.1 33.98 0.076 7.12 6.16 13.89
3/16/2021 2:45:00 PM 1.11 33.998 0.076 7.12 6.01 13.85
3/16/2021 3:00:00 PM 1.12 34.016 0.076 7.12 5.93 13.83
3/16/2021 3:15:00 PM 1.14 34.052 0.076 7.12 6 13.81
3/16/2021 3:30:00 PM 1.18 34.124 0.075 7.12 6.09 13.8
3/16/2021 3:45:00 PM 1.21 34.178 0.075 7.12 5.71 13.8
3/16/2021 4:00:00 PM 1.23 34.214 0.076 7.12 5.92 13.8
3/16/2021 4:15:00 PM 1.24 34.232 0.076 7.12 5.78 13.78
3/16/2021 4:30:00 PM 1.25 34.25 0.076 7.11 5.83 13.76
3/16/2021 4:45:00 PM 1.25 34.25 0.075 7.11 5.71 13.73
3/16/2021 5:00:00 PM 1.25 34.25 0.076 7.11 5.62 13.72
3/16/2021 5:15:00 PM 1.24 34.232 0.076 7.11 5.85 13.71
3/16/2021 5:30:00 PM 1.22 34.196 0.075 7.1 5.88 13.69
3/16/2021 5:45:00 PM 1.15 34.07 0.075 7.09 6.1 13.66
3/16/2021 6:00:00 PM 1.08 33.944 0.075 7.08 5.66 13.63
3/16/2021 6:15:00 PM 0.99 33.782 0.075 7.07 5.81 13.63
3/16/2021 6:30:00 PM 0.95 33.71 0.075 7.07 6.06 13.65
3/16/2021 6:45:00 PM 0.94 33.692 0.075 7.06 5.83 13.64
3/16/2021 7:00:00 PM 0.92 33.656 0.076 7.05 5.48 13.62
3/16/2021 7:15:00 PM 0.9 33.62 0.075 7.04 5.85 13.63
3/16/2021 7:30:00 PM 0.88 33.584 0.075 7.04 5.86 13.61
3/16/2021 7:45:00 PM 0.87 33.566 0.076 7.03 5.81 13.61
3/16/2021 8:00:00 PM 0.86 33.548 0.076 7.02 6.08 13.6
3/16/2021 8:15:00 PM 0.85 33.53 0.076 7.02 6.03 13.58
3/16/2021 8:30:00 PM 0.86 33.548 0.076 7.01 6.34 13.58
3/16/2021 8:45:00 PM 0.86 33.548 0.076 7.01 6.3 13.56
3/16/2021 9:00:00 PM 0.87 33.566 0.076 7.01 5.71 13.57
3/16/2021 9:15:00 PM 0.87 33.566 0.076 7 5.64 13.56
3/16/2021 9:30:00 PM 0.87 33.566 0.076 7.01 6.05 13.56
3/16/2021 9:45:00 PM 0.87 33.566 0.076 7.01 6 13.55
3/16/2021 10:00:00 PM 0.87 33.566 0.076 7 5.68 13.55
3/16/2021 10:15:00 PM 0.88 33.584 0.076 7 6.11 13.56
3/16/2021 10:30:00 PM 0.88 33.584 0.076 7 6.48 13.55
3/16/2021 10:45:00 PM 0.87 33.566 0.076 7 6.36 13.55
3/16/2021 11:00:00 PM 0.87 33.566 0.076 7 6.37 13.55
3/16/2021 11:15:00 PM 0.87 33.566 0.076 7 6.19 13.55
3/16/2021 11:30:00 PM 0.88 33.584 0.076 7 5.75 13.55
3/16/2021 11:45:00 PM 0.88 33.584 0.077 7 5.94 13.55
3/17/2021 12:00:00 AM 0.88 33.584 0.076 7 5.9 13.55
3/17/2021 12:15:00 AM 0.89 33.602 0.076 7 6.49 13.55
3/17/2021 12:30:00 AM 0.89 33.602 0.077 7 6.15 13.54
3/17/2021 12:45:00 AM 0.9 33.62 0.077 7 5.88 13.54
3/17/2021 1:00:00 AM 0.91 33.638 0.077 7 6.04 13.52
3/17/2021 1:15:00 AM 0.92 33.656 0.077 7 5.86 13.52
3/17/2021 1:30:00 AM 0.93 33.674 0.077 7 6.37 13.51
3/17/2021 1:45:00 AM 0.93 33.674 0.077 7 5.93 13.51
3/17/2021 2:00:00 AM 0.94 33.692 0.077 7 6.29 13.5
3/17/2021 2:15:00 AM 0.95 33.71 0.077 7.01 6.17 13.5
3/17/2021 2:30:00 AM 0.96 33.728 0.077 7 5.97 13.49
3/17/2021 2:45:00 AM 0.97 33.746 0.077 7 5.55 13.49
3/17/2021 3:00:00 AM 0.98 33.764 0.077 7 5.83 13.5
3/17/2021 3:15:00 AM 0.98 33.764 0.077 7.01 5.71 13.48
3/17/2021 3:30:00 AM 0.99 33.782 0.077 7 5.82 13.48
3/17/2021 3:45:00 AM 1 33.8 0.077 7.01 5.7 13.48
3/17/2021 4:00:00 AM 1.01 33.818 0.077 7.01 5.51 13.48
3/17/2021 4:15:00 AM 1.02 33.836 0.077 7 5.53 13.47
3/17/2021 4:30:00 AM 1.03 33.854 0.077 7.01 5.81 13.47
3/17/2021 4:45:00 AM 1.04 33.872 0.077 7.01 5.65 13.46
3/17/2021 5:00:00 AM 1.05 33.89 0.077 7.01 5.77 13.47
3/17/2021 5:15:00 AM 1.06 33.908 0.077 7 5.6 13.45
3/17/2021 5:30:00 AM 1.07 33.926 0.078 7.01 5.54 13.44
3/17/2021 5:45:00 AM 1.08 33.944 0.077 7 5.73 13.45
3/17/2021 6:00:00 AM 1.09 33.962 0.077 7 5.57 13.44
3/17/2021 6:15:00 AM 1.1 33.98 0.077 7 5.44 13.45
3/17/2021 6:30:00 AM 1.11 33.998 0.077 7 9.29 13.43
3/17/2021 6:45:00 AM 1.12 34.016 0.077 7 7.8 13.43
3/17/2021 7:00:00 AM 1.13 34.034 0.077 7 6.61 13.43
3/17/2021 7:15:00 AM 1.14 34.052 0.077 7 7.01 13.42
3/17/2021 7:30:00 AM 1.15 34.07 0.077 7 5.73 13.42
3/17/2021 7:45:00 AM 1.16 34.088 0.077 7.01 6.1 13.43
3/17/2021 8:00:00 AM 1.17 34.106 0.077 7.01 5.77 13.44
3/17/2021 8:15:00 AM 1.19 34.142 0.077 7.02 5.41 13.47
3/17/2021 8:30:00 AM 1.21 34.178 0.077 7.02 5.32 13.5
3/17/2021 8:45:00 AM 1.23 34.214 0.078 7.04 5.58 13.54
3/17/2021 9:00:00 AM 1.26 34.268 0.077 7.05 5.5 13.59
3/17/2021 9:15:00 AM 1.29 34.322 0.077 7.06 5.41 13.62
3/17/2021 9:30:00 AM 1.33 34.394 0.077 7.08 5.34 13.65
3/17/2021 9:45:00 AM 1.37 34.466 0.077 7.08 5.54 13.67
3/17/2021 10:00:00 AM 1.43 34.574 0.077 7.1 5.42 13.7
3/17/2021 10:15:00 AM 1.48 34.664 0.077 7.11 5.48 13.71
3/17/2021 10:30:00 AM 1.54 34.772 0.077 7.12 5.64 13.72
3/17/2021 10:45:00 AM 1.61 34.898 0.077 7.13 5.38 13.72
3/17/2021 11:00:00 AM 1.68 35.024 0.077 7.14 5.48 13.72
3/17/2021 11:15:00 AM 1.77 35.186 0.077 7.14 5.5 13.7
3/17/2021 11:30:00 AM 1.85 35.33 0.077 7.15 5.26 13.7
3/17/2021 11:45:00 AM 1.94 35.492 0.076 7.16 5.66 13.68
3/17/2021 12:00:00 PM 2.04 35.672 0.077 7.16 5.42 13.68
3/17/2021 12:15:00 PM 2.18 35.924 0.076 7.17 5.41 13.64
3/17/2021 12:30:00 PM 2.3 36.14 0.076 7.18 5.5 13.62
3/17/2021 12:45:00 PM 2.43 36.374 0.076 7.18 6.02 13.58
3/17/2021 1:00:00 PM 2.56 36.608 0.076 7.19 5.76 13.54
3/17/2021 1:15:00 PM 2.69 36.842 0.076 7.19 5.74 13.5
3/17/2021 1:30:00 PM 2.82 37.076 0.076 7.2 6.08 13.45
3/17/2021 1:45:00 PM 2.94 37.292 0.076 7.2 5.87 13.41
3/17/2021 2:00:00 PM 3.07 37.526 0.076 7.2 6.01 13.37
3/17/2021 2:15:00 PM 3.23 37.814 0.076 7.2 6.21 13.34
3/17/2021 2:30:00 PM 3.35 38.03 0.076 7.21 6.23 13.3
3/17/2021 2:45:00 PM 3.52 38.336 0.075 7.22 7.04 13.25
3/17/2021 3:00:00 PM 3.71 38.678 0.075 7.22 7.15 13.2
3/17/2021 3:15:00 PM 3.89 39.002 0.075 7.22 7.06 13.14
3/17/2021 3:30:00 PM 4.1 39.38 0.075 7.22 7.57 13.08
3/17/2021 3:45:00 PM 4.29 39.722 0.075 7.23 8.34 13.02
3/17/2021 4:00:00 PM 4.41 39.938 0.075 7.23 8.53 12.97
3/17/2021 4:15:00 PM 4.48 40.064 0.075 7.23 9.73 12.92
3/17/2021 4:30:00 PM 4.52 40.136 0.075 7.23 10.33 12.89
3/17/2021 4:45:00 PM 4.55 40.19 0.075 7.22 9.33 12.86
3/17/2021 5:00:00 PM 4.56 40.208 0.075 7.22 9.76 12.83
3/17/2021 5:15:00 PM 4.55 40.19 0.075 7.22 9.34 12.81
3/17/2021 5:30:00 PM 4.53 40.154 0.075 7.21 9.68 12.78
3/17/2021 5:45:00 PM 4.5 40.1 0.075 7.21 9.8 12.76
3/17/2021 6:00:00 PM 4.46 40.028 0.075 7.2 11.23 12.73
3/17/2021 6:15:00 PM 4.41 39.938 0.075 7.19 10.52 12.7
3/17/2021 6:30:00 PM 4.34 39.812 0.075 7.18 11.97 12.67
3/17/2021 6:45:00 PM 4.28 39.704 0.075 7.16 10.12 12.63
3/17/2021 7:00:00 PM 4.19 39.542 0.075 7.14 10.31 12.59
3/17/2021 7:15:00 PM 4.12 39.416 0.075 7.12 9.96 12.55
3/17/2021 7:30:00 PM 4.04 39.272 0.075 7.1 10.05 12.51
3/17/2021 7:45:00 PM 3.96 39.128 0.075 7.08 9.82 12.48
3/17/2021 8:00:00 PM 3.88 38.984 0.075 7.06 9 12.47
3/17/2021 8:15:00 PM 3.8 38.84 0.075 7.05 9.67 12.46
3/17/2021 8:30:00 PM 3.73 38.714 0.075 7.04 9.08 12.46
3/17/2021 8:45:00 PM 3.64 38.552 0.075 7.02 9.72 12.48
3/17/2021 9:00:00 PM 3.56 38.408 0.075 7.02 9.3 12.49
3/17/2021 9:15:00 PM 3.49 38.282 0.076 7.01 8.79 12.51
3/17/2021 9:30:00 PM 3.4 38.12 0.076 7.01 8.8 12.55
3/17/2021 9:45:00 PM 3.33 37.994 0.076 7.01 9.2 12.56
3/17/2021 10:00:00 PM 3.25 37.85 0.076 7 9.48 12.58
3/17/2021 10:15:00 PM 3.18 37.724 0.076 7.01 7.86 12.61
3/17/2021 10:30:00 PM 3.11 37.598 0.076 7 8.24 12.62
3/17/2021 10:45:00 PM 3.04 37.472 0.076 7 8.9 12.67
3/17/2021 11:00:00 PM 2.98 37.364 0.076 7 8.6 12.68
3/17/2021 11:15:00 PM 2.93 37.274 0.076 7 8.9 12.7
3/17/2021 11:30:00 PM 2.9 37.22 0.076 7.01 8.52 12.7
3/17/2021 11:45:00 PM 2.86 37.148 0.076 7.01 7.89 12.73
3/18/2021 12:00:00 AM 2.84 37.112 0.076 7.01 8.48 12.74
3/18/2021 12:15:00 AM 2.81 37.058 0.076 7.01 9.47 12.75
3/18/2021 12:30:00 AM 2.79 37.022 0.077 7.01 7.8 12.77
3/18/2021 12:45:00 AM 2.78 37.004 0.077 7.01 8.02 12.77
3/18/2021 1:00:00 AM 2.76 36.968 0.076 7.02 7.32 12.78
3/18/2021 1:15:00 AM 2.75 36.95 0.076 7.01 7.62 12.77
3/18/2021 1:30:00 AM 2.74 36.932 0.077 7.01 7.41 12.78
3/18/2021 1:45:00 AM 2.73 36.914 0.077 7.02 7.01 12.78
3/18/2021 2:00:00 AM 2.73 36.914 0.077 7.02 7.29 12.78
3/18/2021 2:15:00 AM 2.72 36.896 0.077 7.02 7.42 12.79
3/18/2021 2:30:00 AM 2.71 36.878 0.077 7.02 6.94 12.79
3/18/2021 2:45:00 AM 2.71 36.878 0.077 7.02 7.42 12.79
3/18/2021 3:00:00 AM 2.71 36.878 0.077 7.02 6.84 12.79
3/18/2021 3:15:00 AM 2.71 36.878 0.077 7.02 6.66 12.78
3/18/2021 3:30:00 AM 2.7 36.86 0.077 7.02 6.77 12.79
3/18/2021 3:45:00 AM 2.7 36.86 0.077 7.02 7.2 12.78
3/18/2021 4:00:00 AM 2.7 36.86 0.077 7.02 7.08 12.78
3/18/2021 4:15:00 AM 2.69 36.842 0.077 7.02 6.73 12.79
3/18/2021 4:30:00 AM 2.69 36.842 0.077 7.02 7.08 12.78
3/18/2021 4:45:00 AM 2.69 36.842 0.077 7.02 6.64 12.78
3/18/2021 5:00:00 AM 2.69 36.842 0.078 7.02 6.86 12.78
3/18/2021 5:15:00 AM 2.69 36.842 0.077 7.02 6.44 12.77
3/18/2021 5:30:00 AM 2.69 36.842 0.077 7.02 6.67 12.77
3/18/2021 5:45:00 AM 2.69 36.842 0.078 7.02 6.43 12.77
3/18/2021 6:00:00 AM 2.69 36.842 0.078 7.02 6.81 12.78
3/18/2021 6:15:00 AM 2.69 36.842 0.077 7.02 6.7 12.76
3/18/2021 6:30:00 AM 2.69 36.842 0.078 7.02 6.73 12.76
3/18/2021 6:45:00 AM 2.68 36.824 0.078 7.02 9.27 12.76
3/18/2021 7:00:00 AM 2.68 36.824 0.078 7.02 8.65 12.75
3/18/2021 7:15:00 AM 2.68 36.824 0.077 7.01 7.72 12.76
3/18/2021 7:30:00 AM 2.68 36.824 0.078 7.02 7.07 12.76
3/18/2021 7:45:00 AM 2.68 36.824 0.078 7.02 6.58 12.76
3/18/2021 8:00:00 AM 2.68 36.824 0.077 7.02 6.88 12.78
3/18/2021 8:15:00 AM 2.68 36.824 0.077 7.02 6.91 12.79
3/18/2021 8:30:00 AM 2.68 36.824 0.077 7.03 6.73 12.82
3/18/2021 8:45:00 AM 2.69 36.842 0.077 7.04 6.83 12.84
3/18/2021 9:00:00 AM 2.69 36.842 0.077 7.04 7.88 12.87
3/18/2021 9:15:00 AM 2.7 36.86 0.077 7.04 8.15 12.87
3/18/2021 9:30:00 AM 2.71 36.878 0.077 7.05 9.23 12.92
3/18/2021 9:45:00 AM 2.72 36.896 0.077 7.06 10.22 12.94
3/18/2021 10:00:00 AM 2.73 36.914 0.077 7.07 11.6 12.97
3/18/2021 10:15:00 AM 2.76 36.968 0.076 7.08 12.11 12.99
3/18/2021 10:30:00 AM 2.77 36.986 0.076 7.09 13.76 13.02
3/18/2021 10:45:00 AM 2.79 37.022 0.076 7.1 14.44 13.03
3/18/2021 11:00:00 AM 2.81 37.058 0.076 7.1 15.76 13.04
3/18/2021 11:15:00 AM 2.83 37.094 0.076 7.11 18.45 13.03
3/18/2021 11:30:00 AM 2.85 37.13 0.076 7.12 19.74 13.03
3/18/2021 11:45:00 AM 2.87 37.166 0.075 7.12 23.88 13.03
3/18/2021 12:00:00 PM 2.89 37.202 0.075 7.12 28.9 13.01
3/18/2021 12:15:00 PM 2.9 37.22 0.076 7.12 42.77 12.97
3/18/2021 12:30:00 PM 2.91 37.238 0.076 7.11 41.1 12.94
3/18/2021 12:45:00 PM 2.93 37.274 0.077 7.11 43.16 12.92
3/18/2021 1:00:00 PM 2.93 37.274 0.077 7.1 70.47 12.89
3/18/2021 1:15:00 PM 2.95 37.31 0.078 7.09 93.84 12.89
3/18/2021 1:30:00 PM 2.96 37.328 0.079 7.08 85.17 12.88
3/18/2021 1:45:00 PM 2.96 37.328 0.08 7.08 99.5 12.85
3/18/2021 2:00:00 PM 2.97 37.346 0.08 7.06 98.97 12.85
3/18/2021 2:15:00 PM 2.96 37.328 0.079 7.05 78.13 12.84
3/18/2021 2:30:00 PM 2.96 37.328 0.079 7.04 118.39 12.84
3/18/2021 2:45:00 PM 2.95 37.31 0.078 7.02 91.57 12.84
3/18/2021 3:00:00 PM 2.95 37.31 0.077 7.02 132.69 12.85
3/18/2021 3:15:00 PM 2.94 37.292 0.075 7.01 121.95 12.84
3/18/2021 3:30:00 PM 2.93 37.274 0.074 7 119.78 12.84
3/18/2021 3:45:00 PM 2.92 37.256 0.073 6.99 150.22 12.84
3/18/2021 4:00:00 PM 2.91 37.238 0.072 6.98 127.96 12.84
3/18/2021 4:15:00 PM 2.91 37.238 0.071 6.98 106.71 12.84
3/18/2021 4:30:00 PM 2.92 37.256 0.07 6.98 127.3 12.84
3/18/2021 4:45:00 PM 2.92 37.256 0.069 6.97 142.78 12.84
3/18/2021 5:00:00 PM 2.92 37.256 0.068 6.98 116.04 12.84
3/18/2021 5:15:00 PM 2.93 37.274 0.067 6.98 81.65 12.83
3/18/2021 5:30:00 PM 2.94 37.292 0.067 6.98 101.39 12.83
3/18/2021 5:45:00 PM 2.94 37.292 0.066 6.97 69.97 12.83
3/18/2021 6:00:00 PM 2.95 37.31 0.066 6.97 108.73 12.83
3/18/2021 6:15:00 PM 2.95 37.31 0.066 6.97 79.35 12.83
3/18/2021 6:30:00 PM 2.95 37.31 0.066 6.97 93.3 12.82
3/18/2021 6:45:00 PM 2.95 37.31 0.066 6.97 79.09 12.82
3/18/2021 7:00:00 PM 2.95 37.31 0.066 6.97 60.71 12.82
3/18/2021 7:15:00 PM 2.94 37.292 0.066 6.97 67.53 12.82
3/18/2021 7:30:00 PM 2.93 37.274 0.066 6.96 50.26 12.82
3/18/2021 7:45:00 PM 2.92 37.256 0.065 6.96 67 12.82
3/18/2021 8:00:00 PM 2.91 37.238 0.065 6.96 55.76 12.83
3/18/2021 8:15:00 PM 2.89 37.202 0.065 6.96 55.98 12.84
3/18/2021 8:30:00 PM 2.88 37.184 0.066 6.95 60.55 12.84
3/18/2021 8:45:00 PM 2.86 37.148 0.066 6.95 63.93 12.84
3/18/2021 9:00:00 PM 2.84 37.112 0.066 6.95 58.68 12.85
3/18/2021 9:15:00 PM 2.82 37.076 0.066 6.95 49.54 12.85
3/18/2021 9:30:00 PM 2.8 37.04 0.066 6.95 56.58 12.86
3/18/2021 9:45:00 PM 2.78 37.004 0.066 6.95 54.26 12.86
3/18/2021 10:00:00 PM 2.76 36.968 0.067 6.95 44.78 12.87
3/18/2021 10:15:00 PM 2.73 36.914 0.067 6.95 42.54 12.88
3/18/2021 10:30:00 PM 2.71 36.878 0.068 6.95 54.95 12.89
3/18/2021 10:45:00 PM 2.68 36.824 0.068 6.95 42 12.9
3/18/2021 11:00:00 PM 2.65 36.77 0.068 6.95 41.02 12.91
3/18/2021 11:15:00 PM 2.61 36.698 0.069 6.96 30.45 12.93
3/18/2021 11:30:00 PM 2.58 36.644 0.069 6.96 34.16 12.94
3/18/2021 11:45:00 PM 2.55 36.59 0.069 6.96 47.51 12.94
3/19/2021 12:00:00 AM 2.51 36.518 0.069 6.96 36.22 12.96
3/19/2021 12:15:00 AM 2.48 36.464 0.07 6.96 30.7 12.97
3/19/2021 12:30:00 AM 2.44 36.392 0.07 6.96 29.72 12.98
3/19/2021 12:45:00 AM 2.4 36.32 0.071 6.96 31.68 12.99
3/19/2021 1:00:00 AM 2.36 36.248 0.071 6.96 56.24 13.01
3/19/2021 1:15:00 AM 2.31 36.158 0.071 6.96 28.23 13.02
3/19/2021 1:30:00 AM 2.26 36.068 0.071 6.96 27.01 13.04
3/19/2021 1:45:00 AM 2.21 35.978 0.072 6.96 31.27 13.06
3/19/2021 2:00:00 AM 2.15 35.87 0.072 6.96 27.17 13.08
3/19/2021 2:15:00 AM 2.1 35.78 0.072 6.97 22.81 13.09
3/19/2021 2:30:00 AM 2.05 35.69 0.072 6.96 22.9 13.11
3/19/2021 2:45:00 AM 2 35.6 0.073 6.96 28.54 13.13
3/19/2021 3:00:00 AM 1.94 35.492 0.073 6.96 28.12 13.16
3/19/2021 3:15:00 AM 1.88 35.384 0.073 6.96 25.22 13.17
3/19/2021 3:30:00 AM 1.82 35.276 0.073 6.97 20.21 13.2
3/19/2021 3:45:00 AM 1.76 35.168 0.073 6.96 29.41 13.22
3/19/2021 4:00:00 AM 1.7 35.06 0.074 6.96 22.05 13.23
3/19/2021 4:15:00 AM 1.64 34.952 0.073 6.96 21.7 13.26
3/19/2021 4:30:00 AM 1.58 34.844 0.074 6.96 22.84 13.28
3/19/2021 4:45:00 AM 1.52 34.736 0.074 6.96 25.47 13.3
3/19/2021 5:00:00 AM 1.45 34.61 0.074 6.96 22.15 13.33
3/19/2021 5:15:00 AM 1.38 34.484 0.074 6.96 20.74 13.36
3/19/2021 5:30:00 AM 1.31 34.358 0.074 6.96 21.32 13.39
3/19/2021 5:45:00 AM 1.25 34.25 0.074 6.96 20.79 13.42
3/19/2021 6:00:00 AM 1.19 34.142 0.074 6.96 19.98 13.44
3/19/2021 6:15:00 AM 1.13 34.034 0.074 6.96 19.91 13.46
3/19/2021 6:30:00 AM 1.06 33.908 0.074 6.96 18.33 13.5
3/19/2021 6:45:00 AM 1 33.8 0.074 6.96 19.25 13.53
3/19/2021 7:00:00 AM 0.93 33.674 0.074 6.96 20.83 13.56
3/19/2021 7:15:00 AM 0.88 33.584 0.074 6.96 18.01 13.58
3/19/2021 7:30:00 AM 0.81 33.458 0.074 6.96 16.87 13.62
3/19/2021 7:45:00 AM 0.76 33.368 0.074 6.96 17.77 13.65
3/19/2021 8:00:00 AM 0.72 33.296 0.074 6.96 17.19 13.68
3/19/2021 8:15:00 AM 0.69 33.242 0.074 6.97 18.91 13.74
3/19/2021 8:30:00 AM 0.66 33.188 0.073 6.97 16.05 13.77
3/19/2021 8:45:00 AM 0.63 33.134 0.073 6.98 16.75 13.82
3/19/2021 9:00:00 AM 0.6 33.08 0.073 6.98 16.54 13.84
3/19/2021 9:15:00 AM 0.57 33.026 0.073 6.99 17.33 13.87
3/19/2021 9:30:00 AM 0.56 33.008 0.073 6.99 15.72 13.9
3/19/2021 9:45:00 AM 0.56 33.008 0.073 7 15.13 13.92
3/19/2021 10:00:00 AM 0.58 33.044 0.073 7.01 13.73 13.94
3/19/2021 10:15:00 AM 0.63 33.134 0.073 7.01 13.97 13.95
3/19/2021 10:30:00 AM 0.69 33.242 0.073 7.02 14.43 13.95
3/19/2021 10:45:00 AM 0.78 33.404 0.073 7.02 14.09 13.94
3/19/2021 11:00:00 AM 0.88 33.584 0.073 7.03 13.6 13.92
3/19/2021 11:15:00 AM 1 33.8 0.072 7.04 13.38 13.9
3/19/2021 11:30:00 AM 1.15 34.07 0.072 7.05 12.92 13.88
3/19/2021 11:45:00 AM 1.32 34.376 0.072 7.05 13.45 13.83
3/19/2021 12:00:00 PM 1.5 34.7 0.072 7.06 12.59 13.79
3/19/2021 12:15:00 PM 1.69 35.042 0.072 7.07 13.32 13.73
3/19/2021 12:30:00 PM 1.88 35.384 0.072 7.07 12.42 13.68
3/19/2021 12:45:00 PM 2.09 35.762 0.072 7.08 14.53 13.62
3/19/2021 1:00:00 PM 2.28 36.104 0.071 7.08 13.46 13.57
3/19/2021 1:15:00 PM 2.49 36.482 0.071 7.09 12.5 13.51
3/19/2021 1:30:00 PM 2.68 36.824 0.071 7.09 12.93 13.45
3/19/2021 1:45:00 PM 2.87 37.166 0.071 7.1 12.36 13.39
3/19/2021 2:00:00 PM 3.05 37.49 0.071 7.1 12.59 13.33
3/19/2021 2:15:00 PM 3.2 37.76 0.071 7.1 13.11 13.28
3/19/2021 2:30:00 PM 3.34 38.012 0.071 7.11 13.25 13.22
3/19/2021 2:45:00 PM 3.47 38.246 0.071 7.1 13.37 13.17
3/19/2021 3:00:00 PM 3.59 38.462 0.071 7.1 13.27 13.12
3/19/2021 3:15:00 PM 3.69 38.642 0.07 7.11 14.73 13.09
3/19/2021 3:30:00 PM 3.77 38.786 0.071 7.11 15.61 13.04
3/19/2021 3:45:00 PM 3.82 38.876 0.07 7.11 14.21 13.02
3/19/2021 4:00:00 PM 3.86 38.948 0.07 7.1 14.97 12.98
3/19/2021 4:15:00 PM 3.89 39.002 0.07 7.1 14.36 12.97
3/19/2021 4:30:00 PM 3.9 39.02 0.07 7.1 14.48 12.94
3/19/2021 4:45:00 PM 3.89 39.002 0.07 7.1 14.31 12.94
3/19/2021 5:00:00 PM 3.87 38.966 0.07 7.1 13.39 12.92
3/19/2021 5:15:00 PM 3.84 38.912 0.07 7.09 12.72 12.92
3/19/2021 5:30:00 PM 3.78 38.804 0.07 7.08 12.98 12.91
3/19/2021 5:45:00 PM 3.72 38.696 0.07 7.08 13.78 12.92
3/19/2021 6:00:00 PM 3.64 38.552 0.07 7.07 12.35 12.91
3/19/2021 6:15:00 PM 3.53 38.354 0.07 7.06 11.65 12.91
3/19/2021 6:30:00 PM 3.43 38.174 0.07 7.05 13.16 12.91
3/19/2021 6:45:00 PM 3.32 37.976 0.07 7.04 11.83 12.91
3/19/2021 7:00:00 PM 3.21 37.778 0.07 7.03 11.73 12.9
3/19/2021 7:15:00 PM 3.11 37.598 0.07 7.02 12.01 12.91
3/19/2021 7:30:00 PM 3.02 37.436 0.07 7.01 12.69 12.91
3/19/2021 7:45:00 PM 2.92 37.256 0.07 7 11.66 12.92
3/19/2021 8:00:00 PM 2.83 37.094 0.07 6.99 11.21 12.94
3/19/2021 8:15:00 PM 2.74 36.932 0.07 6.98 12.67 12.96
3/19/2021 8:30:00 PM 2.65 36.77 0.07 6.98 12.1 13
3/19/2021 8:45:00 PM 2.56 36.608 0.07 6.97 12.46 13.04
3/19/2021 9:00:00 PM 2.47 36.446 0.07 6.97 11.79 13.07
3/19/2021 9:15:00 PM 2.41 36.338 0.07 6.96 10.62 13.09
3/19/2021 9:30:00 PM 2.34 36.212 0.07 6.97 12.03 13.12
3/19/2021 9:45:00 PM 2.26 36.068 0.07 6.96 11.42 13.14
3/19/2021 10:00:00 PM 2.19 35.942 0.07 6.96 11.13 13.18
3/19/2021 10:15:00 PM 2.13 35.834 0.07 6.96 10.96 13.2
3/19/2021 10:30:00 PM 2.07 35.726 0.07 6.96 10.84 13.23
3/19/2021 10:45:00 PM 2 35.6 0.07 6.96 11.75 13.25
3/19/2021 11:00:00 PM 1.94 35.492 0.07 6.96 10.49 13.27
3/19/2021 11:15:00 PM 1.88 35.384 0.07 6.95 10.58 13.29
3/19/2021 11:30:00 PM 1.82 35.276 0.07 6.96 10.6 13.32
3/19/2021 11:45:00 PM 1.77 35.186 0.07 6.96 9.94 13.34
3/20/2021 12:00:00 AM 1.71 35.078 0.07 6.96 9.39 13.37
3/20/2021 12:15:00 AM 1.65 34.97 0.071 6.96 9.97 13.39
3/20/2021 12:30:00 AM 1.59 34.862 0.07 6.96 10.18 13.41
3/20/2021 12:45:00 AM 1.54 34.772 0.07 6.96 9.88 13.44
3/20/2021 1:00:00 AM 1.49 34.682 0.071 6.96 10.43 13.46
3/20/2021 1:15:00 AM 1.43 34.574 0.07 6.95 10.37 13.49
3/20/2021 1:30:00 AM 1.38 34.484 0.071 6.96 10.06 13.51
3/20/2021 1:45:00 AM 1.33 34.394 0.071 6.96 9.43 13.53
3/20/2021 2:00:00 AM 1.28 34.304 0.07 6.96 9.62 13.56
3/20/2021 2:15:00 AM 1.23 34.214 0.07 6.95 10.06 13.57
3/20/2021 2:30:00 AM 1.18 34.124 0.07 6.95 9.89 13.6
3/20/2021 2:45:00 AM 1.13 34.034 0.07 6.95 9.14 13.61
3/20/2021 3:00:00 AM 1.09 33.962 0.07 6.95 9.38 13.64
3/20/2021 3:15:00 AM 1.04 33.872 0.071 6.95 10.05 13.65
3/20/2021 3:30:00 AM 1 33.8 0.071 6.95 8.95 13.67
3/20/2021 3:45:00 AM 0.96 33.728 0.071 6.95 9.52 13.69
3/20/2021 4:00:00 AM 0.91 33.638 0.071 6.95 9.12 13.7
3/20/2021 4:15:00 AM 0.87 33.566 0.071 6.95 9.02 13.72
3/20/2021 4:30:00 AM 0.83 33.494 0.071 6.95 9.22 13.74
3/20/2021 4:45:00 AM 0.78 33.404 0.071 6.95 8.94 13.76
3/20/2021 5:00:00 AM 0.74 33.332 0.071 6.95 8.68 13.78
3/20/2021 5:15:00 AM 0.7 33.26 0.071 6.95 8.63 13.79
3/20/2021 5:30:00 AM 0.66 33.188 0.071 6.95 8.56 13.81
3/20/2021 5:45:00 AM 0.62 33.116 0.071 6.95 9.34 13.83
3/20/2021 6:00:00 AM 0.58 33.044 0.072 6.95 8.69 13.84
3/20/2021 6:15:00 AM 0.55 32.99 0.071 6.95 8.91 13.85
3/20/2021 6:30:00 AM 0.51 32.918 0.071 6.95 8.86 13.87
3/20/2021 6:45:00 AM 0.48 32.864 0.071 6.95 8.48 13.89
3/20/2021 7:00:00 AM 0.44 32.792 0.072 6.95 8.31 13.9
3/20/2021 7:15:00 AM 0.4 32.72 0.071 6.95 8.76 13.92
3/20/2021 7:30:00 AM 0.38 32.684 0.071 6.96 8.63 13.94
3/20/2021 7:45:00 AM 0.35 32.63 0.071 6.96 8.04 13.97
3/20/2021 8:00:00 AM 0.33 32.594 0.072 6.96 8.51 14
3/20/2021 8:15:00 AM 0.31 32.558 0.072 6.97 8.81 14.04
3/20/2021 8:30:00 AM 0.3 32.54 0.072 6.98 8.2 14.07
3/20/2021 8:45:00 AM 0.3 32.54 0.072 6.98 8.58 14.11
3/20/2021 9:00:00 AM 0.31 32.558 0.071 6.99 8.1 14.13
3/20/2021 9:15:00 AM 0.33 32.594 0.071 7 8.39 14.15
3/20/2021 9:30:00 AM 0.38 32.684 0.072 7.01 7.6 14.16
3/20/2021 9:45:00 AM 0.45 32.81 0.071 7.02 8.29 14.17
3/20/2021 10:00:00 AM 0.54 32.972 0.071 7.03 7.28 14.17
3/20/2021 10:15:00 AM 0.65 33.17 0.071 7.04 7.66 14.15
3/20/2021 10:30:00 AM 0.78 33.404 0.071 7.05 7.76 14.14
3/20/2021 10:45:00 AM 0.93 33.674 0.071 7.06 7.65 14.11
3/20/2021 11:00:00 AM 1.1 33.98 0.071 7.07 8.19 14.07
3/20/2021 11:15:00 AM 1.29 34.322 0.071 7.08 8.1 14.02
3/20/2021 11:30:00 AM 1.51 34.718 0.071 7.08 8.01 13.95
3/20/2021 11:45:00 AM 1.76 35.168 0.071 7.09 8.51 13.88
3/20/2021 12:00:00 PM 2.03 35.654 0.071 7.1 7.81 13.81
3/20/2021 12:15:00 PM 2.32 36.176 0.07 7.11 7.79 13.72
3/20/2021 12:30:00 PM 2.61 36.698 0.07 7.11 7.86 13.64
3/20/2021 12:45:00 PM 2.89 37.202 0.07 7.12 7.53 13.55
3/20/2021 1:00:00 PM 3.17 37.706 0.07 7.13 7.62 13.46
3/20/2021 1:15:00 PM 3.44 38.192 0.07 7.14 8.19 13.39
3/20/2021 1:30:00 PM 3.73 38.714 0.07 7.14 8.26 13.29
3/20/2021 1:45:00 PM 3.99 39.182 0.07 7.14 8.79 13.19
3/20/2021 2:00:00 PM 4.24 39.632 0.07 7.15 8.55 13.11
3/20/2021 2:15:00 PM 4.45 40.01 0.07 7.15 8.59 13.03
3/20/2021 2:30:00 PM 4.67 40.406 0.07 7.16 10.69 12.96
3/20/2021 2:45:00 PM 4.85 40.73 0.07 7.16 9.77 12.9
3/20/2021 3:00:00 PM 5.02 41.036 0.069 7.16 10.24 12.84
3/20/2021 3:15:00 PM 5.17 41.306 0.069 7.18 10.19 12.78
3/20/2021 3:30:00 PM 5.3 41.54 0.07 7.16 10.22 12.73
3/20/2021 3:45:00 PM 5.4 41.72 0.069 7.17 10.07 12.67
3/20/2021 4:00:00 PM 5.48 41.864 0.069 7.17 10.9 12.64
3/20/2021 4:15:00 PM 5.54 41.972 0.069 7.17 10.39 12.58
3/20/2021 4:30:00 PM 5.57 42.026 0.069 7.16 10.1 12.56
3/20/2021 4:45:00 PM 5.59 42.062 0.069 7.16 10.25 12.53
3/20/2021 5:00:00 PM 5.59 42.062 0.069 7.16 9.51 12.52
3/20/2021 5:15:00 PM 5.58 42.044 0.069 7.15 9.9 12.49
3/20/2021 5:30:00 PM 5.55 41.99 0.069 7.15 9.48 12.48
3/20/2021 5:45:00 PM 5.5 41.9 0.069 7.14 10.43 12.46
3/20/2021 6:00:00 PM 5.44 41.792 0.069 7.13 9.63 12.45
3/20/2021 6:15:00 PM 5.36 41.648 0.069 7.12 10 12.43
3/20/2021 6:30:00 PM 5.26 41.468 0.069 7.1 10.65 12.41
3/20/2021 6:45:00 PM 5.16 41.288 0.07 7.08 10.59 12.39
3/20/2021 7:00:00 PM 5.07 41.126 0.07 7.07 9.6 12.37
3/20/2021 7:15:00 PM 4.95 40.91 0.07 7.05 9.63 12.35
3/20/2021 7:30:00 PM 4.84 40.712 0.07 7.03 9.88 12.33
3/20/2021 7:45:00 PM 4.73 40.514 0.07 7.02 9.71 12.34
3/20/2021 8:00:00 PM 4.62 40.316 0.07 7 9.7 12.33
3/20/2021 8:15:00 PM 4.51 40.118 0.07 6.99 10.06 12.37
3/20/2021 8:30:00 PM 4.39 39.902 0.07 6.98 12.05 12.39
3/20/2021 8:45:00 PM 4.29 39.722 0.07 6.98 13.83 12.4
3/20/2021 9:00:00 PM 4.17 39.506 0.07 6.97 12.89 12.45
3/20/2021 9:15:00 PM 4.07 39.326 0.07 6.97 12.09 12.48
3/20/2021 9:30:00 PM 3.95 39.11 0.07 6.96 12.51 12.52
3/20/2021 9:45:00 PM 3.85 38.93 0.07 6.96 10.74 12.55
3/20/2021 10:00:00 PM 3.74 38.732 0.07 6.96 10.9 12.59
3/20/2021 10:15:00 PM 3.64 38.552 0.071 6.95 11.19 12.62
3/20/2021 10:30:00 PM 3.54 38.372 0.071 6.96 9.91 12.66
3/20/2021 10:45:00 PM 3.44 38.192 0.071 6.95 9.66 12.69
3/20/2021 11:00:00 PM 3.35 38.03 0.071 6.96 11.11 12.73
3/20/2021 11:15:00 PM 3.26 37.868 0.071 6.95 9.88 12.75
3/20/2021 11:30:00 PM 3.18 37.724 0.071 6.96 9.1 12.77
3/20/2021 11:45:00 PM 3.09 37.562 0.071 6.96 9.29 12.82
3/21/2021 12:00:00 AM 3 37.4 0.072 6.96 9.67 12.84
3/21/2021 12:15:00 AM 2.92 37.256 0.071 6.96 8.65 12.88
3/21/2021 12:30:00 AM 2.84 37.112 0.071 6.96 9.15 12.92
3/21/2021 12:45:00 AM 2.76 36.968 0.071 6.95 8.85 12.93
3/21/2021 1:00:00 AM 2.69 36.842 0.071 6.96 9.09 12.97
3/21/2021 1:15:00 AM 2.61 36.698 0.071 6.95 8.39 13.01
3/21/2021 1:30:00 AM 2.54 36.572 0.072 6.95 8.58 13.03
3/21/2021 1:45:00 AM 2.46 36.428 0.072 6.95 8.81 13.05
3/21/2021 2:00:00 AM 2.4 36.32 0.072 6.96 8.9 13.08
3/21/2021 2:15:00 AM 2.33 36.194 0.072 6.96 8.83 13.11
3/21/2021 2:30:00 AM 2.26 36.068 0.072 6.96 8.29 13.13
3/21/2021 2:45:00 AM 2.2 35.96 0.072 6.95 8.15 13.17
3/21/2021 3:00:00 AM 2.13 35.834 0.072 6.96 8.17 13.19
3/21/2021 3:15:00 AM 2.07 35.726 0.072 6.96 8.16 13.2
3/21/2021 3:30:00 AM 2.01 35.618 0.072 6.96 8.14 13.22
3/21/2021 3:45:00 AM 1.95 35.51 0.072 6.96 7.55 13.24
3/21/2021 4:00:00 AM 1.89 35.402 0.072 6.96 7.98 13.28
3/21/2021 4:15:00 AM 1.83 35.294 0.073 6.96 8.53 13.29
3/21/2021 4:30:00 AM 1.78 35.204 0.072 6.96 8.13 13.32
3/21/2021 4:45:00 AM 1.72 35.096 0.072 6.96 7.34 13.34
3/21/2021 5:00:00 AM 1.67 35.006 0.072 6.96 7.49 13.36
3/21/2021 5:15:00 AM 1.62 34.916 0.073 6.96 7.27 13.37
3/21/2021 5:30:00 AM 1.57 34.826 0.072 6.96 7.67 13.4
3/21/2021 5:45:00 AM 1.52 34.736 0.073 6.96 7.78 13.42
3/21/2021 6:00:00 AM 1.47 34.646 0.072 6.96 7.26 13.45
3/21/2021 6:15:00 AM 1.42 34.556 0.073 6.96 7.79 13.47
3/21/2021 6:30:00 AM 1.37 34.466 0.073 6.96 7.2 13.49
3/21/2021 6:45:00 AM 1.32 34.376 0.073 6.96 7.49 13.5
3/21/2021 7:00:00 AM 1.28 34.304 0.073 6.96 7.34 13.53
3/21/2021 7:15:00 AM 1.23 34.214 0.073 6.96 7.88 13.55
3/21/2021 7:30:00 AM 1.19 34.142 0.073 6.96 7.52 13.58
3/21/2021 7:45:00 AM 1.15 34.07 0.073 6.97 7.3 13.61
3/21/2021 8:00:00 AM 1.12 34.016 0.073 6.97 7.53 13.65
3/21/2021 8:15:00 AM 1.09 33.962 0.073 6.97 6.97 13.7
3/21/2021 8:30:00 AM 1.07 33.926 0.073 6.99 7.02 13.75
3/21/2021 8:45:00 AM 1.05 33.89 0.073 7 7.33 13.79
3/21/2021 9:00:00 AM 1.06 33.908 0.073 7.01 7.15 13.83
3/21/2021 9:15:00 AM 1.08 33.944 0.073 7.02 6.54 13.86
3/21/2021 9:30:00 AM 1.12 34.016 0.073 7.02 6.96 13.89
3/21/2021 9:45:00 AM 1.19 34.142 0.073 7.04 6.72 13.89
3/21/2021 10:00:00 AM 1.28 34.304 0.073 7.05 6.42 13.9
3/21/2021 10:15:00 AM 1.38 34.484 0.073 7.06 7 13.89
3/21/2021 10:30:00 AM 1.51 34.718 0.072 7.08 6.86 13.88
3/21/2021 10:45:00 AM 1.65 34.97 0.073 7.09 6.43 13.87
3/21/2021 11:00:00 AM 1.84 35.312 0.072 7.1 6.78 13.81
3/21/2021 11:15:00 AM 2.03 35.654 0.072 7.11 6.75 13.78
3/21/2021 11:30:00 AM 2.26 36.068 0.072 7.13 6.42 13.72
3/21/2021 11:45:00 AM 2.51 36.518 0.072 7.13 6.48 13.65
3/21/2021 12:00:00 PM 2.8 37.04 0.072 7.14 6.37 13.56
3/21/2021 12:15:00 PM 3.09 37.562 0.072 7.14 6.44 13.49
3/21/2021 12:30:00 PM 3.4 38.12 0.072 7.15 6.8 13.4
3/21/2021 12:45:00 PM 3.73 38.714 0.072 7.16 6.39 13.31
3/21/2021 1:00:00 PM 4.02 39.236 0.072 7.17 7.31 13.22
3/21/2021 1:15:00 PM 4.31 39.758 0.071 7.17 6.52 13.14
3/21/2021 1:30:00 PM 4.62 40.316 0.071 7.17 7.07 13.04
3/21/2021 1:45:00 PM 4.9 40.82 0.071 7.19 7.36 12.96
3/21/2021 2:00:00 PM 5.18 41.324 0.071 7.2 8.24 12.87
3/21/2021 2:15:00 PM 5.43 41.774 0.071 7.21 8.73 12.79
3/21/2021 2:30:00 PM 5.66 42.188 0.071 7.21 8.5 12.7
3/21/2021 2:45:00 PM 5.88 42.584 0.071 7.21 8.94 12.63
3/21/2021 3:00:00 PM 6.08 42.944 0.071 7.21 8.45 12.56
3/21/2021 3:15:00 PM 6.25 43.25 0.071 7.22 8.49 12.49
3/21/2021 3:30:00 PM 6.39 43.502 0.071 7.22 8.48 12.44
3/21/2021 3:45:00 PM 6.52 43.736 0.071 7.21 8.19 12.37
3/21/2021 4:00:00 PM 6.61 43.898 0.071 7.2 7.77 12.34
3/21/2021 4:15:00 PM 6.68 44.024 0.071 7.2 7.84 12.28
3/21/2021 4:30:00 PM 6.72 44.096 0.071 7.2 7.92 12.25
3/21/2021 4:45:00 PM 6.74 44.132 0.071 7.2 7.83 12.24
3/21/2021 5:00:00 PM 6.74 44.132 0.071 7.2 8.68 12.18
3/21/2021 5:15:00 PM 6.73 44.114 0.071 7.19 8.29 12.15
3/21/2021 5:30:00 PM 6.7 44.06 0.071 7.18 8.43 12.15
3/21/2021 5:45:00 PM 6.66 43.988 0.071 7.18 9.63 12.14
3/21/2021 6:00:00 PM 6.6 43.88 0.071 7.17 9.38 12.11
3/21/2021 6:15:00 PM 6.52 43.736 0.071 7.16 9.83 12.1
3/21/2021 6:30:00 PM 6.42 43.556 0.071 7.14 8.54 12.05
3/21/2021 6:45:00 PM 6.33 43.394 0.071 7.12 9.53 12.04
3/21/2021 7:00:00 PM 6.22 43.196 0.071 7.11 9.24 12.01
3/21/2021 7:15:00 PM 6.11 42.998 0.071 7.08 10.71 11.97
3/21/2021 7:30:00 PM 5.99 42.782 0.071 7.05 10.29 11.93
3/21/2021 7:45:00 PM 5.88 42.584 0.071 7.04 10.01 11.93
3/21/2021 8:00:00 PM 5.77 42.386 0.071 7.02 9.47 11.93
3/21/2021 8:15:00 PM 5.65 42.17 0.071 7.01 10.37 11.93
3/21/2021 8:30:00 PM 5.52 41.936 0.071 6.99 10.3 11.95
3/21/2021 8:45:00 PM 5.4 41.72 0.071 6.99 10.21 11.96
3/21/2021 9:00:00 PM 5.28 41.504 0.071 6.98 10.25 12
3/21/2021 9:15:00 PM 5.16 41.288 0.071 6.98 10.31 12.03
3/21/2021 9:30:00 PM 5.04 41.072 0.071 6.97 9.64 12.09
3/21/2021 9:45:00 PM 4.92 40.856 0.071 6.97 9.96 12.12
3/21/2021 10:00:00 PM 4.81 40.658 0.071 6.97 10.05 12.12
3/21/2021 10:15:00 PM 4.69 40.442 0.072 6.97 9.11 12.16
3/21/2021 10:30:00 PM 4.57 40.226 0.072 6.96 9.81 12.22
3/21/2021 10:45:00 PM 4.46 40.028 0.072 6.96 9.71 12.26
3/21/2021 11:00:00 PM 4.35 39.83 0.072 6.96 10.35 12.3
3/21/2021 11:15:00 PM 4.25 39.65 0.072 6.96 9 12.34
3/21/2021 11:30:00 PM 4.15 39.47 0.072 6.96 9.38 12.38
3/21/2021 11:45:00 PM 4.06 39.308 0.072 6.96 9.49 12.38
3/22/2021 12:00:00 AM 3.97 39.146 0.072 6.96 9.15 12.43
3/22/2021 12:15:00 AM 3.87 38.966 0.072 6.96 8.37 12.47
3/22/2021 12:30:00 AM 3.78 38.804 0.072 6.96 9.14 12.5
3/22/2021 12:45:00 AM 3.69 38.642 0.072 6.96 9.16 12.53
3/22/2021 1:00:00 AM 3.61 38.498 0.072 6.96 8.52 12.57
3/22/2021 1:15:00 AM 3.53 38.354 0.072 6.96 8.05 12.57
3/22/2021 1:30:00 AM 3.44 38.192 0.072 6.96 8.11 12.62
3/22/2021 1:45:00 AM 3.37 38.066 0.073 6.96 7.96 12.66
3/22/2021 2:00:00 AM 3.29 37.922 0.073 6.96 8.49 12.68
3/22/2021 2:15:00 AM 3.21 37.778 0.073 6.97 8.34 12.7
3/22/2021 2:30:00 AM 3.14 37.652 0.073 6.96 7.85 12.73
3/22/2021 2:45:00 AM 3.07 37.526 0.073 6.97 7.32 12.75
3/22/2021 3:00:00 AM 3 37.4 0.073 6.97 7.69 12.77
3/22/2021 3:15:00 AM 2.93 37.274 0.073 6.97 7.96 12.8
3/22/2021 3:30:00 AM 2.86 37.148 0.073 6.97 7.42 12.83
3/22/2021 3:45:00 AM 2.79 37.022 0.073 6.97 7.85 12.85
3/22/2021 4:00:00 AM 2.73 36.914 0.073 6.97 7.15 12.88
3/22/2021 4:15:00 AM 2.67 36.806 0.073 6.97 7.99 12.9
3/22/2021 4:30:00 AM 2.61 36.698 0.073 6.97 7.4 12.91
3/22/2021 4:45:00 AM 2.55 36.59 0.073 6.97 7.36 12.95
3/22/2021 5:00:00 AM 2.49 36.482 0.073 6.97 7.02 12.97
3/22/2021 5:15:00 AM 2.44 36.392 0.073 6.97 7.13 12.98
3/22/2021 5:30:00 AM 2.38 36.284 0.073 6.97 7.16 13.01
3/22/2021 5:45:00 AM 2.32 36.176 0.073 6.97 7.19 13.04
3/22/2021 6:00:00 AM 2.27 36.086 0.073 6.97 6.81 13.06
3/22/2021 6:15:00 AM 2.22 35.996 0.073 6.97 7.46 13.08
3/22/2021 6:30:00 AM 2.17 35.906 0.073 6.97 7.77 13.1
3/22/2021 6:45:00 AM 2.12 35.816 0.073 6.97 6.96 13.1
3/22/2021 7:00:00 AM 2.07 35.726 0.073 6.97 6.68 13.14
3/22/2021 7:15:00 AM 2.03 35.654 0.073 6.97 6.6 13.15
3/22/2021 7:30:00 AM 1.98 35.564 0.073 6.97 6.74 13.18
3/22/2021 7:45:00 AM 1.94 35.492 0.074 6.99 6.96 13.23
3/22/2021 8:00:00 AM 1.91 35.438 0.074 6.99 6.47 13.29
3/22/2021 8:15:00 AM 1.88 35.384 0.073 7 6.44 13.35
3/22/2021 8:30:00 AM 1.86 35.348 0.073 7.01 6.33 13.39
3/22/2021 8:45:00 AM 1.85 35.33 0.073 7.02 6.49 13.43
3/22/2021 9:00:00 AM 1.85 35.33 0.073 7.03 6.19 13.49
3/22/2021 9:15:00 AM 1.87 35.366 0.073 7.05 6.24 13.52
3/22/2021 9:30:00 AM 1.91 35.438 0.073 7.06 6.28 13.56
3/22/2021 9:45:00 AM 1.98 35.564 0.073 7.07 5.98 13.58
3/22/2021 10:00:00 AM 2.06 35.708 0.073 7.08 6.07 13.6
3/22/2021 10:15:00 AM 2.17 35.906 0.073 7.1 5.94 13.6
3/22/2021 10:30:00 AM 2.3 36.14 0.073 7.11 6.12 13.59
3/22/2021 10:45:00 AM 2.44 36.392 0.073 7.13 5.96 13.58
3/22/2021 11:00:00 AM 2.61 36.698 0.073 7.14 5.7 13.54
3/22/2021 11:15:00 AM 2.81 37.058 0.073 7.15 5.91 13.49
3/22/2021 11:30:00 AM 3.04 37.472 0.073 7.15 5.63 13.43
3/22/2021 11:45:00 AM 3.31 37.958 0.072 7.17 6.11 13.37
3/22/2021 12:00:00 PM 3.57 38.426 0.072 7.18 5.92 13.32
3/22/2021 12:15:00 PM 3.89 39.002 0.072 7.19 6.28 13.24
3/22/2021 12:30:00 PM 4.17 39.506 0.072 7.19 6.16 13.16
3/22/2021 12:45:00 PM 4.52 40.136 0.072 7.2 6.11 13.05
3/22/2021 1:00:00 PM 4.8 40.64 0.072 7.22 6 12.99
3/22/2021 1:15:00 PM 5.12 41.216 0.072 7.22 6.74 12.9
3/22/2021 1:30:00 PM 5.43 41.774 0.072 7.22 6.67 12.8
3/22/2021 1:45:00 PM 5.7 42.26 0.072 7.23 6.26 12.72
3/22/2021 2:00:00 PM 5.96 42.728 0.072 7.25 6.44 12.64
3/22/2021 2:15:00 PM 6.23 43.214 0.071 7.25 6.68 12.55
3/22/2021 2:30:00 PM 6.47 43.646 0.072 7.26 6.65 12.48
3/22/2021 2:45:00 PM 6.68 44.024 0.072 7.26 7.05 12.41
3/22/2021 3:00:00 PM 6.88 44.384 0.071 7.28 7.11 12.34
3/22/2021 3:15:00 PM 7.04 44.672 0.071 7.27 6.65 12.28
3/22/2021 3:30:00 PM 7.19 44.942 0.071 7.28 6.74 12.22
3/22/2021 3:45:00 PM 7.33 45.194 0.071 7.26 7.4 12.18
3/22/2021 4:00:00 PM 7.42 45.356 0.071 7.26 7.16 12.13
3/22/2021 4:15:00 PM 7.48 45.464 0.071 7.26 7.49 12.08
3/22/2021 4:30:00 PM 7.52 45.536 0.071 7.27 7.47 12.05
3/22/2021 4:45:00 PM 7.53 45.554 0.071 7.28 7.92 12.02
3/22/2021 5:00:00 PM 7.53 45.554 0.071 7.28 8.04 11.98
3/22/2021 5:15:00 PM 7.51 45.518 0.071 7.27 8.52 11.99
3/22/2021 5:30:00 PM 7.47 45.446 0.071 7.25 8.95 11.96
3/22/2021 5:45:00 PM 7.42 45.356 0.071 7.24 8.94 11.92
3/22/2021 6:00:00 PM 7.36 45.248 0.071 7.23 8.64 11.92
3/22/2021 6:15:00 PM 7.28 45.104 0.071 7.22 8.58 11.89
3/22/2021 6:30:00 PM 7.17 44.906 0.071 7.2 9.11 11.85
3/22/2021 6:45:00 PM 7.08 44.744 0.071 7.18 8.61 11.82
3/22/2021 7:00:00 PM 6.97 44.546 0.071 7.16 9.25 11.77
3/22/2021 7:15:00 PM 6.85 44.33 0.071 7.13 9.39 11.71
3/22/2021 7:30:00 PM 6.73 44.114 0.071 7.1 10.49 11.67
3/22/2021 7:45:00 PM 6.62 43.916 0.071 7.07 9.26 11.64
3/22/2021 8:00:00 PM 6.5 43.7 0.071 7.05 10.2 11.63
3/22/2021 8:15:00 PM 6.4 43.52 0.071 7.03 9.31 11.61
3/22/2021 8:30:00 PM 6.27 43.286 0.071 7.01 9.94 11.61
3/22/2021 8:45:00 PM 6.15 43.07 0.071 7 10.95 11.65
3/22/2021 9:00:00 PM 6.03 42.854 0.071 6.99 10.06 11.68
3/22/2021 9:15:00 PM 5.91 42.638 0.071 6.99 9.93 11.7
3/22/2021 9:30:00 PM 5.79 42.422 0.071 6.98 10.75 11.74
3/22/2021 9:45:00 PM 5.68 42.224 0.071 6.98 9.8 11.77
3/22/2021 10:00:00 PM 5.55 41.99 0.071 6.98 10.02 11.81
3/22/2021 10:15:00 PM 5.44 41.792 0.071 6.98 9.72 11.85
3/22/2021 10:30:00 PM 5.32 41.576 0.072 6.98 9.4 11.89
3/22/2021 10:45:00 PM 5.22 41.396 0.071 6.97 10.37 11.93
3/22/2021 11:00:00 PM 5.11 41.198 0.071 6.97 10.32 11.96
3/22/2021 11:15:00 PM 5.01 41.018 0.071 6.97 9.57 11.99
3/22/2021 11:30:00 PM 4.91 40.838 0.071 6.97 9.52 12.03
3/22/2021 11:45:00 PM 4.8 40.64 0.071 6.97 9.36 12.07
3/23/2021 12:00:00 AM 4.71 40.478 0.071 6.98 11.06 12.1
3/23/2021 12:15:00 AM 4.61 40.298 0.071 6.97 9.49 12.13
3/23/2021 12:30:00 AM 4.51 40.118 0.071 6.97 9.45 12.15
3/23/2021 12:45:00 AM 4.43 39.974 0.071 6.98 10.11 12.19
3/23/2021 1:00:00 AM 4.33 39.794 0.071 6.98 10.07 12.23
3/23/2021 1:15:00 AM 4.25 39.65 0.071 6.97 9.4 12.25
3/23/2021 1:30:00 AM 4.16 39.488 0.071 6.98 9.19 12.28
3/23/2021 1:45:00 AM 4.08 39.344 0.071 6.98 8.36 12.32
3/23/2021 2:00:00 AM 4 39.2 0.071 6.97 8.8 12.35
3/23/2021 2:15:00 AM 3.92 39.056 0.071 6.97 8.33 12.38
3/23/2021 2:30:00 AM 3.86 38.948 0.071 6.98 8.47 12.39
3/23/2021 2:45:00 AM 3.78 38.804 0.071 6.98 7.85 12.43
3/23/2021 3:00:00 AM 3.7 38.66 0.072 6.98 8.42 12.46
3/23/2021 3:15:00 AM 3.63 38.534 0.072 6.98 7.61 12.47
3/23/2021 3:30:00 AM 3.57 38.426 0.072 6.98 8.01 12.51
3/23/2021 3:45:00 AM 3.5 38.3 0.072 6.98 7.52 12.53
3/23/2021 4:00:00 AM 3.43 38.174 0.072 6.98 7.48 12.55
3/23/2021 4:15:00 AM 3.37 38.066 0.072 6.98 7.9 12.57
3/23/2021 4:30:00 AM 3.3 37.94 0.072 6.98 8.29 12.6
3/23/2021 4:45:00 AM 3.24 37.832 0.072 6.98 7.79 12.62
3/23/2021 5:00:00 AM 3.19 37.742 0.072 6.98 7.93 12.64
3/23/2021 5:15:00 AM 3.13 37.634 0.072 6.98 7.41 12.66
3/23/2021 5:30:00 AM 3.07 37.526 0.072 6.98 7.37 12.67
3/23/2021 5:45:00 AM 3.01 37.418 0.072 6.98 7.62 12.7
3/23/2021 6:00:00 AM 2.96 37.328 0.072 6.98 6.96 12.72
3/23/2021 6:15:00 AM 2.9 37.22 0.072 6.98 7.47 12.75
3/23/2021 6:30:00 AM 2.85 37.13 0.072 6.99 6.9 12.77
3/23/2021 6:45:00 AM 2.8 37.04 0.072 6.98 7.01 12.77
3/23/2021 7:00:00 AM 2.74 36.932 0.072 6.98 7.45 12.8
3/23/2021 7:15:00 AM 2.69 36.842 0.072 6.98 6.89 12.82
3/23/2021 7:30:00 AM 2.64 36.752 0.072 6.98 7.08 12.87
3/23/2021 7:45:00 AM 2.6 36.68 0.072 7 7.01 12.92
3/23/2021 8:00:00 AM 2.56 36.608 0.073 7 7.1 12.98
3/23/2021 8:15:00 AM 2.53 36.554 0.073 7.01 6.91 13.04
3/23/2021 8:30:00 AM 2.5 36.5 0.073 7.02 6.65 13.1
3/23/2021 8:45:00 AM 2.49 36.482 0.073 7.03 6.27 13.16
3/23/2021 9:00:00 AM 2.48 36.464 0.072 7.05 6.22 13.23
3/23/2021 9:15:00 AM 2.5 36.5 0.072 7.05 6.3 13.28
3/23/2021 9:30:00 AM 2.53 36.554 0.072 7.08 6.12 13.33
3/23/2021 9:45:00 AM 2.59 36.662 0.072 7.09 6.4 13.36
3/23/2021 10:00:00 AM 2.67 36.806 0.072 7.11 6.08 13.37
3/23/2021 10:15:00 AM 2.77 36.986 0.072 7.13 6.11 13.39
3/23/2021 10:30:00 AM 2.89 37.202 0.072 7.14 6.03 13.38
3/23/2021 10:45:00 AM 3.04 37.472 0.072 7.16 6.34 13.38
3/23/2021 11:00:00 AM 3.22 37.796 0.071 7.18 6.18 13.35
3/23/2021 11:15:00 AM 3.4 38.12 0.072 7.18 6.25 13.33
3/23/2021 11:30:00 AM 3.63 38.534 0.071 7.18 6.17 13.28
3/23/2021 11:45:00 AM 3.88 38.984 0.071 7.21 5.97 13.24
3/23/2021 12:00:00 PM 4.13 39.434 0.071 7.21 5.86 13.18
3/23/2021 12:15:00 PM 4.42 39.956 0.071 7.23 6.07 13.11
3/23/2021 12:30:00 PM 4.73 40.514 0.071 7.24 5.87 13.05
3/23/2021 12:45:00 PM 5.07 41.126 0.071 7.25 5.78 12.96
3/23/2021 1:00:00 PM 5.36 41.648 0.071 7.26 6.22 12.88
3/23/2021 1:15:00 PM 5.7 42.26 0.071 7.28 6.48 12.78
3/23/2021 1:30:00 PM 5.98 42.764 0.071 7.29 6.92 12.7
3/23/2021 1:45:00 PM 6.22 43.196 0.071 7.3 6.32 12.64
3/23/2021 2:00:00 PM 6.54 43.772 0.07 7.29 6.53 12.54
3/23/2021 2:15:00 PM 6.78 44.204 0.07 7.31 6.31 12.48
3/23/2021 2:30:00 PM 7.02 44.636 0.07 7.3 6.08 12.4
3/23/2021 2:45:00 PM 7.25 45.05 0.07 7.32 6.82 12.34
3/23/2021 3:00:00 PM 7.45 45.41 0.07 7.33 6.57 12.27
3/23/2021 3:15:00 PM 7.58 45.644 0.07 7.34 6.61 12.23
3/23/2021 3:30:00 PM 7.7 45.86 0.07 7.35 6.75 12.16
3/23/2021 3:45:00 PM 7.76 45.968 0.07 7.36 6.71 12.12
3/23/2021 4:00:00 PM 7.85 46.13 0.07 7.36 7.2 12.06
3/23/2021 4:15:00 PM 7.89 46.202 0.07 7.36 7.33 12.03
3/23/2021 4:30:00 PM 7.9 46.22 0.07 7.36 7.41 12.01
3/23/2021 4:45:00 PM 7.91 46.238 0.069 7.35 7.6 11.98
3/23/2021 5:00:00 PM 7.9 46.22 0.07 7.35 7.94 11.95
3/23/2021 5:15:00 PM 7.87 46.166 0.069 7.35 7.88 11.94
3/23/2021 5:30:00 PM 7.84 46.112 0.069 7.35 7.96 11.91
3/23/2021 5:45:00 PM 7.81 46.058 0.069 7.32 7.93 11.89
3/23/2021 6:00:00 PM 7.76 45.968 0.069 7.32 8.44 11.87
3/23/2021 6:15:00 PM 7.7 45.86 0.069 7.3 8.96 11.83
3/23/2021 6:30:00 PM 7.63 45.734 0.07 7.28 8.68 11.78
3/23/2021 6:45:00 PM 7.56 45.608 0.07 7.24 9.28 11.71
3/23/2021 7:00:00 PM 7.49 45.482 0.069 7.21 9.14 11.63
3/23/2021 7:15:00 PM 7.42 45.356 0.07 7.18 9.61 11.56
3/23/2021 7:30:00 PM 7.34 45.212 0.07 7.14 9.74 11.5
3/23/2021 7:45:00 PM 7.26 45.068 0.07 7.11 9.38 11.45
3/23/2021 8:00:00 PM 7.18 44.924 0.07 7.08 9.61 11.4
3/23/2021 8:15:00 PM 7.1 44.78 0.07 7.06 10.02 11.39
3/23/2021 8:30:00 PM 7.02 44.636 0.07 7.05 10.19 11.38
3/23/2021 8:45:00 PM 6.93 44.474 0.07 7.03 10.56 11.37
3/23/2021 9:00:00 PM 6.83 44.294 0.07 7.02 10.02 11.41
3/23/2021 9:15:00 PM 6.75 44.15 0.07 7.01 10.12 11.41
3/23/2021 9:30:00 PM 6.66 43.988 0.07 7.01 10.52 11.44
3/23/2021 9:45:00 PM 6.57 43.826 0.07 7 10.07 11.44
3/23/2021 10:00:00 PM 6.49 43.682 0.07 7 9.76 11.47
3/23/2021 10:15:00 PM 6.4 43.52 0.07 7 9.95 11.51
3/23/2021 10:30:00 PM 6.31 43.358 0.07 7 10.28 11.52
3/23/2021 10:45:00 PM 6.23 43.214 0.07 6.99 9.72 11.55
3/23/2021 11:00:00 PM 6.15 43.07 0.069 6.99 9.84 11.58
3/23/2021 11:15:00 PM 6.07 42.926 0.069 6.99 9.86 11.61
3/23/2021 11:30:00 PM 6 42.8 0.069 6.99 9.94 11.61
3/23/2021 11:45:00 PM 5.92 42.656 0.069 6.99 9.5 11.64
3/24/2021 12:00:00 AM 5.84 42.512 0.069 6.98 9.25 11.67
3/24/2021 12:15:00 AM 5.77 42.386 0.069 6.99 9.77 11.7
3/24/2021 12:30:00 AM 5.7 42.26 0.069 6.99 9.93 11.72
3/24/2021 12:45:00 AM 5.63 42.134 0.069 6.98 50.15 11.75
3/24/2021 1:00:00 AM 5.58 42.044 0.069 6.99 14.09 11.74
3/24/2021 1:15:00 AM 5.52 41.936 0.069 6.99 10.31 11.77
3/24/2021 1:30:00 AM 5.48 41.864 0.069 7 10.59 11.8
3/24/2021 1:45:00 AM 5.44 41.792 0.069 7 9.3 11.81
3/24/2021 2:00:00 AM 5.41 41.738 0.069 7 9.05 11.82
3/24/2021 2:15:00 AM 5.39 41.702 0.069 7 9.65 11.83
3/24/2021 2:30:00 AM 5.35 41.63 0.07 7 9.45 11.85
3/24/2021 2:45:00 AM 5.32 41.576 0.07 7 9.23 11.84
3/24/2021 3:00:00 AM 5.28 41.504 0.069 7 9.29 11.86
3/24/2021 3:15:00 AM 5.25 41.45 0.07 7 8.77 11.87
3/24/2021 3:30:00 AM 5.21 41.378 0.07 7.01 8.96 11.89
3/24/2021 3:45:00 AM 5.18 41.324 0.07 7 9.03 11.9
3/24/2021 4:00:00 AM 5.15 41.27 0.07 7.01 8.91 11.9
3/24/2021 4:15:00 AM 5.13 41.234 0.07 7.01 8.76 11.9
3/24/2021 4:30:00 AM 5.12 41.216 0.07 7.01 8.69 11.91
3/24/2021 4:45:00 AM 5.11 41.198 0.07 7.01 9.01 11.92
3/24/2021 5:00:00 AM 5.1 41.18 0.07 7.01 8.86 11.93
3/24/2021 5:15:00 AM 5.09 41.162 0.07 7.01 8.61 11.93
3/24/2021 5:30:00 AM 5.08 41.144 0.069 7.01 8.55 11.94
3/24/2021 5:45:00 AM 5.07 41.126 0.07 7.01 8.63 11.94
3/24/2021 6:00:00 AM 5.06 41.108 0.07 7.01 8.38 11.94
3/24/2021 6:15:00 AM 5.06 41.108 0.07 7.01 8.3 11.96
3/24/2021 6:30:00 AM 5.05 41.09 0.07 7.02 8.93 11.95
3/24/2021 6:45:00 AM 5.05 41.09 0.072 7.02 9.1 11.95
3/24/2021 7:00:00 AM 5.05 41.09 0.07 7.02 8.97 11.97
3/24/2021 7:15:00 AM 5.05 41.09 0.07 7.02 8.68 11.94
3/24/2021 7:30:00 AM 5.05 41.09 0.07 7.02 8.48 11.95
3/24/2021 7:45:00 AM 5.06 41.108 0.07 7.02 8.37 11.96
3/24/2021 8:00:00 AM 5.06 41.108 0.07 7.03 9.13 12
3/24/2021 8:15:00 AM 5.07 41.126 0.07 7.03 9.36 12.01
3/24/2021 8:30:00 AM 5.08 41.144 0.07 7.04 9.86 12.05
3/24/2021 8:45:00 AM 5.09 41.162 0.07 7.05 10.31 12.07
3/24/2021 9:00:00 AM 5.1 41.18 0.07 7.06 9.61 12.14
3/24/2021 9:15:00 AM 5.12 41.216 0.07 7.07 9.56 12.18
3/24/2021 9:30:00 AM 5.15 41.27 0.07 7.09 9.67 12.2
3/24/2021 9:45:00 AM 5.17 41.306 0.07 7.1 10.08 12.24
3/24/2021 10:00:00 AM 5.2 41.36 0.069 7.11 10.4 12.26
3/24/2021 10:15:00 AM 5.22 41.396 0.069 7.12 12.47 12.28
3/24/2021 10:30:00 AM 5.26 41.468 0.069 7.13 11.14 12.28
3/24/2021 10:45:00 AM 5.3 41.54 0.069 7.15 11.03 12.3
3/24/2021 11:00:00 AM 5.35 41.63 0.069 7.17 12.6 12.34
3/24/2021 11:15:00 AM 5.42 41.756 0.068 7.18 13.63 12.37
3/24/2021 11:30:00 AM 5.49 41.882 0.068 7.21 14.49 12.4
3/24/2021 11:45:00 AM 5.56 42.008 0.068 7.23 14.62 12.4
3/24/2021 12:00:00 PM 5.63 42.134 0.068 7.25 16.87 12.42
3/24/2021 12:15:00 PM 5.7 42.26 0.068 7.27 16.29 12.42
3/24/2021 12:30:00 PM 5.78 42.404 0.068 7.28 17.86 12.42
3/24/2021 12:45:00 PM 5.86 42.548 0.068 7.3 17.97 12.41
3/24/2021 1:00:00 PM 5.94 42.692 0.067 7.31 16.68 12.39
3/24/2021 1:15:00 PM 6.02 42.836 0.067 7.32 18.51 12.38
3/24/2021 1:30:00 PM 6.12 43.016 0.067 7.33 17.66 12.36
3/24/2021 1:45:00 PM 6.19 43.142 0.067 7.34 21.01 12.33
3/24/2021 2:00:00 PM 6.26 43.268 0.068 7.34 23.9 12.28
3/24/2021 2:15:00 PM 6.34 43.412 0.067 7.34 22.73 12.25
3/24/2021 2:30:00 PM 6.42 43.556 0.068 7.33 26 12.2
3/24/2021 2:45:00 PM 6.48 43.664 0.068 7.32 25.51 12.15
3/24/2021 3:00:00 PM 6.52 43.736 0.068 7.3 25.58 12.06
3/24/2021 3:15:00 PM 6.56 43.808 0.068 7.28 23.3 12.01
3/24/2021 3:30:00 PM 6.6 43.88 0.068 7.26 31.03 11.94
3/24/2021 3:45:00 PM 6.63 43.934 0.068 7.24 29.58 11.88
3/24/2021 4:00:00 PM 6.66 43.988 0.068 7.22 29.71 11.84
3/24/2021 4:15:00 PM 6.68 44.024 0.068 7.19 43.38 11.79
3/24/2021 4:30:00 PM 6.69 44.042 0.068 7.18 30 11.74
3/24/2021 4:45:00 PM 6.7 44.06 0.069 7.16 41.53 11.71
3/24/2021 5:00:00 PM 6.72 44.096 0.069 7.15 40.92 11.69
3/24/2021 5:15:00 PM 6.73 44.114 0.069 7.14 41.45 11.66
3/24/2021 5:30:00 PM 6.74 44.132 0.069 7.13 39.92 11.63
3/24/2021 5:45:00 PM 6.74 44.132 0.07 7.12 49.87 11.62
3/24/2021 6:00:00 PM 6.75 44.15 0.07 7.12 56.62 11.62
3/24/2021 6:15:00 PM 6.75 44.15 0.07 7.1 58.37 11.6
3/24/2021 6:30:00 PM 6.75 44.15 0.07 7.1 50.33 11.6
3/24/2021 6:45:00 PM 6.74 44.132 0.07 7.09 38.87 11.59
3/24/2021 7:00:00 PM 6.73 44.114 0.07 7.08 53.26 11.57
3/24/2021 7:15:00 PM 6.73 44.114 0.071 7.08 52.17 11.56
3/24/2021 7:30:00 PM 6.72 44.096 0.071 7.07 48.35 11.55
3/24/2021 7:45:00 PM 6.72 44.096 0.071 7.07 47.47 11.55
3/24/2021 8:00:00 PM 6.71 44.078 0.07 7.06 34.17 11.52
3/24/2021 8:15:00 PM 6.7 44.06 0.07 7.06 47.37 11.54
3/24/2021 8:30:00 PM 6.69 44.042 0.07 7.05 38.63 11.53
3/24/2021 8:45:00 PM 6.67 44.006 0.07 7.05 42.27 11.53
3/24/2021 9:00:00 PM 6.66 43.988 0.07 7.04 41.17 11.53
3/24/2021 9:15:00 PM 6.64 43.952 0.07 7.04 36.47 11.51
3/24/2021 9:30:00 PM 6.63 43.934 0.07 7.04 39.23 11.54
3/24/2021 9:45:00 PM 6.62 43.916 0.07 7.04 41.35 11.53
3/24/2021 10:00:00 PM 6.62 43.916 0.069 7.04 35.14 11.54
3/24/2021 10:15:00 PM 6.61 43.898 0.07 7.04 34.14 11.55
3/24/2021 10:30:00 PM 6.6 43.88 0.069 7.04 38.24 11.54
3/24/2021 10:45:00 PM 6.6 43.88 0.069 7.04 25.92 11.54
3/24/2021 11:00:00 PM 6.59 43.862 0.069 7.04 24.11 11.54
3/24/2021 11:15:00 PM 6.58 43.844 0.069 7.03 31.35 11.53
3/24/2021 11:30:00 PM 6.58 43.844 0.07 7.04 25.13 11.53
3/24/2021 11:45:00 PM 6.57 43.826 0.07 7.04 23.97 11.53
3/25/2021 12:00:00 AM 6.57 43.826 0.07 7.04 23.46 11.53
3/25/2021 12:15:00 AM 6.56 43.808 0.07 7.03 24.52 11.53
3/25/2021 12:30:00 AM 6.56 43.808 0.07 7.03 20.86 11.53
3/25/2021 12:45:00 AM 6.56 43.808 0.07 7.03 22.54 11.53
3/25/2021 1:00:00 AM 6.55 43.79 0.07 7.03 23.39 11.54
3/25/2021 1:15:00 AM 6.54 43.772 0.07 7.03 21.32 11.53
3/25/2021 1:30:00 AM 6.54 43.772 0.071 7.03 20.76 11.54
3/25/2021 1:45:00 AM 6.53 43.754 0.07 7.03 20.51 11.54
3/25/2021 2:00:00 AM 6.52 43.736 0.071 7.03 20.01 11.54
3/25/2021 2:15:00 AM 6.51 43.718 0.071 7.03 21.53 11.53
3/25/2021 2:30:00 AM 6.5 43.7 0.071 7.02 24.08 11.54
3/25/2021 2:45:00 AM 6.5 43.7 0.071 7.03 19.46 11.54
3/25/2021 3:00:00 AM 6.5 43.7 0.071 7.03 19.31 11.55
3/25/2021 3:15:00 AM 6.49 43.682 0.071 7.02 24.76 11.52
3/25/2021 3:30:00 AM 6.48 43.664 0.071 7.02 19.65 11.55
3/25/2021 3:45:00 AM 6.48 43.664 0.071 7.02 19.99 11.55
3/25/2021 4:00:00 AM 6.48 43.664 0.071 7.02 19.25 11.55
3/25/2021 4:15:00 AM 6.47 43.646 0.071 7.02 19.07 11.55
3/25/2021 4:30:00 AM 6.46 43.628 0.071 7.02 19.71 11.55
3/25/2021 4:45:00 AM 6.46 43.628 0.071 7.02 18.61 11.56
3/25/2021 5:00:00 AM 6.45 43.61 0.071 7.02 17.6 11.56
3/25/2021 5:15:00 AM 6.44 43.592 0.071 7.02 18.66 11.52
3/25/2021 5:30:00 AM 6.44 43.592 0.071 7.02 52.59 11.55
3/25/2021 5:45:00 AM 6.43 43.574 0.071 7.01 56.7 11.54
3/25/2021 6:00:00 AM 6.43 43.574 0.071 7.01 26.9 11.55
3/25/2021 6:15:00 AM 6.42 43.556 0.071 7.02 24.4 11.57
3/25/2021 6:30:00 AM 6.41 43.538 0.071 7 20.2 11.56
3/25/2021 6:45:00 AM 6.4 43.52 0.071 7.01 30.6 11.52
3/25/2021 7:00:00 AM 6.39 43.502 0.071 7 32.28 11.56
3/25/2021 7:15:00 AM 6.4 43.52 0.07 7 37.05 11.59
3/25/2021 7:30:00 AM 6.4 43.52 0.07 7.01 18.1 11.55
3/25/2021 7:45:00 AM 6.41 43.538 0.071 7.02 19.25 11.53
3/25/2021 8:00:00 AM 6.4 43.52 0.07 7.02 21.29 11.6
3/25/2021 8:15:00 AM 6.41 43.538 0.07 7.04 23 11.62
3/25/2021 8:30:00 AM 6.44 43.592 0.071 7.05 20.16 11.72
3/25/2021 8:45:00 AM 6.47 43.646 0.07 7.08 18.91 11.77
3/25/2021 9:00:00 AM 6.5 43.7 0.07 7.1 17.17 11.8
3/25/2021 9:15:00 AM 6.54 43.772 0.07 7.12 18.74 11.87
3/25/2021 9:30:00 AM 6.59 43.862 0.07 7.14 16.92 11.9
3/25/2021 9:45:00 AM 6.64 43.952 0.07 7.16 16.14 11.88
3/25/2021 10:00:00 AM 6.7 44.06 0.07 7.18 16.36 11.9
3/25/2021 10:15:00 AM 6.8 44.24 0.07 7.21 16.92 11.92
3/25/2021 10:30:00 AM 6.91 44.438 0.069 7.24 15.49 11.95
3/25/2021 10:45:00 AM 7.05 44.69 0.069 7.27 15.22 11.96
3/25/2021 11:00:00 AM 7.15 44.87 0.069 7.28 17.26 12
3/25/2021 11:15:00 AM 7.31 45.158 0.069 7.29 17.97 11.93
3/25/2021 11:30:00 AM 7.46 45.428 0.069 7.32 16.11 11.9
3/25/2021 11:45:00 AM 7.69 45.842 0.069 7.35 15.92 11.89
3/25/2021 12:00:00 PM 7.86 46.148 0.069 7.35 15.52 11.86
3/25/2021 12:15:00 PM 8.02 46.436 0.069 7.37 14.91 11.82
3/25/2021 12:30:00 PM 8.27 46.886 0.069 7.39 14.29 11.81
3/25/2021 12:45:00 PM 8.52 47.336 0.069 7.4 14.55 11.72
3/25/2021 1:00:00 PM 8.78 47.804 0.068 7.41 14.23 11.65
3/25/2021 1:15:00 PM 9.01 48.218 0.068 7.42 14.07 11.62
3/25/2021 1:30:00 PM 9.26 48.668 0.068 7.43 15.7 11.57
3/25/2021 1:45:00 PM 9.48 49.064 0.068 7.45 14.76 11.52
3/25/2021 2:00:00 PM 9.69 49.442 0.068 7.46 14.75 11.48
3/25/2021 2:15:00 PM 9.9 49.82 0.068 7.46 15.58 11.4
3/25/2021 2:30:00 PM 10.1 50.18 0.068 7.48 14.95 11.37
3/25/2021 2:45:00 PM 10.29 50.522 0.068 7.49 15.51 11.34
3/25/2021 3:00:00 PM 10.46 50.828 0.068 7.5 15.16 11.3
3/25/2021 3:15:00 PM 10.61 51.098 0.067 7.5 15.27 11.2
3/25/2021 3:30:00 PM 10.73 51.314 0.067 7.52 17.03 11.19
3/25/2021 3:45:00 PM 10.82 51.476 0.067 7.52 15.73 11.18
3/25/2021 4:00:00 PM 10.87 51.566 0.067 7.51 15.38 11.09
3/25/2021 4:15:00 PM 10.88 51.584 0.067 7.49 14.01 11.04
3/25/2021 4:30:00 PM 10.88 51.584 0.067 7.48 14.52 11.03
3/25/2021 4:45:00 PM 10.87 51.566 0.067 7.46 15.24 11
3/25/2021 5:00:00 PM 10.86 51.548 0.067 7.45 14.62 10.96
3/25/2021 5:15:00 PM 10.84 51.512 0.067 7.42 14.63 10.93
3/25/2021 5:30:00 PM 10.81 51.458 0.067 7.4 14.68 10.87
3/25/2021 5:45:00 PM 10.76 51.368 0.067 7.35 15.07 10.82
3/25/2021 6:00:00 PM 10.72 51.296 0.067 7.32 15.52 10.77
3/25/2021 6:15:00 PM 10.67 51.206 0.067 7.29 15.43 10.73
3/25/2021 6:30:00 PM 10.61 51.098 0.068 7.26 15.3 10.7
3/25/2021 6:45:00 PM 10.54 50.972 0.068 7.22 15.14 10.64
3/25/2021 7:00:00 PM 10.46 50.828 0.068 7.19 15.08 10.57
3/25/2021 7:15:00 PM 10.37 50.666 0.068 7.16 17.86 10.49
3/25/2021 7:30:00 PM 10.28 50.504 0.068 7.12 16.49 9.98
3/25/2021 7:45:00 PM 10.18 50.324 0.068 7.09 16.47 10.4
3/25/2021 8:00:00 PM 10.09 50.162 0.068 7.07 16.28 10.4
3/25/2021 8:15:00 PM 9.99 49.982 0.069 7.04 14.92 10.39
3/25/2021 8:30:00 PM 9.9 49.82 0.069 7.02 15.09 10.39
3/25/2021 8:45:00 PM 9.8 49.64 0.069 7.01 17.7 10.43
3/25/2021 9:00:00 PM 9.71 49.478 0.069 7 16.32 10.44
3/25/2021 9:15:00 PM 9.63 49.334 0.069 6.99 14.82 10.44
3/25/2021 9:30:00 PM 9.55 49.19 0.069 6.99 18.02 10.52
3/25/2021 9:45:00 PM 9.49 49.082 0.069 6.99 15.7 10.47
3/25/2021 10:00:00 PM 9.45 49.01 0.069 6.99 15.37 10.46
3/25/2021 10:15:00 PM 9.41 48.938 0.069 7 15.26 10.48
3/25/2021 10:30:00 PM 9.37 48.866 0.069 7 13.99 10.48
3/25/2021 10:45:00 PM 9.32 48.776 0.069 7 15.22 10.49
3/25/2021 11:00:00 PM 9.28 48.704 0.069 7 14.61 10.5
3/25/2021 11:15:00 PM 9.25 48.65 0.069 7.01 14.27 10.5
3/25/2021 11:30:00 PM 9.22 48.596 0.069 7.01 14.33 10.52
3/25/2021 11:45:00 PM 9.19 48.542 0.069 7.01 13.43 10.49
3/26/2021 12:00:00 AM 9.17 48.506 0.069 7.01 13.83 10.5
3/26/2021 12:15:00 AM 9.14 48.452 0.069 7.01 14.93 10.57
3/26/2021 12:30:00 AM 9.12 48.416 0.069 7.01 16.5 10.62
3/26/2021 12:45:00 AM 9.09 48.362 0.069 7.01 17.2 10.5
3/26/2021 1:00:00 AM 9.06 48.308 0.068 7 16.29 10.54
3/26/2021 1:15:00 AM 9.05 48.29 0.069 7.01 15.73 10.54
3/26/2021 1:30:00 AM 9.04 48.272 0.069 7.01 17.22 10.6
3/26/2021 1:45:00 AM 9.01 48.218 0.069 7.01 16.58 10.58
3/26/2021 2:00:00 AM 8.98 48.164 0.069 7.01 15.6 10.58
3/26/2021 2:15:00 AM 8.96 48.128 0.068 7.01 14.57 10.6
3/26/2021 2:30:00 AM 8.94 48.092 0.069 7.01 15.72 10.59
3/26/2021 2:45:00 AM 8.92 48.056 0.068 7.01 15.22 10.62
3/26/2021 3:00:00 AM 8.9 48.02 0.068 7.01 15.76 10.63
3/26/2021 3:15:00 AM 8.88 47.984 0.068 7 43.41 10.7
3/26/2021 3:30:00 AM 8.86 47.948 0.068 7.01 18.5 10.62
3/26/2021 3:45:00 AM 8.84 47.912 0.068 7 17.51 10.59
3/26/2021 4:00:00 AM 8.83 47.894 0.068 7.01 15.84 10.65
3/26/2021 4:15:00 AM 8.83 47.894 0.068 7.01 17.18 10.71
3/26/2021 4:30:00 AM 8.83 47.894 0.068 6.99 25.35 10.66
3/26/2021 4:45:00 AM 8.82 47.876 0.068 7 20.9 10.62
3/26/2021 5:00:00 AM 8.81 47.858 0.068 7.01 15.55 10.62
3/26/2021 5:15:00 AM 8.81 47.858 0.068 7 15.37 10.66
3/26/2021 5:30:00 AM 8.8 47.84 0.068 7.01 14.58 10.35
3/26/2021 5:45:00 AM 8.79 47.822 0.068 7.02 14.46 10.65
3/26/2021 6:00:00 AM 8.79 47.822 0.068 7.02 13.98 10.56
3/26/2021 6:15:00 AM 8.78 47.804 0.068 7.02 17.39 10.62
3/26/2021 6:30:00 AM 8.78 47.804 0.068 7.02 12.95 10.59
3/26/2021 6:45:00 AM 8.79 47.822 0.068 7.02 12.64 10.54
3/26/2021 7:00:00 AM 8.8 47.84 0.068 7.02 12.55 10.55
3/26/2021 7:15:00 AM 8.81 47.858 0.068 7.02 12.72 10.54
3/26/2021 7:30:00 AM 8.82 47.876 0.068 7.02 12.33 10.56
3/26/2021 7:45:00 AM 8.84 47.912 0.068 7.03 13.17 10.58
3/26/2021 8:00:00 AM 8.86 47.948 0.068 7.04 13.44 10.56
3/26/2021 8:15:00 AM 8.87 47.966 0.068 7.05 11.82 10.61
3/26/2021 8:30:00 AM 8.89 48.002 0.068 7.07 11.95 10.66
3/26/2021 8:45:00 AM 8.93 48.074 0.068 7.11 11.76 10.79
3/26/2021 9:00:00 AM 8.96 48.128 0.068 7.13 11.63 10.84
3/26/2021 9:15:00 AM 9.01 48.218 0.068 7.16 12.24 10.91
3/26/2021 9:30:00 AM 9.07 48.326 0.068 7.19 12.16 10.98
3/26/2021 9:45:00 AM 9.15 48.47 0.068 7.21 11.55 10.98
3/26/2021 10:00:00 AM 9.23 48.614 0.068 7.24 11.67 11.05
3/26/2021 10:15:00 AM 9.35 48.83 0.067 7.26 11.52 11.02
3/26/2021 10:30:00 AM 9.5 49.1 0.067 7.29 11.76 11.09
3/26/2021 10:45:00 AM 9.59 49.262 0.067 7.32 11.29 11.1
3/26/2021 11:00:00 AM 9.76 49.568 0.067 7.32 11.33 11.03
3/26/2021 11:15:00 AM 9.87 49.766 0.067 7.35 10.93 11.1
3/26/2021 11:30:00 AM 10.02 50.036 0.067 7.36 11.37 11.07
3/26/2021 11:45:00 AM 10.19 50.342 0.067 7.38 12.76 11.03
3/26/2021 12:00:00 PM 10.3 50.54 0.067 7.38 12.21 10.96
3/26/2021 12:15:00 PM 10.44 50.792 0.068 7.42 12.2 10.86
3/26/2021 12:30:00 PM 10.55 50.99 0.067 7.41 11.49 10.82
3/26/2021 12:45:00 PM 10.63 51.134 0.067 7.44 11.26 10.88
3/26/2021 1:00:00 PM 10.75 51.35 0.067 7.41 11.12 10.88
3/26/2021 1:15:00 PM 10.79 51.422 0.067 7.39 13.36 10.83
3/26/2021 1:30:00 PM 10.8 51.44 0.067 7.42 10.53 10.76
3/26/2021 1:45:00 PM 10.82 51.476 0.068 7.41 12.13 10.8
3/26/2021 2:00:00 PM 10.87 51.566 0.068 7.4 11 10.81
3/26/2021 2:15:00 PM 10.9 51.62 0.068 7.42 10.57 10.71
3/26/2021 2:30:00 PM 10.9 51.62 0.068 7.4 10.58 10.77
3/26/2021 2:45:00 PM 10.93 51.674 0.068 7.42 10.89 10.75
3/26/2021 3:00:00 PM 10.94 51.692 0.068 7.45 10.87 10.81
3/26/2021 3:15:00 PM 10.9 51.62 0.068 7.39 10.62 10.81
3/26/2021 3:30:00 PM 10.85 51.53 0.068 7.38 10.31 10.83
3/26/2021 3:45:00 PM 10.79 51.422 0.068 7.35 9.67 10.65
3/26/2021 4:00:00 PM 10.75 51.35 0.068 7.35 9.85 10.66
3/26/2021 4:15:00 PM 10.75 51.35 0.068 7.37 9.57 10.71
3/26/2021 4:30:00 PM 10.72 51.296 0.068 7.38 9.43 10.75
3/26/2021 4:45:00 PM 10.65 51.17 0.068 7.34 9.15 10.76
3/26/2021 5:00:00 PM 10.61 51.098 0.068 7.35 9.02 10.75
3/26/2021 5:15:00 PM 10.57 51.026 0.068 7.34 8.9 10.78
3/26/2021 5:30:00 PM 10.5 50.9 0.068 7.37 9.04 10.79
3/26/2021 5:45:00 PM 10.42 50.756 0.068 7.34 8.82 10.78
3/26/2021 6:00:00 PM 10.32 50.576 0.068 7.28 8.8 10.67
3/26/2021 6:15:00 PM 10.23 50.414 0.068 7.26 9.31 10.69
3/26/2021 6:30:00 PM 10.14 50.252 0.068 7.25 8.66 10.68
3/26/2021 6:45:00 PM 10.05 50.09 0.068 7.23 11.42 10.69
3/26/2021 7:00:00 PM 9.97 49.946 0.068 7.19 9.3 10.64
3/26/2021 7:15:00 PM 9.87 49.766 0.068 7.16 9.58 10.56
3/26/2021 7:30:00 PM 9.78 49.604 0.068 7.13 9.09 10.49
3/26/2021 7:45:00 PM 9.68 49.424 0.068 7.1 11.63 10.52
3/26/2021 8:00:00 PM 9.6 49.28 0.068 7.08 9.4 10.44
3/26/2021 8:15:00 PM 9.5 49.1 0.068 7.07 9.16 10.46
3/26/2021 8:30:00 PM 9.41 48.938 0.068 7.06 8.66 10.46
3/26/2021 8:45:00 PM 9.32 48.776 0.068 7.04 8.58 10.47
3/26/2021 9:00:00 PM 9.23 48.614 0.068 7.05 17.29 10.47
3/26/2021 9:15:00 PM 9.16 48.488 0.068 7.03 9.29 10.54
3/26/2021 9:30:00 PM 9.09 48.362 0.068 7.03 8.94 10.52
3/26/2021 9:45:00 PM 9.02 48.236 0.068 7.02 8.66 10.54
3/26/2021 10:00:00 PM 8.93 48.074 0.068 7.03 13.73 10.67
3/26/2021 10:15:00 PM 8.89 48.002 0.068 7.02 9.36 10.6
3/26/2021 10:30:00 PM 8.81 47.858 0.068 7.03 13.79 10.72
3/26/2021 10:45:00 PM 8.75 47.75 0.068 7.02 15.29 10.69
3/26/2021 11:00:00 PM 8.7 47.66 0.068 7.02 8.61 10.65
3/26/2021 11:15:00 PM 8.64 47.552 0.068 7.01 9.58 10.73
3/26/2021 11:30:00 PM 8.59 47.462 0.068 7.01 9.22 10.68
3/26/2021 11:45:00 PM 8.54 47.372 0.068 7.01 8.6 10.68
3/27/2021 12:00:00 AM 8.49 47.282 0.068 7.01 8.2 10.68
3/27/2021 12:15:00 AM 8.43 47.174 0.068 7.01 8.01 10.74
3/27/2021 12:30:00 AM 8.37 47.066 0.068 7.01 9.67 10.78
3/27/2021 12:45:00 AM 8.29 46.922 0.068 7.02 8.69 10.78
3/27/2021 1:00:00 AM 8.24 46.832 0.069 7 8.94 10.76
3/27/2021 1:15:00 AM 8.19 46.742 0.069 7 10.47 10.73
3/27/2021 1:30:00 AM 8.12 46.616 0.069 7.02 12.05 10.78
3/27/2021 1:45:00 AM 8.06 46.508 0.069 7.02 8.69 10.8
3/27/2021 2:00:00 AM 7.99 46.382 0.069 7.01 9.71 10.86
3/27/2021 2:15:00 AM 7.91 46.238 0.069 7.02 8.83 10.9
3/27/2021 2:30:00 AM 7.83 46.094 0.069 7.01 7.76 10.89
3/27/2021 2:45:00 AM 7.76 45.968 0.069 7.02 8.38 10.95
3/27/2021 3:00:00 AM 7.68 45.824 0.069 7.01 7.8 10.92
3/27/2021 3:15:00 AM 7.57 45.626 0.069 7.01 21.82 11.06
3/27/2021 3:30:00 AM 7.52 45.536 0.069 7.01 10.14 10.97
3/27/2021 3:45:00 AM 7.47 45.446 0.069 7.01 11.18 11.02
3/27/2021 4:00:00 AM 7.42 45.356 0.069 7.01 7.82 10.96
3/27/2021 4:15:00 AM 7.37 45.266 0.069 7.01 8.84 10.99
3/27/2021 4:30:00 AM 7.32 45.176 0.069 7.01 9.05 10.97
3/27/2021 4:45:00 AM 7.27 45.086 0.069 7.01 7.65 11.03
3/27/2021 5:00:00 AM 7.23 45.014 0.069 7.01 7.14 11.07
3/27/2021 5:15:00 AM 7.19 44.942 0.069 7.01 7.23 11.06
3/27/2021 5:30:00 AM 7.16 44.888 0.069 7.01 7.97 11.07
3/27/2021 5:45:00 AM 7.13 44.834 0.07 7.01 7.48 11.09
3/27/2021 6:00:00 AM 7.1 44.78 0.07 7.02 6.76 11.08
3/27/2021 6:15:00 AM 7.08 44.744 0.07 7.02 6.92 11.1
3/27/2021 6:30:00 AM 7.06 44.708 0.07 7.02 7.17 11.11
3/27/2021 6:45:00 AM 7.04 44.672 0.07 7.02 10.18 11.16
3/27/2021 7:00:00 AM 7.02 44.636 0.07 7.03 7.37 11.12
3/27/2021 7:15:00 AM 7.01 44.618 0.07 7.03 8.96 11.2
3/27/2021 7:30:00 AM 6.99 44.582 0.07 7.03 7.41 11.13
3/27/2021 7:45:00 AM 6.98 44.564 0.07 7.04 7.11 11.23
3/27/2021 8:00:00 AM 6.97 44.546 0.07 7.04 6.88 11.3
3/27/2021 8:15:00 AM 6.96 44.528 0.07 7.06 6.62 11.36
3/27/2021 8:30:00 AM 6.96 44.528 0.07 7.07 6.31 11.41
3/27/2021 8:45:00 AM 6.96 44.528 0.07 7.09 6.4 11.42
3/27/2021 9:00:00 AM 6.97 44.546 0.07 7.1 6.07 11.54
3/27/2021 9:15:00 AM 6.98 44.564 0.07 7.13 6.15 11.66
3/27/2021 9:30:00 AM 6.99 44.582 0.07 7.15 5.78 11.7
3/27/2021 9:45:00 AM 7.01 44.618 0.07 7.18 5.97 11.81
3/27/2021 10:00:00 AM 7.04 44.672 0.069 7.2 5.83 11.82
3/27/2021 10:15:00 AM 7.06 44.708 0.069 7.23 5.69 11.84
3/27/2021 10:30:00 AM 7.09 44.762 0.069 7.24 5.66 11.87
3/27/2021 10:45:00 AM 7.13 44.834 0.069 7.27 5.61 11.92
3/27/2021 11:00:00 AM 7.21 44.978 0.069 7.3 5.82 11.97
3/27/2021 11:15:00 AM 7.32 45.176 0.069 7.35 5.61 12.05
3/27/2021 11:30:00 AM 7.41 45.338 0.069 7.36 5.75 12.1
3/27/2021 11:45:00 AM 7.52 45.536 0.069 7.39 5.62 12.13
3/27/2021 12:00:00 PM 7.64 45.752 0.069 7.42 5.62 12.16
3/27/2021 12:15:00 PM 7.76 45.968 0.069 7.44 5.43 12.15
3/27/2021 12:30:00 PM 7.95 46.31 0.069 7.48 5.6 12.13
3/27/2021 12:45:00 PM 8.12 46.616 0.069 7.5 5.47 12.08
3/27/2021 1:00:00 PM 8.29 46.922 0.069 7.5 5.6 12.08
3/27/2021 1:15:00 PM 8.51 47.318 0.068 7.51 5.48 11.98
3/27/2021 1:30:00 PM 8.66 47.588 0.068 7.51 5.49 11.96
3/27/2021 1:45:00 PM 8.85 47.93 0.068 7.52 5.41 11.87
3/27/2021 2:00:00 PM 9.02 48.236 0.068 7.53 5.48 11.83
3/27/2021 2:15:00 PM 9.13 48.434 0.068 7.54 5.47 11.79
3/27/2021 2:30:00 PM 9.28 48.704 0.068 7.51 9.46 11.79
3/27/2021 2:45:00 PM 9.49 49.082 0.068 7.55 6.11 11.66
3/27/2021 3:00:00 PM 9.79 49.622 0.068 7.6 5.89 11.62
3/27/2021 3:15:00 PM 10.05 50.09 0.068 7.54 5.68 11.54
3/27/2021 3:30:00 PM 10.2 50.36 0.068 7.63 5.86 11.52
3/27/2021 3:45:00 PM 10.34 50.612 0.068 7.61 8.07 11.44
3/27/2021 4:00:00 PM 10.41 50.738 0.068 7.59 7.01 11.46
3/27/2021 4:15:00 PM 10.44 50.792 0.068 7.6 6.84 11.42
3/27/2021 4:30:00 PM 10.44 50.792 0.068 7.6 5.71 11.29
3/27/2021 4:45:00 PM 10.43 50.774 0.068 7.63 5.71 11.3
3/27/2021 5:00:00 PM 10.4 50.72 0.068 7.61 6.45 11.31
3/27/2021 5:15:00 PM 10.36 50.648 0.068 7.59 6.44 11.26
3/27/2021 5:30:00 PM 10.31 50.558 0.068 7.58 6.26 11.26
3/27/2021 5:45:00 PM 10.26 50.468 0.068 7.59 6.18 11.13
3/27/2021 6:00:00 PM 10.23 50.414 0.068 7.56 5.79 11.14
3/27/2021 6:15:00 PM 10.18 50.324 0.068 7.49 5.93 11.13
3/27/2021 6:30:00 PM 10.13 50.234 0.068 7.47 5.67 11.11
3/27/2021 6:45:00 PM 10.07 50.126 0.068 7.42 5.68 11.07
3/27/2021 7:00:00 PM 10.01 50.018 0.068 7.36 5.69 10.99
3/27/2021 7:15:00 PM 9.93 49.874 0.069 7.33 12.45 10.97
3/27/2021 7:30:00 PM 9.85 49.73 0.069 7.27 6.28 10.81
3/27/2021 7:45:00 PM 9.75 49.55 0.069 7.19 6.45 10.72
3/27/2021 8:00:00 PM 9.68 49.424 0.069 7.18 6.37 10.63
3/27/2021 8:15:00 PM 9.59 49.262 0.07 7.13 13.53 10.61
3/27/2021 8:30:00 PM 9.54 49.172 0.07 7.11 7.01 10.5
3/27/2021 8:45:00 PM 9.47 49.046 0.07 7.09 6.15 10.45
3/27/2021 9:00:00 PM 9.39 48.902 0.07 7.06 6.15 10.42
3/27/2021 9:15:00 PM 9.31 48.758 0.07 7.05 6.19 10.45
3/27/2021 9:30:00 PM 9.2 48.56 0.07 7.04 8.08 10.52
3/27/2021 9:45:00 PM 9.13 48.434 0.071 7.03 6.3 10.48
3/27/2021 10:00:00 PM 9.04 48.272 0.071 7.02 6.04 10.48
3/27/2021 10:15:00 PM 8.93 48.074 0.071 7.01 9.92 10.55
3/27/2021 10:30:00 PM 8.87 47.966 0.071 7.02 6.34 10.5
3/27/2021 10:45:00 PM 8.77 47.786 0.071 7.01 6.73 10.65
3/27/2021 11:00:00 PM 8.7 47.66 0.072 7.01 6.14 10.55
3/27/2021 11:15:00 PM 8.62 47.516 0.072 7.01 5.98 10.58
3/27/2021 11:30:00 PM 8.54 47.372 0.072 7 5.95 10.63
3/27/2021 11:45:00 PM 8.46 47.228 0.072 7.01 5.97 10.69
3/28/2021 12:00:00 AM 8.36 47.048 0.072 7.01 13.3 10.68
3/28/2021 12:15:00 AM 8.29 46.922 0.072 7.01 12.01 10.78
3/28/2021 12:30:00 AM 8.23 46.814 0.072 7.01 8.3 10.77
3/28/2021 12:45:00 AM 8.16 46.688 0.072 7.01 6.43 10.82
3/28/2021 1:00:00 AM 8.09 46.562 0.072 7.01 6.93 10.83
3/28/2021 1:15:00 AM 8.04 46.472 0.073 7.02 6.61 10.82
3/28/2021 1:30:00 AM 8 46.4 0.072 7.03 6.78 10.83
3/28/2021 1:45:00 AM 7.95 46.31 0.073 7.02 6.91 10.85
3/28/2021 2:00:00 AM 7.91 46.238 0.073 7 5.98 10.8
3/28/2021 2:15:00 AM 7.86 46.148 0.073 7.03 5.78 10.82
3/28/2021 2:30:00 AM 7.81 46.058 0.073 7.04 5.99 10.93
3/28/2021 2:45:00 AM 7.77 45.986 0.073 7.04 5.99 10.95
3/28/2021 3:00:00 AM 7.73 45.914 0.073 7.03 5.86 10.87
3/28/2021 3:15:00 AM 7.69 45.842 0.073 7.02 5.79 10.94
3/28/2021 3:30:00 AM 7.64 45.752 0.073 7.04 6.6 10.92
3/28/2021 3:45:00 AM 7.6 45.68 0.073 7.03 6.46 10.87
3/28/2021 4:00:00 AM 7.56 45.608 0.073 7.02 6.26 10.95
3/28/2021 4:15:00 AM 7.52 45.536 0.073 7.01 5.92 10.92
3/28/2021 4:30:00 AM 7.47 45.446 0.073 7.02 5.82 10.88
3/28/2021 4:45:00 AM 7.43 45.374 0.073 7.01 5.84 10.9
3/28/2021 5:00:00 AM 7.4 45.32 0.073 7.02 5.61 10.93
3/28/2021 5:15:00 AM 7.37 45.266 0.073 7.02 5.58 10.93
3/28/2021 5:30:00 AM 7.36 45.248 0.073 7.02 5.65 10.93
3/28/2021 5:45:00 AM 7.34 45.212 0.073 7.02 6.24 10.9
3/28/2021 6:00:00 AM 7.34 45.212 0.073 7.02 5.75 10.95
3/28/2021 6:15:00 AM 7.34 45.212 0.073 7.02 6.04 10.98
3/28/2021 6:30:00 AM 7.36 45.248 0.073 7.03 5.72 10.93
3/28/2021 6:45:00 AM 7.37 45.266 0.073 7.03 5.83 10.93
3/28/2021 7:00:00 AM 7.39 45.302 0.073 7.03 6.9 10.93
3/28/2021 7:15:00 AM 7.42 45.356 0.073 7.03 6.4 10.91
3/28/2021 7:30:00 AM 7.44 45.392 0.073 7.04 5.88 10.83
3/28/2021 7:45:00 AM 7.46 45.428 0.073 7.03 5.76 10.8
3/28/2021 8:00:00 AM 7.48 45.464 0.073 7.05 5.72 10.86
3/28/2021 8:15:00 AM 7.5 45.5 0.073 7.05 5.47 10.91
3/28/2021 8:30:00 AM 7.52 45.536 0.073 7.06 5.28 10.91
3/28/2021 8:45:00 AM 7.54 45.572 0.073 7.06 5.24 10.89
3/28/2021 9:00:00 AM 7.57 45.626 0.073 7.07 5.3 10.93
3/28/2021 9:15:00 AM 7.59 45.662 0.073 7.06 6.83 11.01
3/28/2021 9:30:00 AM 7.62 45.716 0.073 7.09 5.8 11.07
3/28/2021 9:45:00 AM 7.65 45.77 0.073 7.1 5.47 11.11
3/28/2021 10:00:00 AM 7.68 45.824 0.073 7.13 5.54 11.17
3/28/2021 10:15:00 AM 7.71 45.878 0.072 7.14 5.83 11.19
3/28/2021 10:30:00 AM 7.74 45.932 0.072 7.18 6.12 11.24
3/28/2021 10:45:00 AM 7.77 45.986 0.072 7.18 5.8 11.34
3/28/2021 11:00:00 AM 7.81 46.058 0.072 7.19 5.74 11.39
3/28/2021 11:15:00 AM 7.85 46.13 0.072 7.23 6.45 11.39
3/28/2021 11:30:00 AM 7.89 46.202 0.072 7.24 6.64 11.41
3/28/2021 11:45:00 AM 7.93 46.274 0.071 7.28 6.35 11.47
3/28/2021 12:00:00 PM 7.97 46.346 0.071 7.29 6.03 11.49
3/28/2021 12:15:00 PM 8.01 46.418 0.071 7.31 6.06 11.49
3/28/2021 12:30:00 PM 8.04 46.472 0.071 7.31 5.6 11.5
3/28/2021 12:45:00 PM 8.11 46.598 0.071 7.35 5.64 11.5
3/28/2021 1:00:00 PM 8.2 46.76 0.071 7.4 5.43 11.57
3/28/2021 1:15:00 PM 8.24 46.832 0.071 7.39 5.54 11.59
3/28/2021 1:30:00 PM 8.27 46.886 0.071 7.39 5.63 11.52
3/28/2021 1:45:00 PM 8.31 46.958 0.071 7.38 5.53 11.45
3/28/2021 2:00:00 PM 8.35 47.03 0.071 7.38 5.66 11.41
3/28/2021 2:15:00 PM 8.4 47.12 0.071 7.4 5.44 11.41
3/28/2021 2:30:00 PM 8.45 47.21 0.071 7.39 5.63 11.4
3/28/2021 2:45:00 PM 8.49 47.282 0.071 7.43 5.51 11.36
3/28/2021 3:00:00 PM 8.53 47.354 0.071 7.44 5.5 11.39
3/28/2021 3:15:00 PM 8.58 47.444 0.071 7.45 5.67 11.42
3/28/2021 3:30:00 PM 8.66 47.588 0.071 7.48 5.41 11.45
3/28/2021 3:45:00 PM 8.75 47.75 0.071 7.51 5.61 11.52
3/28/2021 4:00:00 PM 8.82 47.876 0.071 7.52 5.79 11.51
3/28/2021 4:15:00 PM 8.85 47.93 0.071 7.51 5.47 11.45
3/28/2021 4:30:00 PM 8.86 47.948 0.071 7.47 6.1 11.35
3/28/2021 4:45:00 PM 8.87 47.966 0.071 7.43 5.51 11.19
3/28/2021 5:00:00 PM 8.87 47.966 0.071 7.37 5.46 11.07
3/28/2021 5:15:00 PM 8.89 48.002 0.07 7.33 5.44 10.97
3/28/2021 5:30:00 PM 8.88 47.984 0.07 7.29 8.05 10.9
3/28/2021 5:45:00 PM 8.86 47.948 0.071 7.25 21.36 10.86
3/28/2021 6:00:00 PM 8.85 47.93 0.071 7.22 17.24 10.76
3/28/2021 6:15:00 PM 8.84 47.912 0.07 7.22 19 10.82
3/28/2021 6:30:00 PM 8.83 47.894 0.07 7.2 33.11 10.75
3/28/2021 6:45:00 PM 8.81 47.858 0.07 7.18 27.12 10.7
3/28/2021 7:00:00 PM 8.79 47.822 0.071 7.17 29 10.66
3/28/2021 7:15:00 PM 8.75 47.75 0.071 7.17 32.62 10.69
3/28/2021 7:30:00 PM 8.7 47.66 0.072 7.15 36.45 10.66
3/28/2021 7:45:00 PM 8.66 47.588 0.073 7.15 46.89 10.65
3/28/2021 8:00:00 PM 8.62 47.516 0.073 7.15 35.52 10.66
3/28/2021 8:15:00 PM 8.6 47.48 0.073 7.15 42.65 10.67
3/28/2021 8:30:00 PM 8.55 47.39 0.072 7.15 46.83 10.68
3/28/2021 8:45:00 PM 8.48 47.264 0.072 7.13 41.43 10.73
3/28/2021 9:00:00 PM 8.42 47.156 0.072 7.13 40.3 10.73
3/28/2021 9:15:00 PM 8.34 47.012 0.072 7.13 41 10.75
3/28/2021 9:30:00 PM 8.24 46.832 0.072 7.11 245.06 10.78
3/28/2021 9:45:00 PM 8.2 46.76 0.073 7.12 33.96 10.78
3/28/2021 10:00:00 PM 8.13 46.634 0.073 7.11 35.98 10.81
3/28/2021 10:15:00 PM 8.05 46.49 0.073 7.1 31.35 10.84
3/28/2021 10:30:00 PM 7.99 46.382 0.073 7.1 28.33 10.83
3/28/2021 10:45:00 PM 7.91 46.238 0.073 7.09 35.58 10.88
3/28/2021 11:00:00 PM 7.86 46.148 0.073 7.1 29.29 10.87
3/28/2021 11:15:00 PM 7.76 45.968 0.073 7.09 28.09 10.89
3/28/2021 11:30:00 PM 7.71 45.878 0.072 7.08 24.01 10.82
3/28/2021 11:45:00 PM 7.62 45.716 0.072 7.09 22.13 10.92
3/29/2021 12:00:00 AM 7.56 45.608 0.072 7.09 19.73 10.97
3/29/2021 12:15:00 AM 7.46 45.428 0.072 7.08 22.31 10.99
3/29/2021 12:30:00 AM 7.37 45.266 0.073 7.07 18.56 10.95
3/29/2021 12:45:00 AM 7.29 45.122 0.073 7.07 19.34 10.99
3/29/2021 1:00:00 AM 7.22 44.996 0.073 7.07 17.79 10.95
3/29/2021 1:15:00 AM 7.15 44.87 0.073 7.08 17.63 11.04
3/29/2021 1:30:00 AM 7.09 44.762 0.073 7.07 16.55 10.99
3/29/2021 1:45:00 AM 7.04 44.672 0.073 7.07 16.49 10.98
3/29/2021 2:00:00 AM 6.95 44.51 0.074 7.07 15.25 11.02
3/29/2021 2:15:00 AM 6.86 44.348 0.073 7.07 14.49 11.06
3/29/2021 2:30:00 AM 6.76 44.168 0.074 7.07 14.37 11.16
3/29/2021 2:45:00 AM 6.68 44.024 0.074 7.07 13.49 11.15
3/29/2021 3:00:00 AM 6.6 43.88 0.074 7.06 13.23 11.17
3/29/2021 3:15:00 AM 6.52 43.736 0.074 7.06 12.82 11.19
3/29/2021 3:30:00 AM 6.45 43.61 0.074 7.06 12.2 11.21
3/29/2021 3:45:00 AM 6.38 43.484 0.074 7.06 12.26 11.25
3/29/2021 4:00:00 AM 6.31 43.358 0.075 7.06 11.83 11.28
3/29/2021 4:15:00 AM 6.24 43.232 0.075 7.06 11.32 11.23
3/29/2021 4:30:00 AM 6.17 43.106 0.075 7.06 11.06 11.31
3/29/2021 4:45:00 AM 6.1 42.98 0.075 7.06 11.48 11.28
3/29/2021 5:00:00 AM 6.05 42.89 0.075 7.06 11.46 11.35
3/29/2021 5:15:00 AM 5.99 42.782 0.075 7.06 11.04 11.32
3/29/2021 5:30:00 AM 5.93 42.674 0.075 7.06 10.9 11.4
3/29/2021 5:45:00 AM 5.87 42.566 0.075 7.06 10.34 11.4
3/29/2021 6:00:00 AM 5.83 42.494 0.075 7.07 10.04 11.45
3/29/2021 6:15:00 AM 5.78 42.404 0.075 7.06 10.2 11.44
3/29/2021 6:30:00 AM 5.72 42.296 0.075 7.07 10.15 11.5
3/29/2021 6:45:00 AM 5.66 42.188 0.075 7.06 9.41 11.48
3/29/2021 7:00:00 AM 5.62 42.116 0.075 7.05 9.08 11.51
3/29/2021 7:15:00 AM 5.58 42.044 0.075 7.05 9.39 11.52
3/29/2021 7:30:00 AM 5.53 41.954 0.075 7.06 9.15 11.53
3/29/2021 7:45:00 AM 5.48 41.864 0.076 7.06 10.34 11.56
3/29/2021 8:00:00 AM 5.44 41.792 0.076 7.07 9.65 11.64
3/29/2021 8:15:00 AM 5.4 41.72 0.076 7.08 9.14 11.71
3/29/2021 8:30:00 AM 5.36 41.648 0.076 7.09 10.22 11.73
3/29/2021 8:45:00 AM 5.33 41.594 0.076 7.1 8.59 11.83
3/29/2021 9:00:00 AM 5.31 41.558 0.076 7.11 8.27 11.92
3/29/2021 9:15:00 AM 5.29 41.522 0.076 7.13 7.97 12.01
3/29/2021 9:30:00 AM 5.28 41.504 0.076 7.15 8.05 12.14
3/29/2021 9:45:00 AM 5.28 41.504 0.076 7.19 7.43 12.21
3/29/2021 10:00:00 AM 5.27 41.486 0.076 7.2 7.78 12.28
3/29/2021 10:15:00 AM 5.27 41.486 0.076 7.22 7.6 12.34
3/29/2021 10:30:00 AM 5.28 41.504 0.076 7.25 7.31 12.42
3/29/2021 10:45:00 AM 5.3 41.54 0.076 7.26 7.19 12.43
3/29/2021 11:00:00 AM 5.32 41.576 0.076 7.29 6.92 12.49
3/29/2021 11:15:00 AM 5.35 41.63 0.076 7.32 6.85 12.51
3/29/2021 11:30:00 AM 5.4 41.72 0.076 7.34 6.52 12.62
3/29/2021 11:45:00 AM 5.42 41.756 0.076 7.36 6.95 12.61
3/29/2021 12:00:00 PM 5.47 41.846 0.076 7.38 6.35 12.57
3/29/2021 12:15:00 PM 5.62 42.116 0.076 7.4 6.51 12.65
3/29/2021 12:30:00 PM 5.79 42.422 0.076 7.43 6.31 12.71
3/29/2021 12:45:00 PM 6 42.8 0.077 7.44 6.32 12.58
3/29/2021 1:00:00 PM 6.19 43.142 0.077 7.45 6.04 12.57
3/29/2021 1:15:00 PM 6.42 43.556 0.076 7.46 6.12 12.54
3/29/2021 1:30:00 PM 6.68 44.024 0.076 7.48 6.11 12.5
3/29/2021 1:45:00 PM 6.9 44.42 0.077 7.49 5.89 12.42
3/29/2021 2:00:00 PM 7.11 44.798 0.076 7.48 5.81 12.4
3/29/2021 2:15:00 PM 7.29 45.122 0.077 7.5 6.04 12.35
3/29/2021 2:30:00 PM 7.47 45.446 0.076 7.5 5.84 12.28
3/29/2021 2:45:00 PM 7.67 45.806 0.077 7.52 6.07 12.25
3/29/2021 3:00:00 PM 7.85 46.13 0.076 7.52 5.79 12.23
3/29/2021 3:15:00 PM 7.99 46.382 0.077 7.52 5.71 12.15
3/29/2021 3:30:00 PM 8.12 46.616 0.076 7.53 5.82 12.11
3/29/2021 3:45:00 PM 8.22 46.796 0.077 7.53 5.73 11.99
3/29/2021 4:00:00 PM 8.28 46.904 0.077 7.54 5.78 12.03
3/29/2021 4:15:00 PM 8.33 46.994 0.077 7.55 5.62 12.01
3/29/2021 4:30:00 PM 8.36 47.048 0.077 7.55 5.46 12.01
3/29/2021 4:45:00 PM 8.36 47.048 0.077 7.55 5.47 11.97
3/29/2021 5:00:00 PM 8.35 47.03 0.077 7.53 5.43 11.92
3/29/2021 5:15:00 PM 8.32 46.976 0.077 7.53 5.35 11.89
3/29/2021 5:30:00 PM 8.27 46.886 0.077 7.52 5.26 11.91
3/29/2021 5:45:00 PM 8.2 46.76 0.077 7.46 5.55 11.75
3/29/2021 6:00:00 PM 8.13 46.634 0.077 7.47 5.41 11.79
3/29/2021 6:15:00 PM 8.04 46.472 0.077 7.46 5.42 11.77
3/29/2021 6:30:00 PM 7.93 46.274 0.077 7.43 5.37 11.72
3/29/2021 6:45:00 PM 7.81 46.058 0.077 7.4 5.29 11.63
3/29/2021 7:00:00 PM 7.68 45.824 0.077 7.35 5.2 11.53
3/29/2021 7:15:00 PM 7.55 45.59 0.077 7.3 5.34 11.44
3/29/2021 7:30:00 PM 7.43 45.374 0.078 7.27 6.04 11.44
3/29/2021 7:45:00 PM 7.32 45.176 0.078 7.22 5.73 11.33
3/29/2021 8:00:00 PM 7.2 44.96 0.078 7.18 5.88 11.34
3/29/2021 8:15:00 PM 7.08 44.744 0.078 7.15 8 11.27
3/29/2021 8:30:00 PM 6.98 44.564 0.078 7.12 7.68 11.25
3/29/2021 8:45:00 PM 6.88 44.384 0.078 7.1 5.81 11.22
3/29/2021 9:00:00 PM 6.76 44.168 0.078 7.09 5.69 11.29
3/29/2021 9:15:00 PM 6.65 43.97 0.078 7.08 5.55 11.3
3/29/2021 9:30:00 PM 6.53 43.754 0.078 7.08 5.76 11.35
3/29/2021 9:45:00 PM 6.4 43.52 0.079 7.07 7.07 11.43
3/29/2021 10:00:00 PM 6.29 43.322 0.079 7.06 7.2 11.44
3/29/2021 10:15:00 PM 6.19 43.142 0.079 7.05 7.03 11.48
3/29/2021 10:30:00 PM 6.09 42.962 0.079 7.06 6.47 11.52
3/29/2021 10:45:00 PM 6 42.8 0.079 7.04 5.68 11.39
3/29/2021 11:00:00 PM 5.9 42.62 0.079 7.06 5.54 11.47
3/29/2021 11:15:00 PM 5.81 42.458 0.079 7.04 5.35 11.46
3/29/2021 11:30:00 PM 5.71 42.278 0.079 7.04 5.85 11.56
3/29/2021 11:45:00 PM 5.62 42.116 0.079 7.05 5.73 11.64
3/30/2021 12:00:00 AM 5.54 41.972 0.079 7.03 5.84 11.53
3/30/2021 12:15:00 AM 5.44 41.792 0.079 7.04 7.21 11.66
3/30/2021 12:30:00 AM 5.37 41.666 0.079 7.04 5.4 11.6
3/30/2021 12:45:00 AM 5.28 41.504 0.079 7.05 5.8 11.71
3/30/2021 1:00:00 AM 5.21 41.378 0.079 7.04 5.68 11.65
3/30/2021 1:15:00 AM 5.14 41.252 0.079 7.03 5.27 11.68
3/30/2021 1:30:00 AM 5.07 41.126 0.08 7.03 5.27 11.72
3/30/2021 1:45:00 AM 5 41 0.079 7.03 6.47 11.75
3/30/2021 2:00:00 AM 4.93 40.874 0.079 7.03 5.48 11.81
3/30/2021 2:15:00 AM 4.87 40.766 0.079 7.04 5.29 11.83
3/30/2021 2:30:00 AM 4.8 40.64 0.079 7.04 5.04 11.86
3/30/2021 2:45:00 AM 4.74 40.532 0.079 7.04 5.15 11.88
3/30/2021 3:00:00 AM 4.67 40.406 0.08 7.04 5.54 11.87
3/30/2021 3:15:00 AM 4.61 40.298 0.08 7.04 5.19 11.92
3/30/2021 3:30:00 AM 4.55 40.19 0.08 7.03 5.31 11.92
3/30/2021 3:45:00 AM 4.49 40.082 0.08 7.03 5.18 11.97
3/30/2021 4:00:00 AM 4.43 39.974 0.08 7.03 5.12 11.96
3/30/2021 4:15:00 AM 4.37 39.866 0.08 7.03 4.97 12.01
3/30/2021 4:30:00 AM 4.31 39.758 0.08 7.03 4.9 12
3/30/2021 4:45:00 AM 4.25 39.65 0.08 7.03 4.92 12.05
3/30/2021 5:00:00 AM 4.2 39.56 0.08 7.03 4.89 12.05
3/30/2021 5:15:00 AM 4.14 39.452 0.08 7.03 4.87 12.07
3/30/2021 5:30:00 AM 4.09 39.362 0.08 7.03 4.86 12.1
3/30/2021 5:45:00 AM 4.03 39.254 0.08 7.03 4.88 12.09
3/30/2021 6:00:00 AM 3.98 39.164 0.08 7.02 4.88 12.16
3/30/2021 6:15:00 AM 3.93 39.074 0.08 7.03 4.87 12.21
3/30/2021 6:30:00 AM 3.87 38.966 0.08 7.03 4.82 12.16
3/30/2021 6:45:00 AM 3.82 38.876 0.08 7.04 5 12.22
3/30/2021 7:00:00 AM 3.77 38.786 0.08 7.03 5.61 12.16
3/30/2021 7:15:00 AM 3.72 38.696 0.08 7.04 15.58 12.31
3/30/2021 7:30:00 AM 3.67 38.606 0.08 7.04 9.46 12.32
3/30/2021 7:45:00 AM 3.64 38.552 0.08 7.05 11.99 12.35
3/30/2021 8:00:00 AM 3.61 38.498 0.08 7.06 18.86 12.57
3/30/2021 8:15:00 AM 3.59 38.462 0.08 7.08 17.96 12.56
3/30/2021 8:30:00 AM 3.57 38.426 0.08 7.09 7.33 12.62
3/30/2021 8:45:00 AM 3.57 38.426 0.08 7.12 8.77 12.83
3/30/2021 9:00:00 AM 3.58 38.444 0.08 7.13 5.19 12.74
3/30/2021 9:15:00 AM 3.61 38.498 0.08 7.15 5.37 12.82
3/30/2021 9:30:00 AM 3.66 38.588 0.079 7.17 7.81 12.89
3/30/2021 9:45:00 AM 3.75 38.75 0.079 7.21 12.58 12.98
3/30/2021 10:00:00 AM 3.85 38.93 0.079 7.22 8.7 12.99
3/30/2021 10:15:00 AM 3.97 39.146 0.079 7.24 5.16 12.98
3/30/2021 10:30:00 AM 4.11 39.398 0.079 7.26 5.2 12.99
3/30/2021 10:45:00 AM 4.28 39.704 0.079 7.28 4.6 12.98
3/30/2021 11:00:00 AM 4.47 40.046 0.078 7.31 4.93 12.98
3/30/2021 11:15:00 AM 4.69 40.442 0.078 7.32 4.79 12.93
3/30/2021 11:30:00 AM 4.92 40.856 0.078 7.34 4.66 12.93
3/30/2021 11:45:00 AM 5.19 41.342 0.078 7.37 4.62 12.89
3/30/2021 12:00:00 PM 5.48 41.864 0.078 7.39 4.79 12.82
3/30/2021 12:15:00 PM 5.79 42.422 0.078 7.39 4.76 12.77
3/30/2021 12:30:00 PM 6.11 42.998 0.078 7.42 5.13 12.69
3/30/2021 12:45:00 PM 6.45 43.61 0.078 7.45 4.85 12.63
3/30/2021 1:00:00 PM 6.79 44.222 0.078 7.47 4.42 12.56
3/30/2021 1:15:00 PM 7.12 44.816 0.078 7.49 4.61 12.47
3/30/2021 1:30:00 PM 7.45 45.41 0.078 7.5 4.57 12.42
3/30/2021 1:45:00 PM 7.77 45.986 0.077 7.51 4.5 12.32
3/30/2021 2:00:00 PM 8.06 46.508 0.077 7.52 4.41 12.24
3/30/2021 2:15:00 PM 8.35 47.03 0.077 7.55 4.37 12.16
3/30/2021 2:30:00 PM 8.61 47.498 0.077 7.55 4.42 12.08
3/30/2021 2:45:00 PM 8.86 47.948 0.077 7.6 4.38 11.99
3/30/2021 3:00:00 PM 9.08 48.344 0.077 7.6 4.26 11.87
3/30/2021 3:15:00 PM 9.27 48.686 0.077 7.62 4.24 11.85
3/30/2021 3:30:00 PM 9.43 48.974 0.077 7.61 4.45 11.82
3/30/2021 3:45:00 PM 9.57 49.226 0.077 7.64 4.39 11.76
3/30/2021 4:00:00 PM 9.69 49.442 0.077 7.62 4.26 11.7
3/30/2021 4:15:00 PM 9.78 49.604 0.077 7.67 4.74 11.66
3/30/2021 4:30:00 PM 9.84 49.712 0.077 7.64 5.04 11.71
3/30/2021 4:45:00 PM 9.86 49.748 0.077 7.64 5.32 11.64
3/30/2021 5:00:00 PM 9.86 49.748 0.077 7.65 5.4 11.57
3/30/2021 5:15:00 PM 9.84 49.712 0.077 7.64 5.36 11.55
3/30/2021 5:30:00 PM 9.79 49.622 0.077 7.63 5.22 11.52
3/30/2021 5:45:00 PM 9.72 49.496 0.077 7.59 4.98 11.47
3/30/2021 6:00:00 PM 9.63 49.334 0.077 7.56 4.79 11.39
3/30/2021 6:15:00 PM 9.55 49.19 0.077 7.51 4.73 11.34
3/30/2021 6:30:00 PM 9.47 49.046 0.077 7.5 4.7 11.31
3/30/2021 6:45:00 PM 9.37 48.866 0.077 7.47 4.6 11.28
3/30/2021 7:00:00 PM 9.25 48.65 0.077 7.4 4.61 11.17
3/30/2021 7:15:00 PM 9.12 48.416 0.077 7.36 5.32 11.22
3/30/2021 7:30:00 PM 9.02 48.236 0.078 7.31 4.85 10.95
3/30/2021 7:45:00 PM 8.89 48.002 0.078 7.24 5.49 10.98
3/30/2021 8:00:00 PM 8.79 47.822 0.078 7.2 5.54 10.91
3/30/2021 8:15:00 PM 8.71 47.678 0.078 7.16 5.27 10.72
3/30/2021 8:30:00 PM 8.62 47.516 0.078 7.13 4.88 10.65
3/30/2021 8:45:00 PM 8.53 47.354 0.078 7.11 4.86 10.63
3/30/2021 9:00:00 PM 8.44 47.192 0.078 7.09 4.85 10.6
3/30/2021 9:15:00 PM 8.34 47.012 0.078 7.07 5.39 10.71
3/30/2021 9:30:00 PM 8.25 46.85 0.078 7.06 5.49 10.65
3/30/2021 9:45:00 PM 8.17 46.706 0.078 7.07 4.98 10.67
3/30/2021 10:00:00 PM 8.09 46.562 0.078 7.05 4.75 10.66
3/30/2021 10:15:00 PM 8 46.4 0.078 7.05 4.68 10.65
3/30/2021 10:30:00 PM 7.92 46.256 0.078 7.05 4.86 10.8
3/30/2021 10:45:00 PM 7.85 46.13 0.078 7.04 4.9 10.8
3/30/2021 11:00:00 PM 7.77 45.986 0.078 7.04 6.08 10.75
3/30/2021 11:15:00 PM 7.71 45.878 0.079 7.05 5.53 10.88
3/30/2021 11:30:00 PM 7.64 45.752 0.078 7.05 5.64 10.9
3/30/2021 11:45:00 PM 7.58 45.644 0.078 7.03 35.54 10.85
3/31/2021 12:00:00 AM 7.52 45.536 0.078 7.06 6.13 10.99
3/31/2021 12:15:00 AM 7.47 45.446 0.078 7.05 5.05 11
3/31/2021 12:30:00 AM 7.41 45.338 0.078 7.05 8.93 11.02
3/31/2021 12:45:00 AM 7.37 45.266 0.078 7.06 8.49 11.02
3/31/2021 1:00:00 AM 7.33 45.194 0.078 7.05 6.09 11
3/31/2021 1:15:00 AM 7.29 45.122 0.078 7.05 5.17 10.88
3/31/2021 1:30:00 AM 7.25 45.05 0.078 7.05 5.69 10.88
3/31/2021 1:45:00 AM 7.21 44.978 0.078 7.05 5.06 10.88
3/31/2021 2:00:00 AM 7.17 44.906 0.078 7.04 4.69 10.89
3/31/2021 2:15:00 AM 7.14 44.852 0.078 7.04 4.65 10.87
3/31/2021 2:30:00 AM 7.1 44.78 0.078 7.04 4.83 10.89
3/31/2021 2:45:00 AM 7.07 44.726 0.078 7.04 4.88 10.87
3/31/2021 3:00:00 AM 7.03 44.654 0.078 7.03 4.67 10.98
3/31/2021 3:15:00 AM 7 44.6 0.078 7.04 4.51 10.94
3/31/2021 3:30:00 AM 6.97 44.546 0.078 7.04 4.67 10.94
3/31/2021 3:45:00 AM 6.94 44.492 0.078 7.04 4.54 10.89
3/31/2021 4:00:00 AM 6.91 44.438 0.078 7.04 4.53 10.96
3/31/2021 4:15:00 AM 6.88 44.384 0.078 7.04 4.68 10.96
3/31/2021 4:30:00 AM 6.86 44.348 0.078 7.05 4.59 10.97
3/31/2021 4:45:00 AM 6.83 44.294 0.078 7.05 4.73 10.99
3/31/2021 5:00:00 AM 6.8 44.24 0.078 7.05 4.71 10.99
3/31/2021 5:15:00 AM 6.78 44.204 0.078 7.05 4.67 11.03
3/31/2021 5:30:00 AM 6.76 44.168 0.078 7.05 4.46 11.04
3/31/2021 5:45:00 AM 6.74 44.132 0.078 7.05 4.5 11.03
3/31/2021 6:00:00 AM 6.73 44.114 0.078 7.05 4.39 11.06
3/31/2021 6:15:00 AM 6.72 44.096 0.078 7.05 4.5 11.05
3/31/2021 6:30:00 AM 6.7 44.06 0.078 7.05 8.04 11.15
3/31/2021 6:45:00 AM 6.69 44.042 0.078 7.05 9.38 11.09
3/31/2021 7:00:00 AM 6.69 44.042 0.078 7.05 4.77 11.06
3/31/2021 7:15:00 AM 6.68 44.024 0.078 7.06 4.79 11.07
3/31/2021 7:30:00 AM 6.68 44.024 0.078 7.06 4.69 11.08
3/31/2021 7:45:00 AM 6.69 44.042 0.077 7.07 5.83 11.19
3/31/2021 8:00:00 AM 6.7 44.06 0.077 7.08 5.69 11.18
3/31/2021 8:15:00 AM 6.71 44.078 0.077 7.09 4.73 11.32
3/31/2021 8:30:00 AM 6.74 44.132 0.077 7.14 8.86 11.47
3/31/2021 8:45:00 AM 6.77 44.186 0.077 7.13 5.05 11.46
3/31/2021 9:00:00 AM 6.81 44.258 0.077 7.17 4.9 11.59
3/31/2021 9:15:00 AM 6.85 44.33 0.077 7.19 4.76 11.77
3/31/2021 9:30:00 AM 6.89 44.402 0.077 7.23 5.15 11.82
3/31/2021 9:45:00 AM 6.93 44.474 0.077 7.27 4.36 11.95
3/31/2021 10:00:00 AM 6.98 44.564 0.076 7.31 4.38 12.04
3/31/2021 10:15:00 AM 7.05 44.69 0.076 7.33 4.18 12.04
3/31/2021 10:30:00 AM 7.12 44.816 0.076 7.36 4.22 12.12
3/31/2021 10:45:00 AM 7.2 44.96 0.076 7.39 4.12 12.18
3/31/2021 11:00:00 AM 7.28 45.104 0.076 7.43 4.12 12.21
3/31/2021 11:15:00 AM 7.36 45.248 0.076 7.47 4.23 12.21
3/31/2021 11:30:00 AM 7.43 45.374 0.076 7.49 4.05 12.2
3/31/2021 11:45:00 AM 7.49 45.482 0.076 7.5 4.11 12.16
3/31/2021 12:00:00 PM 7.54 45.572 0.075 7.51 4.02 12.11